<?xml version="1.0" encoding="UTF-8" standalone="no" ?>
<gpx xmlns="http://www.topografix.com/GPX/1/1" xmlns:xsi="http://www.w3.org/2001/XMLSchema-instance" xsi:schemaLocation="http://www.topografix.com/GPX/1/1 http://www.topografix.com/GPX/1/1/gpx.xsd" version="1.1" creator="VisuGPX - https://www.visugpx.com">
  <metadata>
    <name>Rando vtt rilhac rancon</name>
    <desc><![CDATA[rando vtt à Rilhac rancon 

Circuit de 27 km]]></desc>
  </metadata>
  <trk>
    <name><![CDATA[Rando vtt rilhac rancon_1]]></name>
    <trkseg>
      <trkpt lat="45.8984" lon="1.31506">
        <ele>334.67614746094</ele>
        <time>2011-06-19T06:46:54Z</time>
      </trkpt>
      <trkpt lat="45.8983" lon="1.31503">
        <ele>332.27282714844</ele>
        <time>2011-06-19T06:47:00Z</time>
      </trkpt>
      <trkpt lat="45.89819" lon="1.31491">
        <ele>334.19543457031</ele>
        <time>2011-06-19T06:47:07Z</time>
      </trkpt>
      <trkpt lat="45.89802" lon="1.31481">
        <ele>335.63732910156</ele>
        <time>2011-06-19T06:47:15Z</time>
      </trkpt>
      <trkpt lat="45.89786" lon="1.31472">
        <ele>335.15673828125</ele>
        <time>2011-06-19T06:47:21Z</time>
      </trkpt>
      <trkpt lat="45.89772" lon="1.31469">
        <ele>333.71472167969</ele>
        <time>2011-06-19T06:47:26Z</time>
      </trkpt>
      <trkpt lat="45.89763" lon="1.31465">
        <ele>331.79211425781</ele>
        <time>2011-06-19T06:47:32Z</time>
      </trkpt>
      <trkpt lat="45.89754" lon="1.31469">
        <ele>330.83093261719</ele>
        <time>2011-06-19T06:47:38Z</time>
      </trkpt>
      <trkpt lat="45.89742" lon="1.3147">
        <ele>329.86950683594</ele>
        <time>2011-06-19T06:47:43Z</time>
      </trkpt>
      <trkpt lat="45.89722" lon="1.3146">
        <ele>330.35021972656</ele>
        <time>2011-06-19T06:47:50Z</time>
      </trkpt>
      <trkpt lat="45.89696" lon="1.31439">
        <ele>330.35021972656</ele>
        <time>2011-06-19T06:47:58Z</time>
      </trkpt>
      <trkpt lat="45.89672" lon="1.31415">
        <ele>328.42761230469</ele>
        <time>2011-06-19T06:48:05Z</time>
      </trkpt>
      <trkpt lat="45.89656" lon="1.31389">
        <ele>329.38891601562</ele>
        <time>2011-06-19T06:48:11Z</time>
      </trkpt>
      <trkpt lat="45.89653" lon="1.3138">
        <ele>327.46618652344</ele>
        <time>2011-06-19T06:48:13Z</time>
      </trkpt>
      <trkpt lat="45.89641" lon="1.31358">
        <ele>326.5048828125</ele>
        <time>2011-06-19T06:48:18Z</time>
      </trkpt>
      <trkpt lat="45.89617" lon="1.31331">
        <ele>329.38891601562</ele>
        <time>2011-06-19T06:48:25Z</time>
      </trkpt>
      <trkpt lat="45.89594" lon="1.31314">
        <ele>330.83093261719</ele>
        <time>2011-06-19T06:48:31Z</time>
      </trkpt>
      <trkpt lat="45.89563" lon="1.31297">
        <ele>330.35021972656</ele>
        <time>2011-06-19T06:48:38Z</time>
      </trkpt>
      <trkpt lat="45.89542" lon="1.31286">
        <ele>328.42761230469</ele>
        <time>2011-06-19T06:48:43Z</time>
      </trkpt>
      <trkpt lat="45.89515" lon="1.31268">
        <ele>327.94677734375</ele>
        <time>2011-06-19T06:48:50Z</time>
      </trkpt>
      <trkpt lat="45.89483" lon="1.31242">
        <ele>326.98559570312</ele>
        <time>2011-06-19T06:48:58Z</time>
      </trkpt>
      <trkpt lat="45.89466" lon="1.31228">
        <ele>326.98559570312</ele>
        <time>2011-06-19T06:49:02Z</time>
      </trkpt>
      <trkpt lat="45.89454" lon="1.31217">
        <ele>327.46618652344</ele>
        <time>2011-06-19T06:49:05Z</time>
      </trkpt>
      <trkpt lat="45.89412" lon="1.31184">
        <ele>327.46618652344</ele>
        <time>2011-06-19T06:49:15Z</time>
      </trkpt>
      <trkpt lat="45.89384" lon="1.31161">
        <ele>326.98559570312</ele>
        <time>2011-06-19T06:49:22Z</time>
      </trkpt>
      <trkpt lat="45.89349" lon="1.31135">
        <ele>326.98559570312</ele>
        <time>2011-06-19T06:49:31Z</time>
      </trkpt>
      <trkpt lat="45.89315" lon="1.31106">
        <ele>326.02416992188</ele>
        <time>2011-06-19T06:49:40Z</time>
      </trkpt>
      <trkpt lat="45.89308" lon="1.31085">
        <ele>326.02416992188</ele>
        <time>2011-06-19T06:49:44Z</time>
      </trkpt>
      <trkpt lat="45.89307" lon="1.31074">
        <ele>326.02416992188</ele>
        <time>2011-06-19T06:49:46Z</time>
      </trkpt>
      <trkpt lat="45.89303" lon="1.31035">
        <ele>325.54357910156</ele>
        <time>2011-06-19T06:49:53Z</time>
      </trkpt>
      <trkpt lat="45.89298" lon="1.31013">
        <ele>324.1015625</ele>
        <time>2011-06-19T06:49:57Z</time>
      </trkpt>
      <trkpt lat="45.89294" lon="1.31005">
        <ele>324.1015625</ele>
        <time>2011-06-19T06:49:59Z</time>
      </trkpt>
      <trkpt lat="45.89291" lon="1.30994">
        <ele>323.14038085938</ele>
        <time>2011-06-19T06:50:01Z</time>
      </trkpt>
      <trkpt lat="45.89275" lon="1.30976">
        <ele>320.25634765625</ele>
        <time>2011-06-19T06:50:05Z</time>
      </trkpt>
      <trkpt lat="45.89264" lon="1.30967">
        <ele>318.33361816406</ele>
        <time>2011-06-19T06:50:07Z</time>
      </trkpt>
      <trkpt lat="45.89247" lon="1.30951">
        <ele>315.93041992188</ele>
        <time>2011-06-19T06:50:11Z</time>
      </trkpt>
      <trkpt lat="45.89244" lon="1.30948">
        <ele>315.44982910156</ele>
        <time>2011-06-19T06:50:12Z</time>
      </trkpt>
      <trkpt lat="45.8922" lon="1.30935">
        <ele>314.48840332031</ele>
        <time>2011-06-19T06:50:17Z</time>
      </trkpt>
      <trkpt lat="45.89198" lon="1.30926">
        <ele>314.0078125</ele>
        <time>2011-06-19T06:50:21Z</time>
      </trkpt>
      <trkpt lat="45.89184" lon="1.30907">
        <ele>312.56579589844</ele>
        <time>2011-06-19T06:50:25Z</time>
      </trkpt>
      <trkpt lat="45.89182" lon="1.30892">
        <ele>314.0078125</ele>
        <time>2011-06-19T06:50:28Z</time>
      </trkpt>
      <trkpt lat="45.89167" lon="1.30879">
        <ele>310.16247558594</ele>
        <time>2011-06-19T06:50:32Z</time>
      </trkpt>
      <trkpt lat="45.89163" lon="1.30875">
        <ele>309.201171875</ele>
        <time>2011-06-19T06:50:33Z</time>
      </trkpt>
      <trkpt lat="45.89138" lon="1.3086">
        <ele>303.91394042969</ele>
        <time>2011-06-19T06:50:38Z</time>
      </trkpt>
      <trkpt lat="45.89126" lon="1.30851">
        <ele>302.95251464844</ele>
        <time>2011-06-19T06:50:41Z</time>
      </trkpt>
      <trkpt lat="45.89112" lon="1.30824">
        <ele>299.58801269531</ele>
        <time>2011-06-19T06:50:45Z</time>
      </trkpt>
      <trkpt lat="45.89104" lon="1.30788">
        <ele>296.7041015625</ele>
        <time>2011-06-19T06:50:51Z</time>
      </trkpt>
      <trkpt lat="45.89097" lon="1.3076">
        <ele>295.74267578125</ele>
        <time>2011-06-19T06:50:57Z</time>
      </trkpt>
      <trkpt lat="45.8909" lon="1.30743">
        <ele>292.37817382812</ele>
        <time>2011-06-19T06:51:01Z</time>
      </trkpt>
      <trkpt lat="45.89079" lon="1.30728">
        <ele>289.01354980469</ele>
        <time>2011-06-19T06:51:06Z</time>
      </trkpt>
      <trkpt lat="45.89064" lon="1.30718">
        <ele>287.0908203125</ele>
        <time>2011-06-19T06:51:10Z</time>
      </trkpt>
      <trkpt lat="45.89046" lon="1.30712">
        <ele>283.24560546875</ele>
        <time>2011-06-19T06:51:15Z</time>
      </trkpt>
      <trkpt lat="45.89035" lon="1.3071">
        <ele>279.880859375</ele>
        <time>2011-06-19T06:51:18Z</time>
      </trkpt>
      <trkpt lat="45.89025" lon="1.307">
        <ele>273.63244628906</ele>
        <time>2011-06-19T06:51:23Z</time>
      </trkpt>
      <trkpt lat="45.89014" lon="1.30677">
        <ele>272.1904296875</ele>
        <time>2011-06-19T06:51:28Z</time>
      </trkpt>
      <trkpt lat="45.89014" lon="1.30672">
        <ele>271.22912597656</ele>
        <time>2011-06-19T06:51:29Z</time>
      </trkpt>
      <trkpt lat="45.89012" lon="1.30641">
        <ele>274.11303710938</ele>
        <time>2011-06-19T06:51:36Z</time>
      </trkpt>
      <trkpt lat="45.89014" lon="1.30614">
        <ele>284.20690917969</ele>
        <time>2011-06-19T06:51:41Z</time>
      </trkpt>
      <trkpt lat="45.89016" lon="1.30598">
        <ele>285.64880371094</ele>
        <time>2011-06-19T06:51:45Z</time>
      </trkpt>
      <trkpt lat="45.89016" lon="1.30591">
        <ele>284.68762207031</ele>
        <time>2011-06-19T06:51:47Z</time>
      </trkpt>
      <trkpt lat="45.89015" lon="1.30569">
        <ele>289.97485351562</ele>
        <time>2011-06-19T06:51:53Z</time>
      </trkpt>
      <trkpt lat="45.89015" lon="1.30566">
        <ele>290.45556640625</ele>
        <time>2011-06-19T06:51:54Z</time>
      </trkpt>
      <trkpt lat="45.89005" lon="1.30545">
        <ele>297.18469238281</ele>
        <time>2011-06-19T06:52:02Z</time>
      </trkpt>
      <trkpt lat="45.88997" lon="1.30536">
        <ele>297.66540527344</ele>
        <time>2011-06-19T06:52:08Z</time>
      </trkpt>
      <trkpt lat="45.88989" lon="1.3052">
        <ele>298.62670898438</ele>
        <time>2011-06-19T06:52:15Z</time>
      </trkpt>
      <trkpt lat="45.88981" lon="1.30509">
        <ele>298.62670898438</ele>
        <time>2011-06-19T06:52:21Z</time>
      </trkpt>
      <trkpt lat="45.88973" lon="1.30501">
        <ele>301.02990722656</ele>
        <time>2011-06-19T06:52:28Z</time>
      </trkpt>
      <trkpt lat="45.8897" lon="1.305">
        <ele>299.58801269531</ele>
        <time>2011-06-19T06:52:31Z</time>
      </trkpt>
      <trkpt lat="45.88962" lon="1.30509">
        <ele>296.7041015625</ele>
        <time>2011-06-19T06:52:38Z</time>
      </trkpt>
      <trkpt lat="45.88962" lon="1.30518">
        <ele>298.62670898438</ele>
        <time>2011-06-19T06:52:45Z</time>
      </trkpt>
      <trkpt lat="45.88962" lon="1.30518">
        <ele>298.62670898438</ele>
        <time>2011-06-19T06:52:46Z</time>
      </trkpt>
      <trkpt lat="45.88962" lon="1.3052">
        <ele>299.58801269531</ele>
        <time>2011-06-19T06:52:49Z</time>
      </trkpt>
      <trkpt lat="45.88962" lon="1.30524">
        <ele>303.91394042969</ele>
        <time>2011-06-19T06:52:52Z</time>
      </trkpt>
      <trkpt lat="45.88963" lon="1.30535">
        <ele>308.23986816406</ele>
        <time>2011-06-19T06:52:59Z</time>
      </trkpt>
      <trkpt lat="45.88962" lon="1.30541">
        <ele>309.68188476562</ele>
        <time>2011-06-19T06:53:04Z</time>
      </trkpt>
      <trkpt lat="45.88961" lon="1.30545">
        <ele>310.64306640625</ele>
        <time>2011-06-19T06:53:08Z</time>
      </trkpt>
      <trkpt lat="45.88961" lon="1.30547">
        <ele>310.16247558594</ele>
        <time>2011-06-19T06:53:13Z</time>
      </trkpt>
      <trkpt lat="45.88961" lon="1.30547">
        <ele>309.68188476562</ele>
        <time>2011-06-19T06:53:14Z</time>
      </trkpt>
      <trkpt lat="45.8896" lon="1.30548">
        <ele>309.68188476562</ele>
        <time>2011-06-19T06:53:17Z</time>
      </trkpt>
      <trkpt lat="45.88959" lon="1.30547">
        <ele>309.201171875</ele>
        <time>2011-06-19T06:53:18Z</time>
      </trkpt>
      <trkpt lat="45.88954" lon="1.30547">
        <ele>308.72045898438</ele>
        <time>2011-06-19T06:53:22Z</time>
      </trkpt>
      <trkpt lat="45.8895" lon="1.30545">
        <ele>308.23986816406</ele>
        <time>2011-06-19T06:53:25Z</time>
      </trkpt>
      <trkpt lat="45.88943" lon="1.3054">
        <ele>308.72045898438</ele>
        <time>2011-06-19T06:53:30Z</time>
      </trkpt>
      <trkpt lat="45.8894" lon="1.30537">
        <ele>310.64306640625</ele>
        <time>2011-06-19T06:53:33Z</time>
      </trkpt>
      <trkpt lat="45.88932" lon="1.30535">
        <ele>311.6044921875</ele>
        <time>2011-06-19T06:53:39Z</time>
      </trkpt>
      <trkpt lat="45.8892" lon="1.30529">
        <ele>311.12377929688</ele>
        <time>2011-06-19T06:53:46Z</time>
      </trkpt>
      <trkpt lat="45.88908" lon="1.30526">
        <ele>308.72045898438</ele>
        <time>2011-06-19T06:53:53Z</time>
      </trkpt>
      <trkpt lat="45.88898" lon="1.30523">
        <ele>308.23986816406</ele>
        <time>2011-06-19T06:54:00Z</time>
      </trkpt>
      <trkpt lat="45.88887" lon="1.30519">
        <ele>309.68188476562</ele>
        <time>2011-06-19T06:54:08Z</time>
      </trkpt>
      <trkpt lat="45.88876" lon="1.3052">
        <ele>307.27856445312</ele>
        <time>2011-06-19T06:54:14Z</time>
      </trkpt>
      <trkpt lat="45.88864" lon="1.30523">
        <ele>306.31726074219</ele>
        <time>2011-06-19T06:54:20Z</time>
      </trkpt>
      <trkpt lat="45.88847" lon="1.3053">
        <ele>310.16247558594</ele>
        <time>2011-06-19T06:54:26Z</time>
      </trkpt>
      <trkpt lat="45.88831" lon="1.30536">
        <ele>310.16247558594</ele>
        <time>2011-06-19T06:54:30Z</time>
      </trkpt>
      <trkpt lat="45.88796" lon="1.30532">
        <ele>310.16247558594</ele>
        <time>2011-06-19T06:54:37Z</time>
      </trkpt>
      <trkpt lat="45.88767" lon="1.30525">
        <ele>310.16247558594</ele>
        <time>2011-06-19T06:54:44Z</time>
      </trkpt>
      <trkpt lat="45.88736" lon="1.3052">
        <ele>311.6044921875</ele>
        <time>2011-06-19T06:54:53Z</time>
      </trkpt>
      <trkpt lat="45.88719" lon="1.30521">
        <ele>313.04650878906</ele>
        <time>2011-06-19T06:54:59Z</time>
      </trkpt>
      <trkpt lat="45.88702" lon="1.30515">
        <ele>314.96911621094</ele>
        <time>2011-06-19T06:55:06Z</time>
      </trkpt>
      <trkpt lat="45.88692" lon="1.30494">
        <ele>315.93041992188</ele>
        <time>2011-06-19T06:55:13Z</time>
      </trkpt>
      <trkpt lat="45.88678" lon="1.30474">
        <ele>317.85302734375</ele>
        <time>2011-06-19T06:55:20Z</time>
      </trkpt>
      <trkpt lat="45.88657" lon="1.30451">
        <ele>319.29504394531</ele>
        <time>2011-06-19T06:55:29Z</time>
      </trkpt>
      <trkpt lat="45.88634" lon="1.30437">
        <ele>320.73706054688</ele>
        <time>2011-06-19T06:55:38Z</time>
      </trkpt>
      <trkpt lat="45.8861" lon="1.30424">
        <ele>321.69836425781</ele>
        <time>2011-06-19T06:55:47Z</time>
      </trkpt>
      <trkpt lat="45.88585" lon="1.30407">
        <ele>323.14038085938</ele>
        <time>2011-06-19T06:55:57Z</time>
      </trkpt>
      <trkpt lat="45.88562" lon="1.30386">
        <ele>325.06298828125</ele>
        <time>2011-06-19T06:56:07Z</time>
      </trkpt>
      <trkpt lat="45.88542" lon="1.30361">
        <ele>325.06298828125</ele>
        <time>2011-06-19T06:56:16Z</time>
      </trkpt>
      <trkpt lat="45.88523" lon="1.3034">
        <ele>325.54357910156</ele>
        <time>2011-06-19T06:56:23Z</time>
      </trkpt>
      <trkpt lat="45.88511" lon="1.30323">
        <ele>326.02416992188</ele>
        <time>2011-06-19T06:56:29Z</time>
      </trkpt>
      <trkpt lat="45.88486" lon="1.30298">
        <ele>327.94677734375</ele>
        <time>2011-06-19T06:56:38Z</time>
      </trkpt>
      <trkpt lat="45.88459" lon="1.30267">
        <ele>327.94677734375</ele>
        <time>2011-06-19T06:56:48Z</time>
      </trkpt>
      <trkpt lat="45.88437" lon="1.30237">
        <ele>327.94677734375</ele>
        <time>2011-06-19T06:56:57Z</time>
      </trkpt>
      <trkpt lat="45.88419" lon="1.30206">
        <ele>328.90832519531</ele>
        <time>2011-06-19T06:57:06Z</time>
      </trkpt>
      <trkpt lat="45.88403" lon="1.30178">
        <ele>329.86950683594</ele>
        <time>2011-06-19T06:57:14Z</time>
      </trkpt>
      <trkpt lat="45.88392" lon="1.30156">
        <ele>329.38891601562</ele>
        <time>2011-06-19T06:57:21Z</time>
      </trkpt>
      <trkpt lat="45.88388" lon="1.3015">
        <ele>329.86950683594</ele>
        <time>2011-06-19T06:57:23Z</time>
      </trkpt>
      <trkpt lat="45.8838" lon="1.30155">
        <ele>330.35021972656</ele>
        <time>2011-06-19T06:57:27Z</time>
      </trkpt>
      <trkpt lat="45.88367" lon="1.30176">
        <ele>329.86950683594</ele>
        <time>2011-06-19T06:57:33Z</time>
      </trkpt>
      <trkpt lat="45.88343" lon="1.30205">
        <ele>329.38891601562</ele>
        <time>2011-06-19T06:57:41Z</time>
      </trkpt>
      <trkpt lat="45.88316" lon="1.30238">
        <ele>327.94677734375</ele>
        <time>2011-06-19T06:57:49Z</time>
      </trkpt>
      <trkpt lat="45.88287" lon="1.30272">
        <ele>325.54357910156</ele>
        <time>2011-06-19T06:57:55Z</time>
      </trkpt>
      <trkpt lat="45.88282" lon="1.30279">
        <ele>324.58227539062</ele>
        <time>2011-06-19T06:57:56Z</time>
      </trkpt>
      <trkpt lat="45.88259" lon="1.30303">
        <ele>324.1015625</ele>
        <time>2011-06-19T06:58:01Z</time>
      </trkpt>
      <trkpt lat="45.88228" lon="1.30324">
        <ele>325.54357910156</ele>
        <time>2011-06-19T06:58:08Z</time>
      </trkpt>
      <trkpt lat="45.88185" lon="1.30336">
        <ele>325.06298828125</ele>
        <time>2011-06-19T06:58:17Z</time>
      </trkpt>
      <trkpt lat="45.88165" lon="1.30355">
        <ele>325.06298828125</ele>
        <time>2011-06-19T06:58:23Z</time>
      </trkpt>
      <trkpt lat="45.88151" lon="1.30369">
        <ele>325.06298828125</ele>
        <time>2011-06-19T06:58:28Z</time>
      </trkpt>
      <trkpt lat="45.88137" lon="1.30378">
        <ele>327.46618652344</ele>
        <time>2011-06-19T06:58:35Z</time>
      </trkpt>
      <trkpt lat="45.88125" lon="1.30388">
        <ele>329.86950683594</ele>
        <time>2011-06-19T06:58:43Z</time>
      </trkpt>
      <trkpt lat="45.88119" lon="1.30397">
        <ele>333.23413085938</ele>
        <time>2011-06-19T06:58:49Z</time>
      </trkpt>
      <trkpt lat="45.88113" lon="1.30403">
        <ele>336.59887695312</ele>
        <time>2011-06-19T06:58:55Z</time>
      </trkpt>
      <trkpt lat="45.88104" lon="1.30409">
        <ele>339.96337890625</ele>
        <time>2011-06-19T06:59:02Z</time>
      </trkpt>
      <trkpt lat="45.88096" lon="1.30418">
        <ele>339.96337890625</ele>
        <time>2011-06-19T06:59:09Z</time>
      </trkpt>
      <trkpt lat="45.88083" lon="1.30433">
        <ele>338.04077148438</ele>
        <time>2011-06-19T06:59:18Z</time>
      </trkpt>
      <trkpt lat="45.8807" lon="1.30448">
        <ele>339.48266601562</ele>
        <time>2011-06-19T06:59:26Z</time>
      </trkpt>
      <trkpt lat="45.88058" lon="1.30462">
        <ele>338.521484375</ele>
        <time>2011-06-19T06:59:33Z</time>
      </trkpt>
      <trkpt lat="45.88044" lon="1.30479">
        <ele>338.04077148438</ele>
        <time>2011-06-19T06:59:41Z</time>
      </trkpt>
      <trkpt lat="45.88031" lon="1.30496">
        <ele>337.07946777344</ele>
        <time>2011-06-19T06:59:47Z</time>
      </trkpt>
      <trkpt lat="45.88019" lon="1.3051">
        <ele>339.96337890625</ele>
        <time>2011-06-19T06:59:52Z</time>
      </trkpt>
      <trkpt lat="45.88" lon="1.30538">
        <ele>338.04077148438</ele>
        <time>2011-06-19T07:00:00Z</time>
      </trkpt>
      <trkpt lat="45.87989" lon="1.30561">
        <ele>339.48266601562</ele>
        <time>2011-06-19T07:00:05Z</time>
      </trkpt>
      <trkpt lat="45.87973" lon="1.30591">
        <ele>339.96337890625</ele>
        <time>2011-06-19T07:00:11Z</time>
      </trkpt>
      <trkpt lat="45.87968" lon="1.30599">
        <ele>339.96337890625</ele>
        <time>2011-06-19T07:00:15Z</time>
      </trkpt>
      <trkpt lat="45.87959" lon="1.30606">
        <ele>340.44409179688</ele>
        <time>2011-06-19T07:00:21Z</time>
      </trkpt>
      <trkpt lat="45.87955" lon="1.30609">
        <ele>340.44409179688</ele>
        <time>2011-06-19T07:00:23Z</time>
      </trkpt>
      <trkpt lat="45.87954" lon="1.30624">
        <ele>340.44409179688</ele>
        <time>2011-06-19T07:00:27Z</time>
      </trkpt>
      <trkpt lat="45.87957" lon="1.3066">
        <ele>340.44409179688</ele>
        <time>2011-06-19T07:00:33Z</time>
      </trkpt>
      <trkpt lat="45.87959" lon="1.30682">
        <ele>339.96337890625</ele>
        <time>2011-06-19T07:00:36Z</time>
      </trkpt>
      <trkpt lat="45.87953" lon="1.30719">
        <ele>339.00207519531</ele>
        <time>2011-06-19T07:00:41Z</time>
      </trkpt>
      <trkpt lat="45.87944" lon="1.30734">
        <ele>338.521484375</ele>
        <time>2011-06-19T07:00:44Z</time>
      </trkpt>
      <trkpt lat="45.87918" lon="1.30769">
        <ele>337.56005859375</ele>
        <time>2011-06-19T07:00:50Z</time>
      </trkpt>
      <trkpt lat="45.87897" lon="1.30804">
        <ele>334.19543457031</ele>
        <time>2011-06-19T07:00:54Z</time>
      </trkpt>
      <trkpt lat="45.87862" lon="1.30857">
        <ele>329.38891601562</ele>
        <time>2011-06-19T07:01:00Z</time>
      </trkpt>
      <trkpt lat="45.87833" lon="1.3089">
        <ele>327.46618652344</ele>
        <time>2011-06-19T07:01:04Z</time>
      </trkpt>
      <trkpt lat="45.87815" lon="1.30915">
        <ele>327.46618652344</ele>
        <time>2011-06-19T07:01:08Z</time>
      </trkpt>
      <trkpt lat="45.87808" lon="1.30931">
        <ele>328.90832519531</ele>
        <time>2011-06-19T07:01:12Z</time>
      </trkpt>
      <trkpt lat="45.87798" lon="1.30944">
        <ele>328.90832519531</ele>
        <time>2011-06-19T07:01:16Z</time>
      </trkpt>
      <trkpt lat="45.87782" lon="1.30957">
        <ele>332.75354003906</ele>
        <time>2011-06-19T07:01:23Z</time>
      </trkpt>
      <trkpt lat="45.87769" lon="1.30975">
        <ele>334.19543457031</ele>
        <time>2011-06-19T07:01:30Z</time>
      </trkpt>
      <trkpt lat="45.87756" lon="1.30994">
        <ele>334.67614746094</ele>
        <time>2011-06-19T07:01:37Z</time>
      </trkpt>
      <trkpt lat="45.87738" lon="1.31018">
        <ele>334.19543457031</ele>
        <time>2011-06-19T07:01:45Z</time>
      </trkpt>
      <trkpt lat="45.87713" lon="1.31047">
        <ele>332.27282714844</ele>
        <time>2011-06-19T07:01:53Z</time>
      </trkpt>
      <trkpt lat="45.87705" lon="1.31059">
        <ele>333.23413085938</ele>
        <time>2011-06-19T07:01:56Z</time>
      </trkpt>
      <trkpt lat="45.87708" lon="1.31079">
        <ele>333.71472167969</ele>
        <time>2011-06-19T07:02:00Z</time>
      </trkpt>
      <trkpt lat="45.87711" lon="1.31083">
        <ele>334.19543457031</ele>
        <time>2011-06-19T07:02:01Z</time>
      </trkpt>
      <trkpt lat="45.8774" lon="1.31131">
        <ele>335.15673828125</ele>
        <time>2011-06-19T07:02:11Z</time>
      </trkpt>
      <trkpt lat="45.8777" lon="1.31182">
        <ele>336.1181640625</ele>
        <time>2011-06-19T07:02:20Z</time>
      </trkpt>
      <trkpt lat="45.87801" lon="1.31229">
        <ele>336.1181640625</ele>
        <time>2011-06-19T07:02:28Z</time>
      </trkpt>
      <trkpt lat="45.87813" lon="1.31255">
        <ele>336.1181640625</ele>
        <time>2011-06-19T07:02:32Z</time>
      </trkpt>
      <trkpt lat="45.8782" lon="1.31278">
        <ele>335.63732910156</ele>
        <time>2011-06-19T07:02:35Z</time>
      </trkpt>
      <trkpt lat="45.87834" lon="1.31307">
        <ele>335.63732910156</ele>
        <time>2011-06-19T07:02:39Z</time>
      </trkpt>
      <trkpt lat="45.87842" lon="1.31322">
        <ele>334.67614746094</ele>
        <time>2011-06-19T07:02:41Z</time>
      </trkpt>
      <trkpt lat="45.87856" lon="1.31365">
        <ele>334.67614746094</ele>
        <time>2011-06-19T07:02:46Z</time>
      </trkpt>
      <trkpt lat="45.87867" lon="1.31393">
        <ele>333.23413085938</ele>
        <time>2011-06-19T07:02:49Z</time>
      </trkpt>
      <trkpt lat="45.87878" lon="1.31437">
        <ele>326.5048828125</ele>
        <time>2011-06-19T07:02:54Z</time>
      </trkpt>
      <trkpt lat="45.87893" lon="1.31469">
        <ele>326.98559570312</ele>
        <time>2011-06-19T07:02:58Z</time>
      </trkpt>
      <trkpt lat="45.87905" lon="1.31504">
        <ele>324.58227539062</ele>
        <time>2011-06-19T07:03:02Z</time>
      </trkpt>
      <trkpt lat="45.87922" lon="1.31549">
        <ele>322.65966796875</ele>
        <time>2011-06-19T07:03:07Z</time>
      </trkpt>
      <trkpt lat="45.87938" lon="1.31611">
        <ele>318.81433105469</ele>
        <time>2011-06-19T07:03:13Z</time>
      </trkpt>
      <trkpt lat="45.87949" lon="1.31648">
        <ele>320.73706054688</ele>
        <time>2011-06-19T07:03:16Z</time>
      </trkpt>
      <trkpt lat="45.87962" lon="1.31678">
        <ele>319.77563476562</ele>
        <time>2011-06-19T07:03:19Z</time>
      </trkpt>
      <trkpt lat="45.87978" lon="1.31704">
        <ele>317.37243652344</ele>
        <time>2011-06-19T07:03:22Z</time>
      </trkpt>
      <trkpt lat="45.88009" lon="1.31744">
        <ele>310.64306640625</ele>
        <time>2011-06-19T07:03:28Z</time>
      </trkpt>
      <trkpt lat="45.88013" lon="1.3175">
        <ele>310.64306640625</ele>
        <time>2011-06-19T07:03:29Z</time>
      </trkpt>
      <trkpt lat="45.88031" lon="1.31776">
        <ele>309.68188476562</ele>
        <time>2011-06-19T07:03:35Z</time>
      </trkpt>
      <trkpt lat="45.88034" lon="1.31781">
        <ele>308.23986816406</ele>
        <time>2011-06-19T07:03:36Z</time>
      </trkpt>
      <trkpt lat="45.88045" lon="1.31794">
        <ele>307.75927734375</ele>
        <time>2011-06-19T07:03:39Z</time>
      </trkpt>
      <trkpt lat="45.8806" lon="1.31815">
        <ele>301.99133300781</ele>
        <time>2011-06-19T07:03:44Z</time>
      </trkpt>
      <trkpt lat="45.88072" lon="1.31829">
        <ele>297.66540527344</ele>
        <time>2011-06-19T07:03:47Z</time>
      </trkpt>
      <trkpt lat="45.88098" lon="1.31868">
        <ele>292.85876464844</ele>
        <time>2011-06-19T07:03:52Z</time>
      </trkpt>
      <trkpt lat="45.88128" lon="1.31919">
        <ele>295.26196289062</ele>
        <time>2011-06-19T07:03:58Z</time>
      </trkpt>
      <trkpt lat="45.88132" lon="1.31928">
        <ele>294.78137207031</ele>
        <time>2011-06-19T07:03:59Z</time>
      </trkpt>
      <trkpt lat="45.88147" lon="1.31976">
        <ele>291.8974609375</ele>
        <time>2011-06-19T07:04:04Z</time>
      </trkpt>
      <trkpt lat="45.88152" lon="1.31997">
        <ele>290.93615722656</ele>
        <time>2011-06-19T07:04:06Z</time>
      </trkpt>
      <trkpt lat="45.8816" lon="1.32025">
        <ele>290.45556640625</ele>
        <time>2011-06-19T07:04:09Z</time>
      </trkpt>
      <trkpt lat="45.88165" lon="1.32052">
        <ele>292.85876464844</ele>
        <time>2011-06-19T07:04:12Z</time>
      </trkpt>
      <trkpt lat="45.88166" lon="1.32098">
        <ele>290.45556640625</ele>
        <time>2011-06-19T07:04:17Z</time>
      </trkpt>
      <trkpt lat="45.88168" lon="1.32105">
        <ele>289.01354980469</ele>
        <time>2011-06-19T07:04:18Z</time>
      </trkpt>
      <trkpt lat="45.88171" lon="1.32127">
        <ele>287.57141113281</ele>
        <time>2011-06-19T07:04:21Z</time>
      </trkpt>
      <trkpt lat="45.88171" lon="1.32153">
        <ele>289.494140625</ele>
        <time>2011-06-19T07:04:24Z</time>
      </trkpt>
      <trkpt lat="45.88173" lon="1.32181">
        <ele>289.01354980469</ele>
        <time>2011-06-19T07:04:27Z</time>
      </trkpt>
      <trkpt lat="45.8818" lon="1.32202">
        <ele>287.57141113281</ele>
        <time>2011-06-19T07:04:31Z</time>
      </trkpt>
      <trkpt lat="45.88197" lon="1.32227">
        <ele>280.84240722656</ele>
        <time>2011-06-19T07:04:36Z</time>
      </trkpt>
      <trkpt lat="45.88217" lon="1.32241">
        <ele>276.9970703125</ele>
        <time>2011-06-19T07:04:40Z</time>
      </trkpt>
      <trkpt lat="45.88242" lon="1.32267">
        <ele>276.9970703125</ele>
        <time>2011-06-19T07:04:45Z</time>
      </trkpt>
      <trkpt lat="45.88264" lon="1.32293">
        <ele>274.11303710938</ele>
        <time>2011-06-19T07:04:50Z</time>
      </trkpt>
      <trkpt lat="45.88277" lon="1.3232">
        <ele>272.67114257812</ele>
        <time>2011-06-19T07:04:54Z</time>
      </trkpt>
      <trkpt lat="45.88264" lon="1.32341">
        <ele>268.34509277344</ele>
        <time>2011-06-19T07:04:59Z</time>
      </trkpt>
      <trkpt lat="45.88247" lon="1.32341">
        <ele>269.30651855469</ele>
        <time>2011-06-19T07:05:02Z</time>
      </trkpt>
      <trkpt lat="45.88219" lon="1.32339">
        <ele>270.74841308594</ele>
        <time>2011-06-19T07:05:08Z</time>
      </trkpt>
      <trkpt lat="45.88203" lon="1.32344">
        <ele>269.787109375</ele>
        <time>2011-06-19T07:05:13Z</time>
      </trkpt>
      <trkpt lat="45.88188" lon="1.3235">
        <ele>267.86450195312</ele>
        <time>2011-06-19T07:05:18Z</time>
      </trkpt>
      <trkpt lat="45.88176" lon="1.32355">
        <ele>265.46130371094</ele>
        <time>2011-06-19T07:05:22Z</time>
      </trkpt>
      <trkpt lat="45.88157" lon="1.32357">
        <ele>260.17395019531</ele>
        <time>2011-06-19T07:05:27Z</time>
      </trkpt>
      <trkpt lat="45.88148" lon="1.32357">
        <ele>263.05786132812</ele>
        <time>2011-06-19T07:05:29Z</time>
      </trkpt>
      <trkpt lat="45.88127" lon="1.32362">
        <ele>259.21264648438</ele>
        <time>2011-06-19T07:05:34Z</time>
      </trkpt>
      <trkpt lat="45.88124" lon="1.32359">
        <ele>258.73193359375</ele>
        <time>2011-06-19T07:05:35Z</time>
      </trkpt>
      <trkpt lat="45.88116" lon="1.32347">
        <ele>249.59948730469</ele>
        <time>2011-06-19T07:05:41Z</time>
      </trkpt>
      <trkpt lat="45.88103" lon="1.32335">
        <ele>247.6767578125</ele>
        <time>2011-06-19T07:05:45Z</time>
      </trkpt>
      <trkpt lat="45.88099" lon="1.32317">
        <ele>243.35083007812</ele>
        <time>2011-06-19T07:05:48Z</time>
      </trkpt>
      <trkpt lat="45.88094" lon="1.32263">
        <ele>235.1796875</ele>
        <time>2011-06-19T07:05:55Z</time>
      </trkpt>
      <trkpt lat="45.88089" lon="1.32246">
        <ele>232.77648925781</ele>
        <time>2011-06-19T07:05:59Z</time>
      </trkpt>
      <trkpt lat="45.8808" lon="1.32215">
        <ele>226.52783203125</ele>
        <time>2011-06-19T07:06:05Z</time>
      </trkpt>
      <trkpt lat="45.8807" lon="1.32205">
        <ele>222.68249511719</ele>
        <time>2011-06-19T07:06:10Z</time>
      </trkpt>
      <trkpt lat="45.88062" lon="1.32192">
        <ele>227.48913574219</ele>
        <time>2011-06-19T07:06:15Z</time>
      </trkpt>
      <trkpt lat="45.88049" lon="1.3219">
        <ele>225.56652832031</ele>
        <time>2011-06-19T07:06:20Z</time>
      </trkpt>
      <trkpt lat="45.88022" lon="1.32176">
        <ele>235.1796875</ele>
        <time>2011-06-19T07:06:24Z</time>
      </trkpt>
      <trkpt lat="45.87999" lon="1.32166">
        <ele>243.35083007812</ele>
        <time>2011-06-19T07:06:29Z</time>
      </trkpt>
      <trkpt lat="45.87973" lon="1.32148">
        <ele>243.83154296875</ele>
        <time>2011-06-19T07:06:35Z</time>
      </trkpt>
      <trkpt lat="45.8796" lon="1.32138">
        <ele>244.31225585938</ele>
        <time>2011-06-19T07:06:39Z</time>
      </trkpt>
      <trkpt lat="45.87959" lon="1.32136">
        <ele>248.15759277344</ele>
        <time>2011-06-19T07:06:42Z</time>
      </trkpt>
      <trkpt lat="45.87957" lon="1.32132">
        <ele>251.04138183594</ele>
        <time>2011-06-19T07:06:44Z</time>
      </trkpt>
      <trkpt lat="45.87949" lon="1.32117">
        <ele>257.2900390625</ele>
        <time>2011-06-19T07:06:51Z</time>
      </trkpt>
      <trkpt lat="45.87948" lon="1.32114">
        <ele>257.77075195312</ele>
        <time>2011-06-19T07:06:53Z</time>
      </trkpt>
      <trkpt lat="45.87944" lon="1.32112">
        <ele>257.2900390625</ele>
        <time>2011-06-19T07:06:56Z</time>
      </trkpt>
      <trkpt lat="45.87933" lon="1.32111">
        <ele>255.36730957031</ele>
        <time>2011-06-19T07:07:01Z</time>
      </trkpt>
      <trkpt lat="45.8793" lon="1.32109">
        <ele>253.44470214844</ele>
        <time>2011-06-19T07:07:02Z</time>
      </trkpt>
      <trkpt lat="45.87916" lon="1.32104">
        <ele>252.4833984375</ele>
        <time>2011-06-19T07:07:07Z</time>
      </trkpt>
      <trkpt lat="45.87906" lon="1.32103">
        <ele>253.92541503906</ele>
        <time>2011-06-19T07:07:10Z</time>
      </trkpt>
      <trkpt lat="45.87887" lon="1.32099">
        <ele>256.32873535156</ele>
        <time>2011-06-19T07:07:15Z</time>
      </trkpt>
      <trkpt lat="45.87869" lon="1.3209">
        <ele>253.44470214844</ele>
        <time>2011-06-19T07:07:19Z</time>
      </trkpt>
      <trkpt lat="45.87855" lon="1.32082">
        <ele>253.92541503906</ele>
        <time>2011-06-19T07:07:23Z</time>
      </trkpt>
      <trkpt lat="45.87848" lon="1.32081">
        <ele>252.4833984375</ele>
        <time>2011-06-19T07:07:25Z</time>
      </trkpt>
      <trkpt lat="45.87828" lon="1.3209">
        <ele>250.56079101562</ele>
        <time>2011-06-19T07:07:30Z</time>
      </trkpt>
      <trkpt lat="45.8782" lon="1.32084">
        <ele>250.56079101562</ele>
        <time>2011-06-19T07:07:32Z</time>
      </trkpt>
      <trkpt lat="45.87807" lon="1.32086">
        <ele>250.56079101562</ele>
        <time>2011-06-19T07:07:37Z</time>
      </trkpt>
      <trkpt lat="45.87792" lon="1.32099">
        <ele>246.23486328125</ele>
        <time>2011-06-19T07:07:42Z</time>
      </trkpt>
      <trkpt lat="45.87784" lon="1.32113">
        <ele>255.36730957031</ele>
        <time>2011-06-19T07:07:48Z</time>
      </trkpt>
      <trkpt lat="45.87775" lon="1.3213">
        <ele>255.36730957031</ele>
        <time>2011-06-19T07:07:54Z</time>
      </trkpt>
      <trkpt lat="45.87763" lon="1.32142">
        <ele>258.73193359375</ele>
        <time>2011-06-19T07:07:59Z</time>
      </trkpt>
      <trkpt lat="45.87744" lon="1.32159">
        <ele>261.61596679688</ele>
        <time>2011-06-19T07:08:05Z</time>
      </trkpt>
      <trkpt lat="45.87725" lon="1.32167">
        <ele>260.17395019531</ele>
        <time>2011-06-19T07:08:10Z</time>
      </trkpt>
      <trkpt lat="45.87709" lon="1.32187">
        <ele>265.46130371094</ele>
        <time>2011-06-19T07:08:15Z</time>
      </trkpt>
      <trkpt lat="45.8769" lon="1.32198">
        <ele>266.90319824219</ele>
        <time>2011-06-19T07:08:19Z</time>
      </trkpt>
      <trkpt lat="45.87672" lon="1.32218">
        <ele>271.22912597656</ele>
        <time>2011-06-19T07:08:24Z</time>
      </trkpt>
      <trkpt lat="45.87673" lon="1.32223">
        <ele>270.74841308594</ele>
        <time>2011-06-19T07:08:26Z</time>
      </trkpt>
      <trkpt lat="45.87676" lon="1.32238">
        <ele>275.07446289062</ele>
        <time>2011-06-19T07:08:32Z</time>
      </trkpt>
      <trkpt lat="45.87678" lon="1.32246">
        <ele>266.42248535156</ele>
        <time>2011-06-19T07:08:36Z</time>
      </trkpt>
      <trkpt lat="45.87674" lon="1.32259">
        <ele>260.65454101562</ele>
        <time>2011-06-19T07:08:42Z</time>
      </trkpt>
      <trkpt lat="45.87661" lon="1.32272">
        <ele>255.84802246094</ele>
        <time>2011-06-19T07:08:45Z</time>
      </trkpt>
      <trkpt lat="45.87643" lon="1.32298">
        <ele>252.00280761719</ele>
        <time>2011-06-19T07:08:51Z</time>
      </trkpt>
      <trkpt lat="45.87627" lon="1.32311">
        <ele>244.31225585938</ele>
        <time>2011-06-19T07:08:56Z</time>
      </trkpt>
      <trkpt lat="45.8762" lon="1.32311">
        <ele>243.83154296875</ele>
        <time>2011-06-19T07:09:00Z</time>
      </trkpt>
      <trkpt lat="45.8762" lon="1.32311">
        <ele>244.79284667969</ele>
        <time>2011-06-19T07:09:01Z</time>
      </trkpt>
      <trkpt lat="45.8762" lon="1.32313">
        <ele>245.75415039062</ele>
        <time>2011-06-19T07:09:06Z</time>
      </trkpt>
      <trkpt lat="45.87616" lon="1.32316">
        <ele>245.75415039062</ele>
        <time>2011-06-19T07:09:09Z</time>
      </trkpt>
      <trkpt lat="45.87615" lon="1.32316">
        <ele>246.23486328125</ele>
        <time>2011-06-19T07:09:10Z</time>
      </trkpt>
      <trkpt lat="45.87609" lon="1.32325">
        <ele>244.31225585938</ele>
        <time>2011-06-19T07:09:18Z</time>
      </trkpt>
      <trkpt lat="45.87602" lon="1.32328">
        <ele>241.42822265625</ele>
        <time>2011-06-19T07:09:24Z</time>
      </trkpt>
      <trkpt lat="45.87596" lon="1.32329">
        <ele>239.02490234375</ele>
        <time>2011-06-19T07:09:30Z</time>
      </trkpt>
      <trkpt lat="45.87586" lon="1.32343">
        <ele>241.42822265625</ele>
        <time>2011-06-19T07:09:37Z</time>
      </trkpt>
      <trkpt lat="45.87574" lon="1.32357">
        <ele>243.35083007812</ele>
        <time>2011-06-19T07:09:42Z</time>
      </trkpt>
      <trkpt lat="45.87557" lon="1.32372">
        <ele>243.35083007812</ele>
        <time>2011-06-19T07:09:49Z</time>
      </trkpt>
      <trkpt lat="45.87547" lon="1.32378">
        <ele>243.35083007812</ele>
        <time>2011-06-19T07:09:56Z</time>
      </trkpt>
      <trkpt lat="45.87545" lon="1.32378">
        <ele>243.35083007812</ele>
        <time>2011-06-19T07:09:59Z</time>
      </trkpt>
      <trkpt lat="45.87542" lon="1.32377">
        <ele>242.3896484375</ele>
        <time>2011-06-19T07:10:03Z</time>
      </trkpt>
      <trkpt lat="45.87542" lon="1.32377">
        <ele>242.3896484375</ele>
        <time>2011-06-19T07:10:06Z</time>
      </trkpt>
      <trkpt lat="45.87542" lon="1.32377">
        <ele>242.3896484375</ele>
        <time>2011-06-19T07:10:07Z</time>
      </trkpt>
      <trkpt lat="45.8754" lon="1.32377">
        <ele>243.35083007812</ele>
        <time>2011-06-19T07:10:11Z</time>
      </trkpt>
      <trkpt lat="45.87539" lon="1.32383">
        <ele>246.23486328125</ele>
        <time>2011-06-19T07:10:15Z</time>
      </trkpt>
      <trkpt lat="45.87541" lon="1.32397">
        <ele>253.92541503906</ele>
        <time>2011-06-19T07:10:22Z</time>
      </trkpt>
      <trkpt lat="45.8754" lon="1.32406">
        <ele>258.25134277344</ele>
        <time>2011-06-19T07:10:29Z</time>
      </trkpt>
      <trkpt lat="45.8754" lon="1.32406">
        <ele>258.73193359375</ele>
        <time>2011-06-19T07:10:30Z</time>
      </trkpt>
      <trkpt lat="45.8754" lon="1.32407">
        <ele>258.73193359375</ele>
        <time>2011-06-19T07:10:33Z</time>
      </trkpt>
      <trkpt lat="45.87542" lon="1.32416">
        <ele>256.80932617188</ele>
        <time>2011-06-19T07:10:35Z</time>
      </trkpt>
      <trkpt lat="45.87542" lon="1.3243">
        <ele>253.44470214844</ele>
        <time>2011-06-19T07:10:40Z</time>
      </trkpt>
      <trkpt lat="45.87545" lon="1.32446">
        <ele>254.40600585938</ele>
        <time>2011-06-19T07:10:48Z</time>
      </trkpt>
      <trkpt lat="45.87547" lon="1.32459">
        <ele>255.36730957031</ele>
        <time>2011-06-19T07:10:56Z</time>
      </trkpt>
      <trkpt lat="45.87547" lon="1.32471">
        <ele>255.36730957031</ele>
        <time>2011-06-19T07:11:01Z</time>
      </trkpt>
      <trkpt lat="45.87545" lon="1.32485">
        <ele>264.49987792969</ele>
        <time>2011-06-19T07:11:10Z</time>
      </trkpt>
      <trkpt lat="45.87546" lon="1.325">
        <ele>264.98059082031</ele>
        <time>2011-06-19T07:11:18Z</time>
      </trkpt>
      <trkpt lat="45.87546" lon="1.32501">
        <ele>264.98059082031</ele>
        <time>2011-06-19T07:11:19Z</time>
      </trkpt>
      <trkpt lat="45.87551" lon="1.32509">
        <ele>265.94189453125</ele>
        <time>2011-06-19T07:11:26Z</time>
      </trkpt>
      <trkpt lat="45.87555" lon="1.32524">
        <ele>269.30651855469</ele>
        <time>2011-06-19T07:11:35Z</time>
      </trkpt>
      <trkpt lat="45.87558" lon="1.32538">
        <ele>272.1904296875</ele>
        <time>2011-06-19T07:11:42Z</time>
      </trkpt>
      <trkpt lat="45.8756" lon="1.32546">
        <ele>273.15185546875</ele>
        <time>2011-06-19T07:11:46Z</time>
      </trkpt>
      <trkpt lat="45.87561" lon="1.32566">
        <ele>273.15185546875</ele>
        <time>2011-06-19T07:11:55Z</time>
      </trkpt>
      <trkpt lat="45.87561" lon="1.3257">
        <ele>273.15185546875</ele>
        <time>2011-06-19T07:11:57Z</time>
      </trkpt>
      <trkpt lat="45.87556" lon="1.32587">
        <ele>276.51635742188</ele>
        <time>2011-06-19T07:12:06Z</time>
      </trkpt>
      <trkpt lat="45.87548" lon="1.32599">
        <ele>275.07446289062</ele>
        <time>2011-06-19T07:12:12Z</time>
      </trkpt>
      <trkpt lat="45.87545" lon="1.32604">
        <ele>275.55505371094</ele>
        <time>2011-06-19T07:12:14Z</time>
      </trkpt>
      <trkpt lat="45.87537" lon="1.32602">
        <ele>272.67114257812</ele>
        <time>2011-06-19T07:12:19Z</time>
      </trkpt>
      <trkpt lat="45.87534" lon="1.32598">
        <ele>270.74841308594</ele>
        <time>2011-06-19T07:12:22Z</time>
      </trkpt>
      <trkpt lat="45.8752" lon="1.3258">
        <ele>269.30651855469</ele>
        <time>2011-06-19T07:12:29Z</time>
      </trkpt>
      <trkpt lat="45.87511" lon="1.32569">
        <ele>268.82580566406</ele>
        <time>2011-06-19T07:12:32Z</time>
      </trkpt>
      <trkpt lat="45.87504" lon="1.32545">
        <ele>267.38391113281</ele>
        <time>2011-06-19T07:12:36Z</time>
      </trkpt>
      <trkpt lat="45.875" lon="1.32501">
        <ele>264.49987792969</ele>
        <time>2011-06-19T07:12:42Z</time>
      </trkpt>
      <trkpt lat="45.875" lon="1.32457">
        <ele>258.73193359375</ele>
        <time>2011-06-19T07:12:46Z</time>
      </trkpt>
      <trkpt lat="45.87492" lon="1.32413">
        <ele>255.36730957031</ele>
        <time>2011-06-19T07:12:50Z</time>
      </trkpt>
      <trkpt lat="45.87484" lon="1.32396">
        <ele>253.92541503906</ele>
        <time>2011-06-19T07:12:52Z</time>
      </trkpt>
      <trkpt lat="45.87449" lon="1.32341">
        <ele>249.59948730469</ele>
        <time>2011-06-19T07:13:00Z</time>
      </trkpt>
      <trkpt lat="45.8743" lon="1.32304">
        <ele>251.04138183594</ele>
        <time>2011-06-19T07:13:06Z</time>
      </trkpt>
      <trkpt lat="45.87421" lon="1.32285">
        <ele>252.00280761719</ele>
        <time>2011-06-19T07:13:09Z</time>
      </trkpt>
      <trkpt lat="45.87398" lon="1.32246">
        <ele>255.36730957031</ele>
        <time>2011-06-19T07:13:14Z</time>
      </trkpt>
      <trkpt lat="45.87386" lon="1.32231">
        <ele>253.92541503906</ele>
        <time>2011-06-19T07:13:16Z</time>
      </trkpt>
      <trkpt lat="45.87358" lon="1.32208">
        <ele>248.63818359375</ele>
        <time>2011-06-19T07:13:21Z</time>
      </trkpt>
      <trkpt lat="45.87307" lon="1.32215">
        <ele>242.3896484375</ele>
        <time>2011-06-19T07:13:27Z</time>
      </trkpt>
      <trkpt lat="45.87262" lon="1.32234">
        <ele>239.50549316406</ele>
        <time>2011-06-19T07:13:33Z</time>
      </trkpt>
      <trkpt lat="45.87246" lon="1.32242">
        <ele>236.14099121094</ele>
        <time>2011-06-19T07:13:35Z</time>
      </trkpt>
      <trkpt lat="45.87233" lon="1.32268">
        <ele>236.62170410156</ele>
        <time>2011-06-19T07:13:39Z</time>
      </trkpt>
      <trkpt lat="45.87234" lon="1.32275">
        <ele>235.66027832031</ele>
        <time>2011-06-19T07:13:40Z</time>
      </trkpt>
      <trkpt lat="45.87236" lon="1.32307">
        <ele>236.14099121094</ele>
        <time>2011-06-19T07:13:45Z</time>
      </trkpt>
      <trkpt lat="45.87228" lon="1.32313">
        <ele>235.1796875</ele>
        <time>2011-06-19T07:13:49Z</time>
      </trkpt>
      <trkpt lat="45.87223" lon="1.32312">
        <ele>234.69909667969</ele>
        <time>2011-06-19T07:13:51Z</time>
      </trkpt>
      <trkpt lat="45.87214" lon="1.32323">
        <ele>234.69909667969</ele>
        <time>2011-06-19T07:13:55Z</time>
      </trkpt>
      <trkpt lat="45.87207" lon="1.32338">
        <ele>237.58288574219</ele>
        <time>2011-06-19T07:13:58Z</time>
      </trkpt>
      <trkpt lat="45.87195" lon="1.32351">
        <ele>239.02490234375</ele>
        <time>2011-06-19T07:14:01Z</time>
      </trkpt>
      <trkpt lat="45.87172" lon="1.32366">
        <ele>239.98620605469</ele>
        <time>2011-06-19T07:14:07Z</time>
      </trkpt>
      <trkpt lat="45.8716" lon="1.32361">
        <ele>242.3896484375</ele>
        <time>2011-06-19T07:14:11Z</time>
      </trkpt>
      <trkpt lat="45.87149" lon="1.32354">
        <ele>249.59948730469</ele>
        <time>2011-06-19T07:14:18Z</time>
      </trkpt>
      <trkpt lat="45.87143" lon="1.32351">
        <ele>252.00280761719</ele>
        <time>2011-06-19T07:14:22Z</time>
      </trkpt>
      <trkpt lat="45.87133" lon="1.32335">
        <ele>253.92541503906</ele>
        <time>2011-06-19T07:14:30Z</time>
      </trkpt>
      <trkpt lat="45.87122" lon="1.32318">
        <ele>252.00280761719</ele>
        <time>2011-06-19T07:14:37Z</time>
      </trkpt>
      <trkpt lat="45.8712" lon="1.32312">
        <ele>252.00280761719</ele>
        <time>2011-06-19T07:14:39Z</time>
      </trkpt>
      <trkpt lat="45.87122" lon="1.323">
        <ele>252.96398925781</ele>
        <time>2011-06-19T07:14:47Z</time>
      </trkpt>
      <trkpt lat="45.87133" lon="1.32286">
        <ele>253.92541503906</ele>
        <time>2011-06-19T07:14:57Z</time>
      </trkpt>
      <trkpt lat="45.87139" lon="1.32282">
        <ele>258.73193359375</ele>
        <time>2011-06-19T07:15:04Z</time>
      </trkpt>
      <trkpt lat="45.87142" lon="1.32281">
        <ele>261.13525390625</ele>
        <time>2011-06-19T07:15:07Z</time>
      </trkpt>
      <trkpt lat="45.8715" lon="1.32278">
        <ele>263.05786132812</ele>
        <time>2011-06-19T07:15:15Z</time>
      </trkpt>
      <trkpt lat="45.87156" lon="1.32274">
        <ele>263.53857421875</ele>
        <time>2011-06-19T07:15:21Z</time>
      </trkpt>
      <trkpt lat="45.8716" lon="1.32255">
        <ele>263.05786132812</ele>
        <time>2011-06-19T07:15:29Z</time>
      </trkpt>
      <trkpt lat="45.87157" lon="1.32242">
        <ele>262.5771484375</ele>
        <time>2011-06-19T07:15:35Z</time>
      </trkpt>
      <trkpt lat="45.87155" lon="1.32237">
        <ele>265.46130371094</ele>
        <time>2011-06-19T07:15:38Z</time>
      </trkpt>
      <trkpt lat="45.87152" lon="1.32219">
        <ele>266.42248535156</ele>
        <time>2011-06-19T07:15:46Z</time>
      </trkpt>
      <trkpt lat="45.87151" lon="1.32208">
        <ele>266.42248535156</ele>
        <time>2011-06-19T07:15:52Z</time>
      </trkpt>
      <trkpt lat="45.87151" lon="1.32197">
        <ele>265.94189453125</ele>
        <time>2011-06-19T07:15:58Z</time>
      </trkpt>
      <trkpt lat="45.8715" lon="1.32184">
        <ele>266.90319824219</ele>
        <time>2011-06-19T07:16:05Z</time>
      </trkpt>
      <trkpt lat="45.87148" lon="1.32176">
        <ele>269.30651855469</ele>
        <time>2011-06-19T07:16:12Z</time>
      </trkpt>
      <trkpt lat="45.87147" lon="1.32162">
        <ele>268.34509277344</ele>
        <time>2011-06-19T07:16:20Z</time>
      </trkpt>
      <trkpt lat="45.87143" lon="1.32149">
        <ele>268.82580566406</ele>
        <time>2011-06-19T07:16:27Z</time>
      </trkpt>
      <trkpt lat="45.8714" lon="1.32133">
        <ele>273.63244628906</ele>
        <time>2011-06-19T07:16:36Z</time>
      </trkpt>
      <trkpt lat="45.8714" lon="1.32121">
        <ele>276.03564453125</ele>
        <time>2011-06-19T07:16:43Z</time>
      </trkpt>
      <trkpt lat="45.8714" lon="1.3211">
        <ele>273.15185546875</ele>
        <time>2011-06-19T07:16:49Z</time>
      </trkpt>
      <trkpt lat="45.87142" lon="1.32097">
        <ele>265.94189453125</ele>
        <time>2011-06-19T07:16:56Z</time>
      </trkpt>
      <trkpt lat="45.87141" lon="1.3209">
        <ele>268.82580566406</ele>
        <time>2011-06-19T07:17:03Z</time>
      </trkpt>
      <trkpt lat="45.87139" lon="1.32083">
        <ele>269.787109375</ele>
        <time>2011-06-19T07:17:09Z</time>
      </trkpt>
      <trkpt lat="45.87138" lon="1.32073">
        <ele>272.67114257812</ele>
        <time>2011-06-19T07:17:15Z</time>
      </trkpt>
      <trkpt lat="45.87132" lon="1.3207">
        <ele>275.07446289062</ele>
        <time>2011-06-19T07:17:19Z</time>
      </trkpt>
      <trkpt lat="45.87122" lon="1.32068">
        <ele>282.76501464844</ele>
        <time>2011-06-19T07:17:26Z</time>
      </trkpt>
      <trkpt lat="45.87103" lon="1.32068">
        <ele>279.40026855469</ele>
        <time>2011-06-19T07:17:33Z</time>
      </trkpt>
      <trkpt lat="45.87083" lon="1.3207">
        <ele>279.40026855469</ele>
        <time>2011-06-19T07:17:40Z</time>
      </trkpt>
      <trkpt lat="45.87071" lon="1.3207">
        <ele>277.47766113281</ele>
        <time>2011-06-19T07:17:44Z</time>
      </trkpt>
      <trkpt lat="45.87052" lon="1.32067">
        <ele>280.84240722656</ele>
        <time>2011-06-19T07:17:51Z</time>
      </trkpt>
      <trkpt lat="45.87025" lon="1.32059">
        <ele>279.880859375</ele>
        <time>2011-06-19T07:18:00Z</time>
      </trkpt>
      <trkpt lat="45.87013" lon="1.32055">
        <ele>278.91967773438</ele>
        <time>2011-06-19T07:18:05Z</time>
      </trkpt>
      <trkpt lat="45.86986" lon="1.32045">
        <ele>278.43896484375</ele>
        <time>2011-06-19T07:18:14Z</time>
      </trkpt>
      <trkpt lat="45.8697" lon="1.32041">
        <ele>277.95825195312</ele>
        <time>2011-06-19T07:18:19Z</time>
      </trkpt>
      <trkpt lat="45.86939" lon="1.32049">
        <ele>276.9970703125</ele>
        <time>2011-06-19T07:18:27Z</time>
      </trkpt>
      <trkpt lat="45.86916" lon="1.32062">
        <ele>277.47766113281</ele>
        <time>2011-06-19T07:18:34Z</time>
      </trkpt>
      <trkpt lat="45.86901" lon="1.32071">
        <ele>277.95825195312</ele>
        <time>2011-06-19T07:18:40Z</time>
      </trkpt>
      <trkpt lat="45.86882" lon="1.32074">
        <ele>279.880859375</ele>
        <time>2011-06-19T07:18:48Z</time>
      </trkpt>
      <trkpt lat="45.86863" lon="1.32079">
        <ele>281.80358886719</ele>
        <time>2011-06-19T07:18:55Z</time>
      </trkpt>
      <trkpt lat="45.86855" lon="1.32083">
        <ele>281.80358886719</ele>
        <time>2011-06-19T07:18:57Z</time>
      </trkpt>
      <trkpt lat="45.8684" lon="1.321">
        <ele>278.91967773438</ele>
        <time>2011-06-19T07:19:02Z</time>
      </trkpt>
      <trkpt lat="45.86839" lon="1.32117">
        <ele>276.9970703125</ele>
        <time>2011-06-19T07:19:06Z</time>
      </trkpt>
      <trkpt lat="45.86841" lon="1.32124">
        <ele>276.03564453125</ele>
        <time>2011-06-19T07:19:08Z</time>
      </trkpt>
      <trkpt lat="45.86832" lon="1.32146">
        <ele>275.55505371094</ele>
        <time>2011-06-19T07:19:12Z</time>
      </trkpt>
      <trkpt lat="45.86829" lon="1.32153">
        <ele>276.03564453125</ele>
        <time>2011-06-19T07:19:13Z</time>
      </trkpt>
      <trkpt lat="45.86812" lon="1.32164">
        <ele>274.11303710938</ele>
        <time>2011-06-19T07:19:17Z</time>
      </trkpt>
      <trkpt lat="45.86802" lon="1.32172">
        <ele>271.70971679688</ele>
        <time>2011-06-19T07:19:21Z</time>
      </trkpt>
      <trkpt lat="45.86788" lon="1.32193">
        <ele>269.787109375</ele>
        <time>2011-06-19T07:19:26Z</time>
      </trkpt>
      <trkpt lat="45.86768" lon="1.3222">
        <ele>265.94189453125</ele>
        <time>2011-06-19T07:19:32Z</time>
      </trkpt>
      <trkpt lat="45.86749" lon="1.32255">
        <ele>264.49987792969</ele>
        <time>2011-06-19T07:19:39Z</time>
      </trkpt>
      <trkpt lat="45.86745" lon="1.3228">
        <ele>263.53857421875</ele>
        <time>2011-06-19T07:19:43Z</time>
      </trkpt>
      <trkpt lat="45.86741" lon="1.32304">
        <ele>261.13525390625</ele>
        <time>2011-06-19T07:19:47Z</time>
      </trkpt>
      <trkpt lat="45.86737" lon="1.32311">
        <ele>260.17395019531</ele>
        <time>2011-06-19T07:19:49Z</time>
      </trkpt>
      <trkpt lat="45.86715" lon="1.32344">
        <ele>257.77075195312</ele>
        <time>2011-06-19T07:19:57Z</time>
      </trkpt>
      <trkpt lat="45.86696" lon="1.32368">
        <ele>255.84802246094</ele>
        <time>2011-06-19T07:20:03Z</time>
      </trkpt>
      <trkpt lat="45.86674" lon="1.32401">
        <ele>255.36730957031</ele>
        <time>2011-06-19T07:20:08Z</time>
      </trkpt>
      <trkpt lat="45.8667" lon="1.32406">
        <ele>255.84802246094</ele>
        <time>2011-06-19T07:20:09Z</time>
      </trkpt>
      <trkpt lat="45.8666" lon="1.32417">
        <ele>255.36730957031</ele>
        <time>2011-06-19T07:20:12Z</time>
      </trkpt>
      <trkpt lat="45.86648" lon="1.3241">
        <ele>256.32873535156</ele>
        <time>2011-06-19T07:20:16Z</time>
      </trkpt>
      <trkpt lat="45.86629" lon="1.32375">
        <ele>255.36730957031</ele>
        <time>2011-06-19T07:20:25Z</time>
      </trkpt>
      <trkpt lat="45.86605" lon="1.32342">
        <ele>254.88659667969</ele>
        <time>2011-06-19T07:20:33Z</time>
      </trkpt>
      <trkpt lat="45.86586" lon="1.32317">
        <ele>253.92541503906</ele>
        <time>2011-06-19T07:20:40Z</time>
      </trkpt>
      <trkpt lat="45.86575" lon="1.32303">
        <ele>254.40600585938</ele>
        <time>2011-06-19T07:20:44Z</time>
      </trkpt>
      <trkpt lat="45.86563" lon="1.32313">
        <ele>253.92541503906</ele>
        <time>2011-06-19T07:20:48Z</time>
      </trkpt>
      <trkpt lat="45.86557" lon="1.32326">
        <ele>253.44470214844</ele>
        <time>2011-06-19T07:20:50Z</time>
      </trkpt>
      <trkpt lat="45.86553" lon="1.32352">
        <ele>252.4833984375</ele>
        <time>2011-06-19T07:20:54Z</time>
      </trkpt>
      <trkpt lat="45.86547" lon="1.32375">
        <ele>252.4833984375</ele>
        <time>2011-06-19T07:20:58Z</time>
      </trkpt>
      <trkpt lat="45.86537" lon="1.32391">
        <ele>251.52209472656</ele>
        <time>2011-06-19T07:21:02Z</time>
      </trkpt>
      <trkpt lat="45.86538" lon="1.32401">
        <ele>251.52209472656</ele>
        <time>2011-06-19T07:21:07Z</time>
      </trkpt>
      <trkpt lat="45.86538" lon="1.32402">
        <ele>248.63818359375</ele>
        <time>2011-06-19T07:21:22Z</time>
      </trkpt>
      <trkpt lat="45.86538" lon="1.32404">
        <ele>249.11877441406</ele>
        <time>2011-06-19T07:21:23Z</time>
      </trkpt>
      <trkpt lat="45.86544" lon="1.32419">
        <ele>248.15759277344</ele>
        <time>2011-06-19T07:21:26Z</time>
      </trkpt>
      <trkpt lat="45.8657" lon="1.32455">
        <ele>246.23486328125</ele>
        <time>2011-06-19T07:21:34Z</time>
      </trkpt>
      <trkpt lat="45.86572" lon="1.3246">
        <ele>246.23486328125</ele>
        <time>2011-06-19T07:21:35Z</time>
      </trkpt>
      <trkpt lat="45.8657" lon="1.32486">
        <ele>245.75415039062</ele>
        <time>2011-06-19T07:21:39Z</time>
      </trkpt>
      <trkpt lat="45.86567" lon="1.32499">
        <ele>245.2734375</ele>
        <time>2011-06-19T07:21:41Z</time>
      </trkpt>
      <trkpt lat="45.86568" lon="1.32533">
        <ele>244.31225585938</ele>
        <time>2011-06-19T07:21:45Z</time>
      </trkpt>
      <trkpt lat="45.86583" lon="1.32584">
        <ele>242.3896484375</ele>
        <time>2011-06-19T07:21:50Z</time>
      </trkpt>
      <trkpt lat="45.86604" lon="1.32616">
        <ele>239.98620605469</ele>
        <time>2011-06-19T07:21:54Z</time>
      </trkpt>
      <trkpt lat="45.86625" lon="1.32635">
        <ele>236.62170410156</ele>
        <time>2011-06-19T07:21:58Z</time>
      </trkpt>
      <trkpt lat="45.86631" lon="1.32644">
        <ele>235.1796875</ele>
        <time>2011-06-19T07:22:00Z</time>
      </trkpt>
      <trkpt lat="45.86629" lon="1.32657">
        <ele>232.29577636719</ele>
        <time>2011-06-19T07:22:04Z</time>
      </trkpt>
      <trkpt lat="45.86619" lon="1.32664">
        <ele>231.33435058594</ele>
        <time>2011-06-19T07:22:07Z</time>
      </trkpt>
      <trkpt lat="45.86582" lon="1.32668">
        <ele>228.45043945312</ele>
        <time>2011-06-19T07:22:14Z</time>
      </trkpt>
      <trkpt lat="45.86549" lon="1.32662">
        <ele>225.56652832031</ele>
        <time>2011-06-19T07:22:20Z</time>
      </trkpt>
      <trkpt lat="45.86527" lon="1.32668">
        <ele>227.9697265625</ele>
        <time>2011-06-19T07:22:25Z</time>
      </trkpt>
      <trkpt lat="45.86518" lon="1.3268">
        <ele>228.93115234375</ele>
        <time>2011-06-19T07:22:29Z</time>
      </trkpt>
      <trkpt lat="45.86512" lon="1.32679">
        <ele>229.41174316406</ele>
        <time>2011-06-19T07:22:31Z</time>
      </trkpt>
      <trkpt lat="45.86495" lon="1.32673">
        <ele>234.69909667969</ele>
        <time>2011-06-19T07:22:36Z</time>
      </trkpt>
      <trkpt lat="45.8647" lon="1.32668">
        <ele>230.373046875</ele>
        <time>2011-06-19T07:22:41Z</time>
      </trkpt>
      <trkpt lat="45.86441" lon="1.32657">
        <ele>230.373046875</ele>
        <time>2011-06-19T07:22:47Z</time>
      </trkpt>
      <trkpt lat="45.86417" lon="1.32651">
        <ele>231.33435058594</ele>
        <time>2011-06-19T07:22:52Z</time>
      </trkpt>
      <trkpt lat="45.86377" lon="1.3265">
        <ele>229.89233398438</ele>
        <time>2011-06-19T07:23:00Z</time>
      </trkpt>
      <trkpt lat="45.86367" lon="1.3265">
        <ele>228.45043945312</ele>
        <time>2011-06-19T07:23:02Z</time>
      </trkpt>
      <trkpt lat="45.86347" lon="1.3265">
        <ele>227.9697265625</ele>
        <time>2011-06-19T07:23:07Z</time>
      </trkpt>
      <trkpt lat="45.86329" lon="1.32653">
        <ele>229.41174316406</ele>
        <time>2011-06-19T07:23:12Z</time>
      </trkpt>
      <trkpt lat="45.86311" lon="1.32653">
        <ele>228.45043945312</ele>
        <time>2011-06-19T07:23:16Z</time>
      </trkpt>
      <trkpt lat="45.86277" lon="1.32643">
        <ele>226.52783203125</ele>
        <time>2011-06-19T07:23:23Z</time>
      </trkpt>
      <trkpt lat="45.86245" lon="1.32638">
        <ele>225.56652832031</ele>
        <time>2011-06-19T07:23:29Z</time>
      </trkpt>
      <trkpt lat="45.86232" lon="1.32635">
        <ele>227.48913574219</ele>
        <time>2011-06-19T07:23:33Z</time>
      </trkpt>
      <trkpt lat="45.86224" lon="1.32632">
        <ele>230.85375976562</ele>
        <time>2011-06-19T07:23:37Z</time>
      </trkpt>
      <trkpt lat="45.86223" lon="1.32637">
        <ele>234.69909667969</ele>
        <time>2011-06-19T07:23:42Z</time>
      </trkpt>
      <trkpt lat="45.86223" lon="1.32641">
        <ele>237.58288574219</ele>
        <time>2011-06-19T07:23:47Z</time>
      </trkpt>
      <trkpt lat="45.86223" lon="1.32642">
        <ele>238.06359863281</ele>
        <time>2011-06-19T07:23:51Z</time>
      </trkpt>
      <trkpt lat="45.86226" lon="1.32653">
        <ele>241.42822265625</ele>
        <time>2011-06-19T07:23:56Z</time>
      </trkpt>
      <trkpt lat="45.86227" lon="1.32655">
        <ele>241.90893554688</ele>
        <time>2011-06-19T07:23:57Z</time>
      </trkpt>
      <trkpt lat="45.86236" lon="1.32666">
        <ele>245.2734375</ele>
        <time>2011-06-19T07:24:05Z</time>
      </trkpt>
      <trkpt lat="45.86244" lon="1.32676">
        <ele>243.83154296875</ele>
        <time>2011-06-19T07:24:12Z</time>
      </trkpt>
      <trkpt lat="45.86255" lon="1.32686">
        <ele>245.2734375</ele>
        <time>2011-06-19T07:24:20Z</time>
      </trkpt>
      <trkpt lat="45.86263" lon="1.32695">
        <ele>246.23486328125</ele>
        <time>2011-06-19T07:24:27Z</time>
      </trkpt>
      <trkpt lat="45.86277" lon="1.32706">
        <ele>247.19604492188</ele>
        <time>2011-06-19T07:24:35Z</time>
      </trkpt>
      <trkpt lat="45.8629" lon="1.32711">
        <ele>248.15759277344</ele>
        <time>2011-06-19T07:24:41Z</time>
      </trkpt>
      <trkpt lat="45.86309" lon="1.32718">
        <ele>250.08020019531</ele>
        <time>2011-06-19T07:24:47Z</time>
      </trkpt>
      <trkpt lat="45.86337" lon="1.32729">
        <ele>252.96398925781</ele>
        <time>2011-06-19T07:24:55Z</time>
      </trkpt>
      <trkpt lat="45.86354" lon="1.32739">
        <ele>252.00280761719</ele>
        <time>2011-06-19T07:25:01Z</time>
      </trkpt>
      <trkpt lat="45.8637" lon="1.32748">
        <ele>253.92541503906</ele>
        <time>2011-06-19T07:25:07Z</time>
      </trkpt>
      <trkpt lat="45.86382" lon="1.32756">
        <ele>257.2900390625</ele>
        <time>2011-06-19T07:25:12Z</time>
      </trkpt>
      <trkpt lat="45.86399" lon="1.32763">
        <ele>261.61596679688</ele>
        <time>2011-06-19T07:25:17Z</time>
      </trkpt>
      <trkpt lat="45.86415" lon="1.3277">
        <ele>262.5771484375</ele>
        <time>2011-06-19T07:25:23Z</time>
      </trkpt>
      <trkpt lat="45.86431" lon="1.32775">
        <ele>263.05786132812</ele>
        <time>2011-06-19T07:25:29Z</time>
      </trkpt>
      <trkpt lat="45.86446" lon="1.32781">
        <ele>260.65454101562</ele>
        <time>2011-06-19T07:25:34Z</time>
      </trkpt>
      <trkpt lat="45.86464" lon="1.32791">
        <ele>257.2900390625</ele>
        <time>2011-06-19T07:25:40Z</time>
      </trkpt>
      <trkpt lat="45.86484" lon="1.32799">
        <ele>254.88659667969</ele>
        <time>2011-06-19T07:25:46Z</time>
      </trkpt>
      <trkpt lat="45.86506" lon="1.32805">
        <ele>253.92541503906</ele>
        <time>2011-06-19T07:25:52Z</time>
      </trkpt>
      <trkpt lat="45.86533" lon="1.32813">
        <ele>256.32873535156</ele>
        <time>2011-06-19T07:25:58Z</time>
      </trkpt>
      <trkpt lat="45.86554" lon="1.32821">
        <ele>254.40600585938</ele>
        <time>2011-06-19T07:26:04Z</time>
      </trkpt>
      <trkpt lat="45.86574" lon="1.32828">
        <ele>252.4833984375</ele>
        <time>2011-06-19T07:26:10Z</time>
      </trkpt>
      <trkpt lat="45.86591" lon="1.32834">
        <ele>251.04138183594</ele>
        <time>2011-06-19T07:26:16Z</time>
      </trkpt>
      <trkpt lat="45.86612" lon="1.32837">
        <ele>257.2900390625</ele>
        <time>2011-06-19T07:26:23Z</time>
      </trkpt>
      <trkpt lat="45.86628" lon="1.32842">
        <ele>259.693359375</ele>
        <time>2011-06-19T07:26:30Z</time>
      </trkpt>
      <trkpt lat="45.86645" lon="1.32846">
        <ele>263.05786132812</ele>
        <time>2011-06-19T07:26:37Z</time>
      </trkpt>
      <trkpt lat="45.86659" lon="1.32851">
        <ele>263.05786132812</ele>
        <time>2011-06-19T07:26:44Z</time>
      </trkpt>
      <trkpt lat="45.86671" lon="1.32856">
        <ele>261.61596679688</ele>
        <time>2011-06-19T07:26:50Z</time>
      </trkpt>
      <trkpt lat="45.86693" lon="1.3286">
        <ele>263.53857421875</ele>
        <time>2011-06-19T07:26:57Z</time>
      </trkpt>
      <trkpt lat="45.86714" lon="1.32865">
        <ele>267.38391113281</ele>
        <time>2011-06-19T07:27:03Z</time>
      </trkpt>
      <trkpt lat="45.8673" lon="1.32871">
        <ele>267.38391113281</ele>
        <time>2011-06-19T07:27:08Z</time>
      </trkpt>
      <trkpt lat="45.86765" lon="1.32884">
        <ele>264.49987792969</ele>
        <time>2011-06-19T07:27:17Z</time>
      </trkpt>
      <trkpt lat="45.86789" lon="1.32889">
        <ele>265.46130371094</ele>
        <time>2011-06-19T07:27:24Z</time>
      </trkpt>
      <trkpt lat="45.86806" lon="1.32894">
        <ele>265.94189453125</ele>
        <time>2011-06-19T07:27:28Z</time>
      </trkpt>
      <trkpt lat="45.86823" lon="1.32905">
        <ele>264.98059082031</ele>
        <time>2011-06-19T07:27:33Z</time>
      </trkpt>
      <trkpt lat="45.86841" lon="1.32932">
        <ele>261.61596679688</ele>
        <time>2011-06-19T07:27:40Z</time>
      </trkpt>
      <trkpt lat="45.86856" lon="1.32961">
        <ele>257.2900390625</ele>
        <time>2011-06-19T07:27:46Z</time>
      </trkpt>
      <trkpt lat="45.86865" lon="1.32978">
        <ele>256.80932617188</ele>
        <time>2011-06-19T07:27:50Z</time>
      </trkpt>
      <trkpt lat="45.86887" lon="1.33009">
        <ele>250.08020019531</ele>
        <time>2011-06-19T07:27:55Z</time>
      </trkpt>
      <trkpt lat="45.86895" lon="1.33018">
        <ele>249.11877441406</ele>
        <time>2011-06-19T07:27:56Z</time>
      </trkpt>
      <trkpt lat="45.86923" lon="1.33043">
        <ele>246.71545410156</ele>
        <time>2011-06-19T07:28:00Z</time>
      </trkpt>
      <trkpt lat="45.86946" lon="1.33071">
        <ele>245.2734375</ele>
        <time>2011-06-19T07:28:04Z</time>
      </trkpt>
      <trkpt lat="45.86962" lon="1.33113">
        <ele>242.3896484375</ele>
        <time>2011-06-19T07:28:08Z</time>
      </trkpt>
      <trkpt lat="45.86966" lon="1.33124">
        <ele>242.87023925781</ele>
        <time>2011-06-19T07:28:09Z</time>
      </trkpt>
      <trkpt lat="45.86976" lon="1.33145">
        <ele>242.3896484375</ele>
        <time>2011-06-19T07:28:11Z</time>
      </trkpt>
      <trkpt lat="45.86983" lon="1.33179">
        <ele>240.46704101562</ele>
        <time>2011-06-19T07:28:15Z</time>
      </trkpt>
      <trkpt lat="45.86983" lon="1.33185">
        <ele>239.98620605469</ele>
        <time>2011-06-19T07:28:16Z</time>
      </trkpt>
      <trkpt lat="45.86972" lon="1.33188">
        <ele>239.50549316406</ele>
        <time>2011-06-19T07:28:20Z</time>
      </trkpt>
      <trkpt lat="45.86963" lon="1.33177">
        <ele>238.06359863281</ele>
        <time>2011-06-19T07:28:22Z</time>
      </trkpt>
      <trkpt lat="45.86952" lon="1.33164">
        <ele>237.58288574219</ele>
        <time>2011-06-19T07:28:24Z</time>
      </trkpt>
      <trkpt lat="45.86938" lon="1.33157">
        <ele>234.21838378906</ele>
        <time>2011-06-19T07:28:28Z</time>
      </trkpt>
      <trkpt lat="45.86934" lon="1.33168">
        <ele>231.33435058594</ele>
        <time>2011-06-19T07:28:31Z</time>
      </trkpt>
      <trkpt lat="45.86936" lon="1.33181">
        <ele>229.89233398438</ele>
        <time>2011-06-19T07:28:33Z</time>
      </trkpt>
      <trkpt lat="45.86954" lon="1.33225">
        <ele>228.45043945312</ele>
        <time>2011-06-19T07:28:42Z</time>
      </trkpt>
      <trkpt lat="45.86963" lon="1.3325">
        <ele>229.41174316406</ele>
        <time>2011-06-19T07:28:48Z</time>
      </trkpt>
      <trkpt lat="45.86969" lon="1.33268">
        <ele>228.93115234375</ele>
        <time>2011-06-19T07:28:52Z</time>
      </trkpt>
      <trkpt lat="45.86979" lon="1.33304">
        <ele>232.77648925781</ele>
        <time>2011-06-19T07:28:59Z</time>
      </trkpt>
      <trkpt lat="45.86983" lon="1.33338">
        <ele>231.33435058594</ele>
        <time>2011-06-19T07:29:05Z</time>
      </trkpt>
      <trkpt lat="45.86991" lon="1.3336">
        <ele>230.373046875</ele>
        <time>2011-06-19T07:29:11Z</time>
      </trkpt>
      <trkpt lat="45.86991" lon="1.33361">
        <ele>230.373046875</ele>
        <time>2011-06-19T07:29:12Z</time>
      </trkpt>
      <trkpt lat="45.86995" lon="1.33371">
        <ele>228.93115234375</ele>
        <time>2011-06-19T07:29:17Z</time>
      </trkpt>
      <trkpt lat="45.87" lon="1.3338">
        <ele>228.93115234375</ele>
        <time>2011-06-19T07:29:21Z</time>
      </trkpt>
      <trkpt lat="45.87004" lon="1.33404">
        <ele>231.33435058594</ele>
        <time>2011-06-19T07:29:27Z</time>
      </trkpt>
      <trkpt lat="45.87006" lon="1.33427">
        <ele>231.33435058594</ele>
        <time>2011-06-19T07:29:32Z</time>
      </trkpt>
      <trkpt lat="45.87021" lon="1.33468">
        <ele>231.33435058594</ele>
        <time>2011-06-19T07:29:40Z</time>
      </trkpt>
      <trkpt lat="45.87023" lon="1.33474">
        <ele>230.85375976562</ele>
        <time>2011-06-19T07:29:41Z</time>
      </trkpt>
      <trkpt lat="45.87037" lon="1.33506">
        <ele>229.89233398438</ele>
        <time>2011-06-19T07:29:47Z</time>
      </trkpt>
      <trkpt lat="45.87057" lon="1.33549">
        <ele>231.81494140625</ele>
        <time>2011-06-19T07:29:56Z</time>
      </trkpt>
      <trkpt lat="45.87072" lon="1.33579">
        <ele>232.77648925781</ele>
        <time>2011-06-19T07:30:03Z</time>
      </trkpt>
      <trkpt lat="45.87087" lon="1.33606">
        <ele>232.29577636719</ele>
        <time>2011-06-19T07:30:09Z</time>
      </trkpt>
      <trkpt lat="45.87103" lon="1.33651">
        <ele>233.25708007812</ele>
        <time>2011-06-19T07:30:17Z</time>
      </trkpt>
      <trkpt lat="45.87115" lon="1.33677">
        <ele>235.1796875</ele>
        <time>2011-06-19T07:30:23Z</time>
      </trkpt>
      <trkpt lat="45.87128" lon="1.33692">
        <ele>237.10229492188</ele>
        <time>2011-06-19T07:30:29Z</time>
      </trkpt>
      <trkpt lat="45.8714" lon="1.33721">
        <ele>237.10229492188</ele>
        <time>2011-06-19T07:30:35Z</time>
      </trkpt>
      <trkpt lat="45.87137" lon="1.33743">
        <ele>235.66027832031</ele>
        <time>2011-06-19T07:30:39Z</time>
      </trkpt>
      <trkpt lat="45.87142" lon="1.3377">
        <ele>234.21838378906</ele>
        <time>2011-06-19T07:30:43Z</time>
      </trkpt>
      <trkpt lat="45.87147" lon="1.3378">
        <ele>234.21838378906</ele>
        <time>2011-06-19T07:30:45Z</time>
      </trkpt>
      <trkpt lat="45.87158" lon="1.33792">
        <ele>235.1796875</ele>
        <time>2011-06-19T07:30:50Z</time>
      </trkpt>
      <trkpt lat="45.87172" lon="1.33796">
        <ele>238.06359863281</ele>
        <time>2011-06-19T07:30:57Z</time>
      </trkpt>
      <trkpt lat="45.87191" lon="1.33799">
        <ele>240.94763183594</ele>
        <time>2011-06-19T07:31:05Z</time>
      </trkpt>
      <trkpt lat="45.87209" lon="1.338">
        <ele>242.3896484375</ele>
        <time>2011-06-19T07:31:13Z</time>
      </trkpt>
      <trkpt lat="45.8722" lon="1.33803">
        <ele>244.79284667969</ele>
        <time>2011-06-19T07:31:19Z</time>
      </trkpt>
      <trkpt lat="45.87229" lon="1.33803">
        <ele>246.23486328125</ele>
        <time>2011-06-19T07:31:24Z</time>
      </trkpt>
      <trkpt lat="45.87234" lon="1.338">
        <ele>245.2734375</ele>
        <time>2011-06-19T07:31:27Z</time>
      </trkpt>
      <trkpt lat="45.87246" lon="1.33801">
        <ele>243.83154296875</ele>
        <time>2011-06-19T07:31:32Z</time>
      </trkpt>
      <trkpt lat="45.87258" lon="1.33792">
        <ele>244.79284667969</ele>
        <time>2011-06-19T07:31:39Z</time>
      </trkpt>
      <trkpt lat="45.87268" lon="1.33781">
        <ele>245.75415039062</ele>
        <time>2011-06-19T07:31:47Z</time>
      </trkpt>
      <trkpt lat="45.8728" lon="1.33768">
        <ele>247.19604492188</ele>
        <time>2011-06-19T07:31:56Z</time>
      </trkpt>
      <trkpt lat="45.87283" lon="1.33764">
        <ele>247.6767578125</ele>
        <time>2011-06-19T07:31:58Z</time>
      </trkpt>
      <trkpt lat="45.87292" lon="1.33759">
        <ele>249.11877441406</ele>
        <time>2011-06-19T07:32:04Z</time>
      </trkpt>
      <trkpt lat="45.87298" lon="1.33761">
        <ele>249.59948730469</ele>
        <time>2011-06-19T07:32:08Z</time>
      </trkpt>
      <trkpt lat="45.87305" lon="1.33771">
        <ele>251.04138183594</ele>
        <time>2011-06-19T07:32:12Z</time>
      </trkpt>
      <trkpt lat="45.87317" lon="1.33797">
        <ele>252.4833984375</ele>
        <time>2011-06-19T07:32:19Z</time>
      </trkpt>
      <trkpt lat="45.8733" lon="1.33826">
        <ele>252.00280761719</ele>
        <time>2011-06-19T07:32:26Z</time>
      </trkpt>
      <trkpt lat="45.87346" lon="1.33859">
        <ele>251.04138183594</ele>
        <time>2011-06-19T07:32:34Z</time>
      </trkpt>
      <trkpt lat="45.8736" lon="1.33888">
        <ele>251.52209472656</ele>
        <time>2011-06-19T07:32:41Z</time>
      </trkpt>
      <trkpt lat="45.8738" lon="1.33908">
        <ele>252.00280761719</ele>
        <time>2011-06-19T07:32:48Z</time>
      </trkpt>
      <trkpt lat="45.87408" lon="1.33914">
        <ele>252.00280761719</ele>
        <time>2011-06-19T07:32:56Z</time>
      </trkpt>
      <trkpt lat="45.87415" lon="1.33921">
        <ele>251.04138183594</ele>
        <time>2011-06-19T07:32:58Z</time>
      </trkpt>
      <trkpt lat="45.87439" lon="1.33958">
        <ele>251.04138183594</ele>
        <time>2011-06-19T07:33:06Z</time>
      </trkpt>
      <trkpt lat="45.87468" lon="1.33992">
        <ele>252.4833984375</ele>
        <time>2011-06-19T07:33:15Z</time>
      </trkpt>
      <trkpt lat="45.87489" lon="1.34018">
        <ele>252.4833984375</ele>
        <time>2011-06-19T07:33:23Z</time>
      </trkpt>
      <trkpt lat="45.87513" lon="1.34045">
        <ele>252.96398925781</ele>
        <time>2011-06-19T07:33:32Z</time>
      </trkpt>
      <trkpt lat="45.87531" lon="1.34064">
        <ele>253.92541503906</ele>
        <time>2011-06-19T07:33:39Z</time>
      </trkpt>
      <trkpt lat="45.8755" lon="1.34072">
        <ele>256.80932617188</ele>
        <time>2011-06-19T07:33:47Z</time>
      </trkpt>
      <trkpt lat="45.87566" lon="1.34078">
        <ele>259.21264648438</ele>
        <time>2011-06-19T07:33:54Z</time>
      </trkpt>
      <trkpt lat="45.8759" lon="1.34084">
        <ele>261.61596679688</ele>
        <time>2011-06-19T07:34:04Z</time>
      </trkpt>
      <trkpt lat="45.87605" lon="1.34093">
        <ele>261.13525390625</ele>
        <time>2011-06-19T07:34:11Z</time>
      </trkpt>
      <trkpt lat="45.87618" lon="1.34113">
        <ele>264.01928710938</ele>
        <time>2011-06-19T07:34:18Z</time>
      </trkpt>
      <trkpt lat="45.87625" lon="1.34132">
        <ele>264.98059082031</ele>
        <time>2011-06-19T07:34:24Z</time>
      </trkpt>
      <trkpt lat="45.87638" lon="1.34139">
        <ele>265.46130371094</ele>
        <time>2011-06-19T07:34:30Z</time>
      </trkpt>
      <trkpt lat="45.87656" lon="1.34144">
        <ele>265.94189453125</ele>
        <time>2011-06-19T07:34:39Z</time>
      </trkpt>
      <trkpt lat="45.87669" lon="1.34143">
        <ele>269.30651855469</ele>
        <time>2011-06-19T07:34:47Z</time>
      </trkpt>
      <trkpt lat="45.8768" lon="1.34146">
        <ele>273.15185546875</ele>
        <time>2011-06-19T07:34:54Z</time>
      </trkpt>
      <trkpt lat="45.87687" lon="1.34151">
        <ele>276.9970703125</ele>
        <time>2011-06-19T07:35:01Z</time>
      </trkpt>
      <trkpt lat="45.87694" lon="1.34156">
        <ele>280.36169433594</ele>
        <time>2011-06-19T07:35:09Z</time>
      </trkpt>
      <trkpt lat="45.87697" lon="1.34157">
        <ele>281.32299804688</ele>
        <time>2011-06-19T07:35:12Z</time>
      </trkpt>
      <trkpt lat="45.8771" lon="1.34154">
        <ele>287.57141113281</ele>
        <time>2011-06-19T07:35:20Z</time>
      </trkpt>
      <trkpt lat="45.87725" lon="1.34152">
        <ele>293.33935546875</ele>
        <time>2011-06-19T07:35:28Z</time>
      </trkpt>
      <trkpt lat="45.87739" lon="1.34159">
        <ele>288.05224609375</ele>
        <time>2011-06-19T07:35:35Z</time>
      </trkpt>
      <trkpt lat="45.87742" lon="1.34169">
        <ele>286.12951660156</ele>
        <time>2011-06-19T07:35:39Z</time>
      </trkpt>
      <trkpt lat="45.87742" lon="1.34197">
        <ele>279.880859375</ele>
        <time>2011-06-19T07:35:49Z</time>
      </trkpt>
      <trkpt lat="45.87748" lon="1.34211">
        <ele>281.80358886719</ele>
        <time>2011-06-19T07:35:57Z</time>
      </trkpt>
      <trkpt lat="45.87756" lon="1.34228">
        <ele>283.24560546875</ele>
        <time>2011-06-19T07:36:06Z</time>
      </trkpt>
      <trkpt lat="45.87766" lon="1.3425">
        <ele>287.57141113281</ele>
        <time>2011-06-19T07:36:18Z</time>
      </trkpt>
      <trkpt lat="45.87765" lon="1.34261">
        <ele>288.05224609375</ele>
        <time>2011-06-19T07:36:23Z</time>
      </trkpt>
      <trkpt lat="45.87772" lon="1.34273">
        <ele>290.45556640625</ele>
        <time>2011-06-19T07:36:31Z</time>
      </trkpt>
      <trkpt lat="45.87777" lon="1.34279">
        <ele>291.8974609375</ele>
        <time>2011-06-19T07:36:35Z</time>
      </trkpt>
      <trkpt lat="45.87775" lon="1.3429">
        <ele>290.93615722656</ele>
        <time>2011-06-19T07:36:40Z</time>
      </trkpt>
      <trkpt lat="45.87764" lon="1.34309">
        <ele>290.45556640625</ele>
        <time>2011-06-19T07:36:49Z</time>
      </trkpt>
      <trkpt lat="45.87765" lon="1.34317">
        <ele>290.45556640625</ele>
        <time>2011-06-19T07:36:52Z</time>
      </trkpt>
      <trkpt lat="45.87775" lon="1.34327">
        <ele>291.41674804688</ele>
        <time>2011-06-19T07:36:59Z</time>
      </trkpt>
      <trkpt lat="45.87787" lon="1.34335">
        <ele>291.8974609375</ele>
        <time>2011-06-19T07:37:06Z</time>
      </trkpt>
      <trkpt lat="45.87806" lon="1.34336">
        <ele>293.82006835938</ele>
        <time>2011-06-19T07:37:15Z</time>
      </trkpt>
      <trkpt lat="45.87823" lon="1.34336">
        <ele>295.74267578125</ele>
        <time>2011-06-19T07:37:23Z</time>
      </trkpt>
      <trkpt lat="45.87843" lon="1.34338">
        <ele>297.18469238281</ele>
        <time>2011-06-19T07:37:33Z</time>
      </trkpt>
      <trkpt lat="45.87849" lon="1.34353">
        <ele>297.66540527344</ele>
        <time>2011-06-19T07:37:39Z</time>
      </trkpt>
      <trkpt lat="45.87855" lon="1.34393">
        <ele>298.62670898438</ele>
        <time>2011-06-19T07:37:49Z</time>
      </trkpt>
      <trkpt lat="45.87871" lon="1.3443">
        <ele>299.58801269531</ele>
        <time>2011-06-19T07:37:59Z</time>
      </trkpt>
      <trkpt lat="45.87886" lon="1.34456">
        <ele>300.54931640625</ele>
        <time>2011-06-19T07:38:06Z</time>
      </trkpt>
      <trkpt lat="45.87908" lon="1.34487">
        <ele>301.51062011719</ele>
        <time>2011-06-19T07:38:15Z</time>
      </trkpt>
      <trkpt lat="45.87925" lon="1.34514">
        <ele>303.43322753906</ele>
        <time>2011-06-19T07:38:22Z</time>
      </trkpt>
      <trkpt lat="45.8794" lon="1.34544">
        <ele>303.43322753906</ele>
        <time>2011-06-19T07:38:29Z</time>
      </trkpt>
      <trkpt lat="45.87951" lon="1.34576">
        <ele>303.91394042969</ele>
        <time>2011-06-19T07:38:37Z</time>
      </trkpt>
      <trkpt lat="45.87958" lon="1.34605">
        <ele>303.91394042969</ele>
        <time>2011-06-19T07:38:44Z</time>
      </trkpt>
      <trkpt lat="45.87972" lon="1.3465">
        <ele>303.91394042969</ele>
        <time>2011-06-19T07:38:53Z</time>
      </trkpt>
      <trkpt lat="45.87989" lon="1.34691">
        <ele>303.43322753906</ele>
        <time>2011-06-19T07:39:01Z</time>
      </trkpt>
      <trkpt lat="45.88011" lon="1.34733">
        <ele>301.51062011719</ele>
        <time>2011-06-19T07:39:08Z</time>
      </trkpt>
      <trkpt lat="45.88025" lon="1.34761">
        <ele>300.54931640625</ele>
        <time>2011-06-19T07:39:12Z</time>
      </trkpt>
      <trkpt lat="45.88034" lon="1.34802">
        <ele>299.10729980469</ele>
        <time>2011-06-19T07:39:17Z</time>
      </trkpt>
      <trkpt lat="45.88026" lon="1.3483">
        <ele>299.10729980469</ele>
        <time>2011-06-19T07:39:21Z</time>
      </trkpt>
      <trkpt lat="45.87998" lon="1.3487">
        <ele>301.02990722656</ele>
        <time>2011-06-19T07:39:29Z</time>
      </trkpt>
      <trkpt lat="45.87976" lon="1.349">
        <ele>303.91394042969</ele>
        <time>2011-06-19T07:39:36Z</time>
      </trkpt>
      <trkpt lat="45.87955" lon="1.34928">
        <ele>303.91394042969</ele>
        <time>2011-06-19T07:39:43Z</time>
      </trkpt>
      <trkpt lat="45.87934" lon="1.34955">
        <ele>302.95251464844</ele>
        <time>2011-06-19T07:39:49Z</time>
      </trkpt>
      <trkpt lat="45.87909" lon="1.3499">
        <ele>304.39465332031</ele>
        <time>2011-06-19T07:39:56Z</time>
      </trkpt>
      <trkpt lat="45.87906" lon="1.34994">
        <ele>304.39465332031</ele>
        <time>2011-06-19T07:39:57Z</time>
      </trkpt>
      <trkpt lat="45.87896" lon="1.35019">
        <ele>305.83666992188</ele>
        <time>2011-06-19T07:40:02Z</time>
      </trkpt>
      <trkpt lat="45.87892" lon="1.35031">
        <ele>306.31726074219</ele>
        <time>2011-06-19T07:40:06Z</time>
      </trkpt>
      <trkpt lat="45.87886" lon="1.35035">
        <ele>305.35595703125</ele>
        <time>2011-06-19T07:40:11Z</time>
      </trkpt>
      <trkpt lat="45.87886" lon="1.35035">
        <ele>305.35595703125</ele>
        <time>2011-06-19T07:40:13Z</time>
      </trkpt>
      <trkpt lat="45.87888" lon="1.35032">
        <ele>296.22351074219</ele>
        <time>2011-06-19T07:43:47Z</time>
      </trkpt>
      <trkpt lat="45.87888" lon="1.35029">
        <ele>298.14611816406</ele>
        <time>2011-06-19T07:43:51Z</time>
      </trkpt>
      <trkpt lat="45.87893" lon="1.35022">
        <ele>300.54931640625</ele>
        <time>2011-06-19T07:43:56Z</time>
      </trkpt>
      <trkpt lat="45.87894" lon="1.35027">
        <ele>301.02990722656</ele>
        <time>2011-06-19T07:43:58Z</time>
      </trkpt>
      <trkpt lat="45.87897" lon="1.35057">
        <ele>302.95251464844</ele>
        <time>2011-06-19T07:44:05Z</time>
      </trkpt>
      <trkpt lat="45.87901" lon="1.35065">
        <ele>303.43322753906</ele>
        <time>2011-06-19T07:44:07Z</time>
      </trkpt>
      <trkpt lat="45.87925" lon="1.35089">
        <ele>306.31726074219</ele>
        <time>2011-06-19T07:44:15Z</time>
      </trkpt>
      <trkpt lat="45.87938" lon="1.35107">
        <ele>308.72045898438</ele>
        <time>2011-06-19T07:44:21Z</time>
      </trkpt>
      <trkpt lat="45.8795" lon="1.35131">
        <ele>314.96911621094</ele>
        <time>2011-06-19T07:44:28Z</time>
      </trkpt>
      <trkpt lat="45.87959" lon="1.35151">
        <ele>317.37243652344</ele>
        <time>2011-06-19T07:44:33Z</time>
      </trkpt>
      <trkpt lat="45.87971" lon="1.35165">
        <ele>323.62097167969</ele>
        <time>2011-06-19T07:44:39Z</time>
      </trkpt>
      <trkpt lat="45.87989" lon="1.35185">
        <ele>324.58227539062</ele>
        <time>2011-06-19T07:44:46Z</time>
      </trkpt>
      <trkpt lat="45.88014" lon="1.35208">
        <ele>332.27282714844</ele>
        <time>2011-06-19T07:44:54Z</time>
      </trkpt>
      <trkpt lat="45.88027" lon="1.35233">
        <ele>329.86950683594</ele>
        <time>2011-06-19T07:44:58Z</time>
      </trkpt>
      <trkpt lat="45.88035" lon="1.35252">
        <ele>328.90832519531</ele>
        <time>2011-06-19T07:45:01Z</time>
      </trkpt>
      <trkpt lat="45.88039" lon="1.35256">
        <ele>328.90832519531</ele>
        <time>2011-06-19T07:45:02Z</time>
      </trkpt>
      <trkpt lat="45.88054" lon="1.35267">
        <ele>328.90832519531</ele>
        <time>2011-06-19T07:45:05Z</time>
      </trkpt>
      <trkpt lat="45.88072" lon="1.35296">
        <ele>327.94677734375</ele>
        <time>2011-06-19T07:45:10Z</time>
      </trkpt>
      <trkpt lat="45.8808" lon="1.3534">
        <ele>320.25634765625</ele>
        <time>2011-06-19T07:45:15Z</time>
      </trkpt>
      <trkpt lat="45.88083" lon="1.35395">
        <ele>311.12377929688</ele>
        <time>2011-06-19T07:45:21Z</time>
      </trkpt>
      <trkpt lat="45.88086" lon="1.35426">
        <ele>305.83666992188</ele>
        <time>2011-06-19T07:45:25Z</time>
      </trkpt>
      <trkpt lat="45.88088" lon="1.35431">
        <ele>303.91394042969</ele>
        <time>2011-06-19T07:45:26Z</time>
      </trkpt>
      <trkpt lat="45.881" lon="1.35437">
        <ele>300.54931640625</ele>
        <time>2011-06-19T07:45:30Z</time>
      </trkpt>
      <trkpt lat="45.88114" lon="1.35453">
        <ele>301.51062011719</ele>
        <time>2011-06-19T07:45:37Z</time>
      </trkpt>
      <trkpt lat="45.88115" lon="1.35454">
        <ele>301.99133300781</ele>
        <time>2011-06-19T07:45:38Z</time>
      </trkpt>
      <trkpt lat="45.88116" lon="1.35456">
        <ele>303.91394042969</ele>
        <time>2011-06-19T07:45:46Z</time>
      </trkpt>
      <trkpt lat="45.88122" lon="1.35466">
        <ele>308.23986816406</ele>
        <time>2011-06-19T07:45:51Z</time>
      </trkpt>
      <trkpt lat="45.88129" lon="1.35476">
        <ele>312.08520507812</ele>
        <time>2011-06-19T07:45:59Z</time>
      </trkpt>
      <trkpt lat="45.88132" lon="1.3548">
        <ele>313.52722167969</ele>
        <time>2011-06-19T07:46:04Z</time>
      </trkpt>
      <trkpt lat="45.8814" lon="1.35488">
        <ele>314.48840332031</ele>
        <time>2011-06-19T07:46:09Z</time>
      </trkpt>
      <trkpt lat="45.88161" lon="1.35508">
        <ele>314.48840332031</ele>
        <time>2011-06-19T07:46:18Z</time>
      </trkpt>
      <trkpt lat="45.88182" lon="1.35528">
        <ele>312.56579589844</ele>
        <time>2011-06-19T07:46:27Z</time>
      </trkpt>
      <trkpt lat="45.88202" lon="1.35545">
        <ele>312.08520507812</ele>
        <time>2011-06-19T07:46:34Z</time>
      </trkpt>
      <trkpt lat="45.88227" lon="1.35565">
        <ele>311.12377929688</ele>
        <time>2011-06-19T07:46:42Z</time>
      </trkpt>
      <trkpt lat="45.88252" lon="1.35582">
        <ele>311.6044921875</ele>
        <time>2011-06-19T07:46:50Z</time>
      </trkpt>
      <trkpt lat="45.88275" lon="1.35596">
        <ele>311.6044921875</ele>
        <time>2011-06-19T07:46:58Z</time>
      </trkpt>
      <trkpt lat="45.8829" lon="1.35606">
        <ele>311.6044921875</ele>
        <time>2011-06-19T07:47:04Z</time>
      </trkpt>
      <trkpt lat="45.88312" lon="1.35618">
        <ele>311.12377929688</ele>
        <time>2011-06-19T07:47:12Z</time>
      </trkpt>
      <trkpt lat="45.88333" lon="1.35628">
        <ele>311.6044921875</ele>
        <time>2011-06-19T07:47:19Z</time>
      </trkpt>
      <trkpt lat="45.88353" lon="1.35635">
        <ele>314.48840332031</ele>
        <time>2011-06-19T07:47:26Z</time>
      </trkpt>
      <trkpt lat="45.88372" lon="1.35639">
        <ele>316.89172363281</ele>
        <time>2011-06-19T07:47:32Z</time>
      </trkpt>
      <trkpt lat="45.8839" lon="1.35648">
        <ele>321.69836425781</ele>
        <time>2011-06-19T07:47:39Z</time>
      </trkpt>
      <trkpt lat="45.88404" lon="1.35654">
        <ele>324.58227539062</ele>
        <time>2011-06-19T07:47:45Z</time>
      </trkpt>
      <trkpt lat="45.88417" lon="1.35666">
        <ele>322.65966796875</ele>
        <time>2011-06-19T07:47:51Z</time>
      </trkpt>
      <trkpt lat="45.8843" lon="1.35691">
        <ele>321.2177734375</ele>
        <time>2011-06-19T07:47:57Z</time>
      </trkpt>
      <trkpt lat="45.88438" lon="1.35709">
        <ele>320.73706054688</ele>
        <time>2011-06-19T07:48:01Z</time>
      </trkpt>
      <trkpt lat="45.88451" lon="1.35739">
        <ele>319.29504394531</ele>
        <time>2011-06-19T07:48:06Z</time>
      </trkpt>
      <trkpt lat="45.88478" lon="1.35801">
        <ele>320.73706054688</ele>
        <time>2011-06-19T07:48:16Z</time>
      </trkpt>
      <trkpt lat="45.88496" lon="1.35844">
        <ele>320.73706054688</ele>
        <time>2011-06-19T07:48:23Z</time>
      </trkpt>
      <trkpt lat="45.88506" lon="1.35866">
        <ele>320.73706054688</ele>
        <time>2011-06-19T07:48:27Z</time>
      </trkpt>
      <trkpt lat="45.88523" lon="1.35885">
        <ele>320.25634765625</ele>
        <time>2011-06-19T07:48:32Z</time>
      </trkpt>
      <trkpt lat="45.88532" lon="1.35878">
        <ele>321.69836425781</ele>
        <time>2011-06-19T07:48:35Z</time>
      </trkpt>
      <trkpt lat="45.88561" lon="1.35865">
        <ele>324.1015625</ele>
        <time>2011-06-19T07:48:43Z</time>
      </trkpt>
      <trkpt lat="45.88586" lon="1.35861">
        <ele>325.06298828125</ele>
        <time>2011-06-19T07:48:50Z</time>
      </trkpt>
      <trkpt lat="45.88605" lon="1.35856">
        <ele>325.06298828125</ele>
        <time>2011-06-19T07:48:56Z</time>
      </trkpt>
      <trkpt lat="45.88624" lon="1.35843">
        <ele>326.5048828125</ele>
        <time>2011-06-19T07:49:04Z</time>
      </trkpt>
      <trkpt lat="45.88645" lon="1.35827">
        <ele>327.46618652344</ele>
        <time>2011-06-19T07:49:15Z</time>
      </trkpt>
      <trkpt lat="45.88657" lon="1.35817">
        <ele>328.90832519531</ele>
        <time>2011-06-19T07:49:22Z</time>
      </trkpt>
      <trkpt lat="45.88672" lon="1.35807">
        <ele>330.35021972656</ele>
        <time>2011-06-19T07:49:30Z</time>
      </trkpt>
      <trkpt lat="45.88687" lon="1.35796">
        <ele>331.3115234375</ele>
        <time>2011-06-19T07:49:39Z</time>
      </trkpt>
      <trkpt lat="45.88692" lon="1.3579">
        <ele>331.3115234375</ele>
        <time>2011-06-19T07:49:43Z</time>
      </trkpt>
      <trkpt lat="45.88698" lon="1.3578">
        <ele>333.71472167969</ele>
        <time>2011-06-19T07:49:49Z</time>
      </trkpt>
      <trkpt lat="45.88707" lon="1.35771">
        <ele>335.63732910156</ele>
        <time>2011-06-19T07:49:55Z</time>
      </trkpt>
      <trkpt lat="45.88716" lon="1.35762">
        <ele>337.07946777344</ele>
        <time>2011-06-19T07:50:01Z</time>
      </trkpt>
      <trkpt lat="45.88727" lon="1.3575">
        <ele>339.96337890625</ele>
        <time>2011-06-19T07:50:07Z</time>
      </trkpt>
      <trkpt lat="45.88734" lon="1.35743">
        <ele>340.92468261719</ele>
        <time>2011-06-19T07:50:10Z</time>
      </trkpt>
      <trkpt lat="45.88737" lon="1.35726">
        <ele>340.44409179688</ele>
        <time>2011-06-19T07:50:15Z</time>
      </trkpt>
      <trkpt lat="45.88741" lon="1.35716">
        <ele>339.48266601562</ele>
        <time>2011-06-19T07:50:19Z</time>
      </trkpt>
      <trkpt lat="45.88754" lon="1.35719">
        <ele>339.00207519531</ele>
        <time>2011-06-19T07:50:23Z</time>
      </trkpt>
      <trkpt lat="45.88764" lon="1.35709">
        <ele>338.04077148438</ele>
        <time>2011-06-19T07:50:26Z</time>
      </trkpt>
      <trkpt lat="45.88766" lon="1.35703">
        <ele>338.521484375</ele>
        <time>2011-06-19T07:50:27Z</time>
      </trkpt>
      <trkpt lat="45.88775" lon="1.35692">
        <ele>339.00207519531</ele>
        <time>2011-06-19T07:50:30Z</time>
      </trkpt>
      <trkpt lat="45.88789" lon="1.35699">
        <ele>342.36669921875</ele>
        <time>2011-06-19T07:50:35Z</time>
      </trkpt>
      <trkpt lat="45.88803" lon="1.35703">
        <ele>337.56005859375</ele>
        <time>2011-06-19T07:50:39Z</time>
      </trkpt>
      <trkpt lat="45.88807" lon="1.35696">
        <ele>336.59887695312</ele>
        <time>2011-06-19T07:50:41Z</time>
      </trkpt>
      <trkpt lat="45.88821" lon="1.35658">
        <ele>333.71472167969</ele>
        <time>2011-06-19T07:50:48Z</time>
      </trkpt>
      <trkpt lat="45.88823" lon="1.35651">
        <ele>332.75354003906</ele>
        <time>2011-06-19T07:50:49Z</time>
      </trkpt>
      <trkpt lat="45.88835" lon="1.35619">
        <ele>330.83093261719</ele>
        <time>2011-06-19T07:50:54Z</time>
      </trkpt>
      <trkpt lat="45.88842" lon="1.35595">
        <ele>327.46618652344</ele>
        <time>2011-06-19T07:50:57Z</time>
      </trkpt>
      <trkpt lat="45.88847" lon="1.35568">
        <ele>326.02416992188</ele>
        <time>2011-06-19T07:51:00Z</time>
      </trkpt>
      <trkpt lat="45.88851" lon="1.35521">
        <ele>327.46618652344</ele>
        <time>2011-06-19T07:51:06Z</time>
      </trkpt>
      <trkpt lat="45.88851" lon="1.35513">
        <ele>328.42761230469</ele>
        <time>2011-06-19T07:51:07Z</time>
      </trkpt>
      <trkpt lat="45.88858" lon="1.35491">
        <ele>328.42761230469</ele>
        <time>2011-06-19T07:51:10Z</time>
      </trkpt>
      <trkpt lat="45.88884" lon="1.35456">
        <ele>324.1015625</ele>
        <time>2011-06-19T07:51:15Z</time>
      </trkpt>
      <trkpt lat="45.88916" lon="1.35421">
        <ele>315.93041992188</ele>
        <time>2011-06-19T07:51:20Z</time>
      </trkpt>
      <trkpt lat="45.88926" lon="1.35408">
        <ele>313.52722167969</ele>
        <time>2011-06-19T07:51:22Z</time>
      </trkpt>
      <trkpt lat="45.88923" lon="1.35391">
        <ele>309.68188476562</ele>
        <time>2011-06-19T07:51:26Z</time>
      </trkpt>
      <trkpt lat="45.8892" lon="1.35388">
        <ele>307.75927734375</ele>
        <time>2011-06-19T07:51:27Z</time>
      </trkpt>
      <trkpt lat="45.88894" lon="1.35352">
        <ele>297.66540527344</ele>
        <time>2011-06-19T07:51:35Z</time>
      </trkpt>
      <trkpt lat="45.88869" lon="1.35313">
        <ele>301.51062011719</ele>
        <time>2011-06-19T07:51:41Z</time>
      </trkpt>
      <trkpt lat="45.88854" lon="1.3529">
        <ele>304.39465332031</ele>
        <time>2011-06-19T07:51:45Z</time>
      </trkpt>
      <trkpt lat="45.8883" lon="1.35256">
        <ele>301.51062011719</ele>
        <time>2011-06-19T07:51:51Z</time>
      </trkpt>
      <trkpt lat="45.88812" lon="1.35225">
        <ele>298.14611816406</ele>
        <time>2011-06-19T07:51:56Z</time>
      </trkpt>
      <trkpt lat="45.88799" lon="1.35204">
        <ele>301.02990722656</ele>
        <time>2011-06-19T07:51:59Z</time>
      </trkpt>
      <trkpt lat="45.88771" lon="1.35152">
        <ele>301.51062011719</ele>
        <time>2011-06-19T07:52:06Z</time>
      </trkpt>
      <trkpt lat="45.88755" lon="1.35123">
        <ele>301.99133300781</ele>
        <time>2011-06-19T07:52:11Z</time>
      </trkpt>
      <trkpt lat="45.88752" lon="1.35118">
        <ele>303.43322753906</ele>
        <time>2011-06-19T07:52:12Z</time>
      </trkpt>
      <trkpt lat="45.88736" lon="1.3509">
        <ele>312.56579589844</ele>
        <time>2011-06-19T07:52:17Z</time>
      </trkpt>
      <trkpt lat="45.8873" lon="1.35066">
        <ele>322.65966796875</ele>
        <time>2011-06-19T07:52:22Z</time>
      </trkpt>
      <trkpt lat="45.88725" lon="1.35045">
        <ele>326.98559570312</ele>
        <time>2011-06-19T07:52:27Z</time>
      </trkpt>
      <trkpt lat="45.88717" lon="1.35026">
        <ele>328.42761230469</ele>
        <time>2011-06-19T07:52:31Z</time>
      </trkpt>
      <trkpt lat="45.88707" lon="1.35006">
        <ele>323.62097167969</ele>
        <time>2011-06-19T07:52:36Z</time>
      </trkpt>
      <trkpt lat="45.88696" lon="1.34985">
        <ele>321.69836425781</ele>
        <time>2011-06-19T07:52:40Z</time>
      </trkpt>
      <trkpt lat="45.88682" lon="1.34961">
        <ele>318.81433105469</ele>
        <time>2011-06-19T07:52:45Z</time>
      </trkpt>
      <trkpt lat="45.88677" lon="1.34951">
        <ele>316.41101074219</ele>
        <time>2011-06-19T07:52:47Z</time>
      </trkpt>
      <trkpt lat="45.88659" lon="1.34915">
        <ele>316.41101074219</ele>
        <time>2011-06-19T07:52:52Z</time>
      </trkpt>
      <trkpt lat="45.88648" lon="1.34889">
        <ele>309.68188476562</ele>
        <time>2011-06-19T07:52:57Z</time>
      </trkpt>
      <trkpt lat="45.88654" lon="1.34882">
        <ele>308.23986816406</ele>
        <time>2011-06-19T07:53:00Z</time>
      </trkpt>
      <trkpt lat="45.88658" lon="1.3488">
        <ele>307.75927734375</ele>
        <time>2011-06-19T07:53:03Z</time>
      </trkpt>
      <trkpt lat="45.88671" lon="1.34874">
        <ele>301.51062011719</ele>
        <time>2011-06-19T07:53:04Z</time>
      </trkpt>
      <trkpt lat="45.88681" lon="1.34863">
        <ele>298.14611816406</ele>
        <time>2011-06-19T07:53:06Z</time>
      </trkpt>
      <trkpt lat="45.88707" lon="1.34835">
        <ele>294.30078125</ele>
        <time>2011-06-19T07:53:12Z</time>
      </trkpt>
      <trkpt lat="45.88708" lon="1.34831">
        <ele>293.82006835938</ele>
        <time>2011-06-19T07:53:13Z</time>
      </trkpt>
      <trkpt lat="45.88699" lon="1.34818">
        <ele>289.494140625</ele>
        <time>2011-06-19T07:53:17Z</time>
      </trkpt>
      <trkpt lat="45.88683" lon="1.34818">
        <ele>288.05224609375</ele>
        <time>2011-06-19T07:53:20Z</time>
      </trkpt>
      <trkpt lat="45.88662" lon="1.34808">
        <ele>285.16821289062</ele>
        <time>2011-06-19T07:53:25Z</time>
      </trkpt>
      <trkpt lat="45.8866" lon="1.34803">
        <ele>286.61022949219</ele>
        <time>2011-06-19T07:53:26Z</time>
      </trkpt>
      <trkpt lat="45.88648" lon="1.34777">
        <ele>290.93615722656</ele>
        <time>2011-06-19T07:53:31Z</time>
      </trkpt>
      <trkpt lat="45.88646" lon="1.34753">
        <ele>298.14611816406</ele>
        <time>2011-06-19T07:53:36Z</time>
      </trkpt>
      <trkpt lat="45.88649" lon="1.34746">
        <ele>297.18469238281</ele>
        <time>2011-06-19T07:53:37Z</time>
      </trkpt>
      <trkpt lat="45.88657" lon="1.34691">
        <ele>311.12377929688</ele>
        <time>2011-06-19T07:53:44Z</time>
      </trkpt>
      <trkpt lat="45.88657" lon="1.34682">
        <ele>313.04650878906</ele>
        <time>2011-06-19T07:53:45Z</time>
      </trkpt>
      <trkpt lat="45.8865" lon="1.34643">
        <ele>312.56579589844</ele>
        <time>2011-06-19T07:53:49Z</time>
      </trkpt>
      <trkpt lat="45.88649" lon="1.34605">
        <ele>304.39465332031</ele>
        <time>2011-06-19T07:53:53Z</time>
      </trkpt>
      <trkpt lat="45.88669" lon="1.34568">
        <ele>298.14611816406</ele>
        <time>2011-06-19T07:53:57Z</time>
      </trkpt>
      <trkpt lat="45.88698" lon="1.34525">
        <ele>285.16821289062</ele>
        <time>2011-06-19T07:54:02Z</time>
      </trkpt>
      <trkpt lat="45.88706" lon="1.34508">
        <ele>280.84240722656</ele>
        <time>2011-06-19T07:54:04Z</time>
      </trkpt>
      <trkpt lat="45.88719" lon="1.34482">
        <ele>275.55505371094</ele>
        <time>2011-06-19T07:54:08Z</time>
      </trkpt>
      <trkpt lat="45.88733" lon="1.34463">
        <ele>271.70971679688</ele>
        <time>2011-06-19T07:54:12Z</time>
      </trkpt>
      <trkpt lat="45.88744" lon="1.34441">
        <ele>264.98059082031</ele>
        <time>2011-06-19T07:54:17Z</time>
      </trkpt>
      <trkpt lat="45.88743" lon="1.34431">
        <ele>264.98059082031</ele>
        <time>2011-06-19T07:54:19Z</time>
      </trkpt>
      <trkpt lat="45.8874" lon="1.34411">
        <ele>269.787109375</ele>
        <time>2011-06-19T07:54:24Z</time>
      </trkpt>
      <trkpt lat="45.88736" lon="1.344">
        <ele>274.11303710938</ele>
        <time>2011-06-19T07:54:30Z</time>
      </trkpt>
      <trkpt lat="45.88733" lon="1.3439">
        <ele>276.03564453125</ele>
        <time>2011-06-19T07:54:37Z</time>
      </trkpt>
      <trkpt lat="45.88732" lon="1.34388">
        <ele>276.51635742188</ele>
        <time>2011-06-19T07:54:39Z</time>
      </trkpt>
      <trkpt lat="45.88732" lon="1.34373">
        <ele>281.80358886719</ele>
        <time>2011-06-19T07:54:46Z</time>
      </trkpt>
      <trkpt lat="45.88736" lon="1.34363">
        <ele>279.880859375</ele>
        <time>2011-06-19T07:54:53Z</time>
      </trkpt>
      <trkpt lat="45.8874" lon="1.34358">
        <ele>278.43896484375</ele>
        <time>2011-06-19T07:54:59Z</time>
      </trkpt>
      <trkpt lat="45.88752" lon="1.34351">
        <ele>280.84240722656</ele>
        <time>2011-06-19T07:55:07Z</time>
      </trkpt>
      <trkpt lat="45.8876" lon="1.34347">
        <ele>282.76501464844</ele>
        <time>2011-06-19T07:55:13Z</time>
      </trkpt>
      <trkpt lat="45.88774" lon="1.34341">
        <ele>282.28430175781</ele>
        <time>2011-06-19T07:55:19Z</time>
      </trkpt>
      <trkpt lat="45.88784" lon="1.34338">
        <ele>282.76501464844</ele>
        <time>2011-06-19T07:55:25Z</time>
      </trkpt>
      <trkpt lat="45.88795" lon="1.34334">
        <ele>285.64880371094</ele>
        <time>2011-06-19T07:55:32Z</time>
      </trkpt>
      <trkpt lat="45.88807" lon="1.34332">
        <ele>282.28430175781</ele>
        <time>2011-06-19T07:55:40Z</time>
      </trkpt>
      <trkpt lat="45.88823" lon="1.34326">
        <ele>285.64880371094</ele>
        <time>2011-06-19T07:55:50Z</time>
      </trkpt>
      <trkpt lat="45.88832" lon="1.34323">
        <ele>289.97485351562</ele>
        <time>2011-06-19T07:55:58Z</time>
      </trkpt>
      <trkpt lat="45.88844" lon="1.34321">
        <ele>290.45556640625</ele>
        <time>2011-06-19T07:56:06Z</time>
      </trkpt>
      <trkpt lat="45.88853" lon="1.34318">
        <ele>291.41674804688</ele>
        <time>2011-06-19T07:56:13Z</time>
      </trkpt>
      <trkpt lat="45.88865" lon="1.34312">
        <ele>293.33935546875</ele>
        <time>2011-06-19T07:56:21Z</time>
      </trkpt>
      <trkpt lat="45.88882" lon="1.34303">
        <ele>297.18469238281</ele>
        <time>2011-06-19T07:56:31Z</time>
      </trkpt>
      <trkpt lat="45.88898" lon="1.34298">
        <ele>299.58801269531</ele>
        <time>2011-06-19T07:56:41Z</time>
      </trkpt>
      <trkpt lat="45.8891" lon="1.34297">
        <ele>299.10729980469</ele>
        <time>2011-06-19T07:56:49Z</time>
      </trkpt>
      <trkpt lat="45.88923" lon="1.34295">
        <ele>301.51062011719</ele>
        <time>2011-06-19T07:56:57Z</time>
      </trkpt>
      <trkpt lat="45.88931" lon="1.34294">
        <ele>301.51062011719</ele>
        <time>2011-06-19T07:57:02Z</time>
      </trkpt>
      <trkpt lat="45.88947" lon="1.34292">
        <ele>301.99133300781</ele>
        <time>2011-06-19T07:57:12Z</time>
      </trkpt>
      <trkpt lat="45.88963" lon="1.34289">
        <ele>302.47192382812</ele>
        <time>2011-06-19T07:57:21Z</time>
      </trkpt>
      <trkpt lat="45.88977" lon="1.34286">
        <ele>303.91394042969</ele>
        <time>2011-06-19T07:57:30Z</time>
      </trkpt>
      <trkpt lat="45.88992" lon="1.34282">
        <ele>305.35595703125</ele>
        <time>2011-06-19T07:57:40Z</time>
      </trkpt>
      <trkpt lat="45.89008" lon="1.3428">
        <ele>306.7978515625</ele>
        <time>2011-06-19T07:57:50Z</time>
      </trkpt>
      <trkpt lat="45.89018" lon="1.34276">
        <ele>308.23986816406</ele>
        <time>2011-06-19T07:57:57Z</time>
      </trkpt>
      <trkpt lat="45.89027" lon="1.34271">
        <ele>309.201171875</ele>
        <time>2011-06-19T07:58:04Z</time>
      </trkpt>
      <trkpt lat="45.89035" lon="1.3427">
        <ele>309.68188476562</ele>
        <time>2011-06-19T07:58:10Z</time>
      </trkpt>
      <trkpt lat="45.8905" lon="1.34268">
        <ele>311.12377929688</ele>
        <time>2011-06-19T07:58:18Z</time>
      </trkpt>
      <trkpt lat="45.89063" lon="1.34264">
        <ele>311.6044921875</ele>
        <time>2011-06-19T07:58:24Z</time>
      </trkpt>
      <trkpt lat="45.89081" lon="1.34257">
        <ele>314.0078125</ele>
        <time>2011-06-19T07:58:33Z</time>
      </trkpt>
      <trkpt lat="45.89096" lon="1.34247">
        <ele>315.93041992188</ele>
        <time>2011-06-19T07:58:41Z</time>
      </trkpt>
      <trkpt lat="45.89109" lon="1.34237">
        <ele>316.89172363281</ele>
        <time>2011-06-19T07:58:48Z</time>
      </trkpt>
      <trkpt lat="45.89121" lon="1.34229">
        <ele>317.85302734375</ele>
        <time>2011-06-19T07:58:54Z</time>
      </trkpt>
      <trkpt lat="45.89139" lon="1.34217">
        <ele>319.29504394531</ele>
        <time>2011-06-19T07:59:03Z</time>
      </trkpt>
      <trkpt lat="45.89157" lon="1.34202">
        <ele>320.73706054688</ele>
        <time>2011-06-19T07:59:13Z</time>
      </trkpt>
      <trkpt lat="45.89178" lon="1.34187">
        <ele>322.17895507812</ele>
        <time>2011-06-19T07:59:24Z</time>
      </trkpt>
      <trkpt lat="45.89194" lon="1.34176">
        <ele>323.62097167969</ele>
        <time>2011-06-19T07:59:33Z</time>
      </trkpt>
      <trkpt lat="45.89204" lon="1.34167">
        <ele>325.06298828125</ele>
        <time>2011-06-19T07:59:40Z</time>
      </trkpt>
      <trkpt lat="45.89204" lon="1.34156">
        <ele>326.5048828125</ele>
        <time>2011-06-19T07:59:45Z</time>
      </trkpt>
      <trkpt lat="45.89202" lon="1.34152">
        <ele>327.94677734375</ele>
        <time>2011-06-19T07:59:47Z</time>
      </trkpt>
      <trkpt lat="45.89199" lon="1.34132">
        <ele>336.1181640625</ele>
        <time>2011-06-19T07:59:54Z</time>
      </trkpt>
      <trkpt lat="45.89199" lon="1.34109">
        <ele>336.1181640625</ele>
        <time>2011-06-19T08:00:00Z</time>
      </trkpt>
      <trkpt lat="45.89193" lon="1.34087">
        <ele>333.71472167969</ele>
        <time>2011-06-19T08:00:05Z</time>
      </trkpt>
      <trkpt lat="45.89189" lon="1.34058">
        <ele>330.83093261719</ele>
        <time>2011-06-19T08:00:12Z</time>
      </trkpt>
      <trkpt lat="45.89184" lon="1.34025">
        <ele>327.94677734375</ele>
        <time>2011-06-19T08:00:19Z</time>
      </trkpt>
      <trkpt lat="45.89183" lon="1.3402">
        <ele>327.94677734375</ele>
        <time>2011-06-19T08:00:20Z</time>
      </trkpt>
      <trkpt lat="45.89191" lon="1.34002">
        <ele>329.86950683594</ele>
        <time>2011-06-19T08:00:25Z</time>
      </trkpt>
      <trkpt lat="45.89196" lon="1.34005">
        <ele>329.38891601562</ele>
        <time>2011-06-19T08:00:27Z</time>
      </trkpt>
      <trkpt lat="45.89206" lon="1.34011">
        <ele>327.46618652344</ele>
        <time>2011-06-19T08:00:33Z</time>
      </trkpt>
      <trkpt lat="45.89217" lon="1.34014">
        <ele>330.35021972656</ele>
        <time>2011-06-19T08:00:39Z</time>
      </trkpt>
      <trkpt lat="45.89231" lon="1.34022">
        <ele>331.3115234375</ele>
        <time>2011-06-19T08:00:46Z</time>
      </trkpt>
      <trkpt lat="45.8924" lon="1.34029">
        <ele>332.27282714844</ele>
        <time>2011-06-19T08:00:51Z</time>
      </trkpt>
      <trkpt lat="45.89259" lon="1.34041">
        <ele>334.19543457031</ele>
        <time>2011-06-19T08:01:02Z</time>
      </trkpt>
      <trkpt lat="45.89274" lon="1.34048">
        <ele>336.1181640625</ele>
        <time>2011-06-19T08:01:10Z</time>
      </trkpt>
      <trkpt lat="45.89294" lon="1.34045">
        <ele>338.04077148438</ele>
        <time>2011-06-19T08:01:19Z</time>
      </trkpt>
      <trkpt lat="45.89309" lon="1.34041">
        <ele>339.00207519531</ele>
        <time>2011-06-19T08:01:26Z</time>
      </trkpt>
      <trkpt lat="45.89326" lon="1.34045">
        <ele>339.00207519531</ele>
        <time>2011-06-19T08:01:32Z</time>
      </trkpt>
      <trkpt lat="45.89344" lon="1.34053">
        <ele>339.00207519531</ele>
        <time>2011-06-19T08:01:38Z</time>
      </trkpt>
      <trkpt lat="45.89362" lon="1.34053">
        <ele>339.00207519531</ele>
        <time>2011-06-19T08:01:43Z</time>
      </trkpt>
      <trkpt lat="45.8939" lon="1.34041">
        <ele>339.48266601562</ele>
        <time>2011-06-19T08:01:51Z</time>
      </trkpt>
      <trkpt lat="45.89422" lon="1.34028">
        <ele>340.92468261719</ele>
        <time>2011-06-19T08:02:02Z</time>
      </trkpt>
      <trkpt lat="45.89449" lon="1.34016">
        <ele>341.4052734375</ele>
        <time>2011-06-19T08:02:10Z</time>
      </trkpt>
      <trkpt lat="45.89484" lon="1.34002">
        <ele>341.88598632812</ele>
        <time>2011-06-19T08:02:20Z</time>
      </trkpt>
      <trkpt lat="45.8952" lon="1.33989">
        <ele>341.4052734375</ele>
        <time>2011-06-19T08:02:30Z</time>
      </trkpt>
      <trkpt lat="45.89556" lon="1.33976">
        <ele>340.44409179688</ele>
        <time>2011-06-19T08:02:38Z</time>
      </trkpt>
      <trkpt lat="45.8959" lon="1.33967">
        <ele>339.48266601562</ele>
        <time>2011-06-19T08:02:45Z</time>
      </trkpt>
      <trkpt lat="45.89611" lon="1.33957">
        <ele>339.00207519531</ele>
        <time>2011-06-19T08:02:50Z</time>
      </trkpt>
      <trkpt lat="45.89623" lon="1.33967">
        <ele>339.00207519531</ele>
        <time>2011-06-19T08:02:54Z</time>
      </trkpt>
      <trkpt lat="45.8964" lon="1.33986">
        <ele>338.521484375</ele>
        <time>2011-06-19T08:03:00Z</time>
      </trkpt>
      <trkpt lat="45.89661" lon="1.34007">
        <ele>338.521484375</ele>
        <time>2011-06-19T08:03:07Z</time>
      </trkpt>
      <trkpt lat="45.89675" lon="1.34016">
        <ele>339.48266601562</ele>
        <time>2011-06-19T08:03:11Z</time>
      </trkpt>
      <trkpt lat="45.89693" lon="1.34032">
        <ele>339.48266601562</ele>
        <time>2011-06-19T08:03:16Z</time>
      </trkpt>
      <trkpt lat="45.89729" lon="1.3406">
        <ele>339.48266601562</ele>
        <time>2011-06-19T08:03:25Z</time>
      </trkpt>
      <trkpt lat="45.89744" lon="1.34074">
        <ele>339.96337890625</ele>
        <time>2011-06-19T08:03:29Z</time>
      </trkpt>
      <trkpt lat="45.89766" lon="1.34092">
        <ele>339.96337890625</ele>
        <time>2011-06-19T08:03:35Z</time>
      </trkpt>
      <trkpt lat="45.8978" lon="1.34108">
        <ele>340.44409179688</ele>
        <time>2011-06-19T08:03:39Z</time>
      </trkpt>
      <trkpt lat="45.89811" lon="1.34139">
        <ele>341.88598632812</ele>
        <time>2011-06-19T08:03:48Z</time>
      </trkpt>
      <trkpt lat="45.89844" lon="1.34178">
        <ele>343.80859375</ele>
        <time>2011-06-19T08:03:58Z</time>
      </trkpt>
      <trkpt lat="45.89872" lon="1.34214">
        <ele>343.32788085938</ele>
        <time>2011-06-19T08:04:06Z</time>
      </trkpt>
      <trkpt lat="45.899" lon="1.34253">
        <ele>341.88598632812</ele>
        <time>2011-06-19T08:04:13Z</time>
      </trkpt>
      <trkpt lat="45.89936" lon="1.34302">
        <ele>340.92468261719</ele>
        <time>2011-06-19T08:04:22Z</time>
      </trkpt>
      <trkpt lat="45.89963" lon="1.34333">
        <ele>341.88598632812</ele>
        <time>2011-06-19T08:04:29Z</time>
      </trkpt>
      <trkpt lat="45.89973" lon="1.34341">
        <ele>341.88598632812</ele>
        <time>2011-06-19T08:04:32Z</time>
      </trkpt>
      <trkpt lat="45.89989" lon="1.34351">
        <ele>341.4052734375</ele>
        <time>2011-06-19T08:04:36Z</time>
      </trkpt>
      <trkpt lat="45.90026" lon="1.34374">
        <ele>340.92468261719</ele>
        <time>2011-06-19T08:04:45Z</time>
      </trkpt>
      <trkpt lat="45.90054" lon="1.34398">
        <ele>341.4052734375</ele>
        <time>2011-06-19T08:04:52Z</time>
      </trkpt>
      <trkpt lat="45.9008" lon="1.34433">
        <ele>341.4052734375</ele>
        <time>2011-06-19T08:05:00Z</time>
      </trkpt>
      <trkpt lat="45.90105" lon="1.34466">
        <ele>340.92468261719</ele>
        <time>2011-06-19T08:05:07Z</time>
      </trkpt>
      <trkpt lat="45.90139" lon="1.3451">
        <ele>339.96337890625</ele>
        <time>2011-06-19T08:05:15Z</time>
      </trkpt>
      <trkpt lat="45.90166" lon="1.34548">
        <ele>340.44409179688</ele>
        <time>2011-06-19T08:05:22Z</time>
      </trkpt>
      <trkpt lat="45.90176" lon="1.34561">
        <ele>341.4052734375</ele>
        <time>2011-06-19T08:05:25Z</time>
      </trkpt>
      <trkpt lat="45.90194" lon="1.34591">
        <ele>341.88598632812</ele>
        <time>2011-06-19T08:05:31Z</time>
      </trkpt>
      <trkpt lat="45.90212" lon="1.34626">
        <ele>342.36669921875</ele>
        <time>2011-06-19T08:05:38Z</time>
      </trkpt>
      <trkpt lat="45.90228" lon="1.34653">
        <ele>341.88598632812</ele>
        <time>2011-06-19T08:05:44Z</time>
      </trkpt>
      <trkpt lat="45.90247" lon="1.34686">
        <ele>341.4052734375</ele>
        <time>2011-06-19T08:05:51Z</time>
      </trkpt>
      <trkpt lat="45.90269" lon="1.34729">
        <ele>341.88598632812</ele>
        <time>2011-06-19T08:06:00Z</time>
      </trkpt>
      <trkpt lat="45.90277" lon="1.34741">
        <ele>341.88598632812</ele>
        <time>2011-06-19T08:06:03Z</time>
      </trkpt>
      <trkpt lat="45.90295" lon="1.34774">
        <ele>343.32788085938</ele>
        <time>2011-06-19T08:06:10Z</time>
      </trkpt>
      <trkpt lat="45.90312" lon="1.348">
        <ele>344.28942871094</ele>
        <time>2011-06-19T08:06:16Z</time>
      </trkpt>
      <trkpt lat="45.90327" lon="1.3482">
        <ele>346.69262695312</ele>
        <time>2011-06-19T08:06:22Z</time>
      </trkpt>
      <trkpt lat="45.90345" lon="1.34839">
        <ele>350.53784179688</ele>
        <time>2011-06-19T08:06:28Z</time>
      </trkpt>
      <trkpt lat="45.90372" lon="1.34865">
        <ele>347.65393066406</ele>
        <time>2011-06-19T08:06:35Z</time>
      </trkpt>
      <trkpt lat="45.9039" lon="1.34883">
        <ele>345.73132324219</ele>
        <time>2011-06-19T08:06:41Z</time>
      </trkpt>
      <trkpt lat="45.90414" lon="1.34903">
        <ele>344.77001953125</ele>
        <time>2011-06-19T08:06:47Z</time>
      </trkpt>
      <trkpt lat="45.90426" lon="1.34914">
        <ele>345.25061035156</ele>
        <time>2011-06-19T08:06:50Z</time>
      </trkpt>
      <trkpt lat="45.90449" lon="1.3493">
        <ele>346.21203613281</ele>
        <time>2011-06-19T08:06:56Z</time>
      </trkpt>
      <trkpt lat="45.90466" lon="1.34945">
        <ele>345.73132324219</ele>
        <time>2011-06-19T08:07:00Z</time>
      </trkpt>
      <trkpt lat="45.90501" lon="1.34972">
        <ele>347.17321777344</ele>
        <time>2011-06-19T08:07:08Z</time>
      </trkpt>
      <trkpt lat="45.90535" lon="1.34996">
        <ele>345.73132324219</ele>
        <time>2011-06-19T08:07:15Z</time>
      </trkpt>
      <trkpt lat="45.90555" lon="1.35005">
        <ele>346.21203613281</ele>
        <time>2011-06-19T08:07:19Z</time>
      </trkpt>
      <trkpt lat="45.90594" lon="1.35036">
        <ele>347.17321777344</ele>
        <time>2011-06-19T08:07:26Z</time>
      </trkpt>
      <trkpt lat="45.90631" lon="1.35064">
        <ele>345.25061035156</ele>
        <time>2011-06-19T08:07:32Z</time>
      </trkpt>
      <trkpt lat="45.90667" lon="1.35084">
        <ele>345.73132324219</ele>
        <time>2011-06-19T08:07:38Z</time>
      </trkpt>
      <trkpt lat="45.90689" lon="1.35096">
        <ele>346.69262695312</ele>
        <time>2011-06-19T08:07:42Z</time>
      </trkpt>
      <trkpt lat="45.90715" lon="1.35117">
        <ele>345.25061035156</ele>
        <time>2011-06-19T08:07:47Z</time>
      </trkpt>
      <trkpt lat="45.90739" lon="1.35135">
        <ele>348.13464355469</ele>
        <time>2011-06-19T08:07:52Z</time>
      </trkpt>
      <trkpt lat="45.90755" lon="1.35147">
        <ele>347.17321777344</ele>
        <time>2011-06-19T08:07:55Z</time>
      </trkpt>
      <trkpt lat="45.90783" lon="1.35175">
        <ele>351.01843261719</ele>
        <time>2011-06-19T08:08:01Z</time>
      </trkpt>
      <trkpt lat="45.90802" lon="1.35182">
        <ele>351.01843261719</ele>
        <time>2011-06-19T08:08:05Z</time>
      </trkpt>
      <trkpt lat="45.90814" lon="1.35173">
        <ele>354.38317871094</ele>
        <time>2011-06-19T08:08:09Z</time>
      </trkpt>
      <trkpt lat="45.90816" lon="1.3517">
        <ele>353.421875</ele>
        <time>2011-06-19T08:08:10Z</time>
      </trkpt>
      <trkpt lat="45.90832" lon="1.35153">
        <ele>353.90258789062</ele>
        <time>2011-06-19T08:08:17Z</time>
      </trkpt>
      <trkpt lat="45.90843" lon="1.3513">
        <ele>352.46057128906</ele>
        <time>2011-06-19T08:08:22Z</time>
      </trkpt>
      <trkpt lat="45.90859" lon="1.35087">
        <ele>347.17321777344</ele>
        <time>2011-06-19T08:08:28Z</time>
      </trkpt>
      <trkpt lat="45.90877" lon="1.35033">
        <ele>345.25061035156</ele>
        <time>2011-06-19T08:08:34Z</time>
      </trkpt>
      <trkpt lat="45.90904" lon="1.34949">
        <ele>341.88598632812</ele>
        <time>2011-06-19T08:08:43Z</time>
      </trkpt>
      <trkpt lat="45.90922" lon="1.34895">
        <ele>339.48266601562</ele>
        <time>2011-06-19T08:08:49Z</time>
      </trkpt>
      <trkpt lat="45.90927" lon="1.34877">
        <ele>338.04077148438</ele>
        <time>2011-06-19T08:08:51Z</time>
      </trkpt>
      <trkpt lat="45.90947" lon="1.34822">
        <ele>335.15673828125</ele>
        <time>2011-06-19T08:08:57Z</time>
      </trkpt>
      <trkpt lat="45.90956" lon="1.34794">
        <ele>332.75354003906</ele>
        <time>2011-06-19T08:09:00Z</time>
      </trkpt>
      <trkpt lat="45.90968" lon="1.34756">
        <ele>330.83093261719</ele>
        <time>2011-06-19T08:09:04Z</time>
      </trkpt>
      <trkpt lat="45.90979" lon="1.34729">
        <ele>331.3115234375</ele>
        <time>2011-06-19T08:09:07Z</time>
      </trkpt>
      <trkpt lat="45.90997" lon="1.34671">
        <ele>330.83093261719</ele>
        <time>2011-06-19T08:09:13Z</time>
      </trkpt>
      <trkpt lat="45.91012" lon="1.3462">
        <ele>327.94677734375</ele>
        <time>2011-06-19T08:09:18Z</time>
      </trkpt>
      <trkpt lat="45.91031" lon="1.34579">
        <ele>323.14038085938</ele>
        <time>2011-06-19T08:09:23Z</time>
      </trkpt>
      <trkpt lat="45.91045" lon="1.34551">
        <ele>321.69836425781</ele>
        <time>2011-06-19T08:09:27Z</time>
      </trkpt>
      <trkpt lat="45.91058" lon="1.34525">
        <ele>321.69836425781</ele>
        <time>2011-06-19T08:09:32Z</time>
      </trkpt>
      <trkpt lat="45.91054" lon="1.34507">
        <ele>321.2177734375</ele>
        <time>2011-06-19T08:09:35Z</time>
      </trkpt>
      <trkpt lat="45.91048" lon="1.34495">
        <ele>324.58227539062</ele>
        <time>2011-06-19T08:09:37Z</time>
      </trkpt>
      <trkpt lat="45.91027" lon="1.34462">
        <ele>325.06298828125</ele>
        <time>2011-06-19T08:09:43Z</time>
      </trkpt>
      <trkpt lat="45.9101" lon="1.34428">
        <ele>324.1015625</ele>
        <time>2011-06-19T08:09:49Z</time>
      </trkpt>
      <trkpt lat="45.91003" lon="1.34416">
        <ele>323.62097167969</ele>
        <time>2011-06-19T08:09:51Z</time>
      </trkpt>
      <trkpt lat="45.90988" lon="1.34388">
        <ele>324.58227539062</ele>
        <time>2011-06-19T08:09:56Z</time>
      </trkpt>
      <trkpt lat="45.90974" lon="1.34364">
        <ele>326.5048828125</ele>
        <time>2011-06-19T08:10:00Z</time>
      </trkpt>
      <trkpt lat="45.90951" lon="1.3432">
        <ele>332.75354003906</ele>
        <time>2011-06-19T08:10:07Z</time>
      </trkpt>
      <trkpt lat="45.90943" lon="1.34303">
        <ele>333.23413085938</ele>
        <time>2011-06-19T08:10:10Z</time>
      </trkpt>
      <trkpt lat="45.90925" lon="1.34277">
        <ele>331.79211425781</ele>
        <time>2011-06-19T08:10:16Z</time>
      </trkpt>
      <trkpt lat="45.90918" lon="1.34255">
        <ele>334.19543457031</ele>
        <time>2011-06-19T08:10:20Z</time>
      </trkpt>
      <trkpt lat="45.90917" lon="1.34249">
        <ele>334.19543457031</ele>
        <time>2011-06-19T08:10:21Z</time>
      </trkpt>
      <trkpt lat="45.90914" lon="1.3421">
        <ele>335.63732910156</ele>
        <time>2011-06-19T08:10:27Z</time>
      </trkpt>
      <trkpt lat="45.90913" lon="1.34197">
        <ele>336.1181640625</ele>
        <time>2011-06-19T08:10:29Z</time>
      </trkpt>
      <trkpt lat="45.90907" lon="1.3415">
        <ele>336.1181640625</ele>
        <time>2011-06-19T08:10:36Z</time>
      </trkpt>
      <trkpt lat="45.90903" lon="1.34124">
        <ele>336.59887695312</ele>
        <time>2011-06-19T08:10:40Z</time>
      </trkpt>
      <trkpt lat="45.90899" lon="1.34092">
        <ele>340.44409179688</ele>
        <time>2011-06-19T08:10:45Z</time>
      </trkpt>
      <trkpt lat="45.90896" lon="1.34066">
        <ele>339.48266601562</ele>
        <time>2011-06-19T08:10:50Z</time>
      </trkpt>
      <trkpt lat="45.90892" lon="1.34031">
        <ele>339.48266601562</ele>
        <time>2011-06-19T08:10:56Z</time>
      </trkpt>
      <trkpt lat="45.90891" lon="1.34005">
        <ele>334.19543457031</ele>
        <time>2011-06-19T08:11:01Z</time>
      </trkpt>
      <trkpt lat="45.90889" lon="1.33978">
        <ele>333.71472167969</ele>
        <time>2011-06-19T08:11:06Z</time>
      </trkpt>
      <trkpt lat="45.90886" lon="1.33943">
        <ele>331.3115234375</ele>
        <time>2011-06-19T08:11:12Z</time>
      </trkpt>
      <trkpt lat="45.90879" lon="1.33907">
        <ele>333.71472167969</ele>
        <time>2011-06-19T08:11:18Z</time>
      </trkpt>
      <trkpt lat="45.90878" lon="1.33881">
        <ele>333.71472167969</ele>
        <time>2011-06-19T08:11:22Z</time>
      </trkpt>
      <trkpt lat="45.90872" lon="1.33837">
        <ele>329.38891601562</ele>
        <time>2011-06-19T08:11:28Z</time>
      </trkpt>
      <trkpt lat="45.90866" lon="1.33783">
        <ele>324.58227539062</ele>
        <time>2011-06-19T08:11:35Z</time>
      </trkpt>
      <trkpt lat="45.9086" lon="1.33725">
        <ele>323.62097167969</ele>
        <time>2011-06-19T08:11:42Z</time>
      </trkpt>
      <trkpt lat="45.90853" lon="1.33666">
        <ele>324.1015625</ele>
        <time>2011-06-19T08:11:49Z</time>
      </trkpt>
      <trkpt lat="45.90844" lon="1.33614">
        <ele>327.94677734375</ele>
        <time>2011-06-19T08:11:55Z</time>
      </trkpt>
      <trkpt lat="45.90845" lon="1.3356">
        <ele>326.98559570312</ele>
        <time>2011-06-19T08:12:02Z</time>
      </trkpt>
      <trkpt lat="45.90842" lon="1.33532">
        <ele>326.02416992188</ele>
        <time>2011-06-19T08:12:06Z</time>
      </trkpt>
      <trkpt lat="45.90852" lon="1.33512">
        <ele>326.98559570312</ele>
        <time>2011-06-19T08:12:10Z</time>
      </trkpt>
      <trkpt lat="45.90863" lon="1.33511">
        <ele>326.98559570312</ele>
        <time>2011-06-19T08:12:12Z</time>
      </trkpt>
      <trkpt lat="45.90911" lon="1.33508">
        <ele>326.02416992188</ele>
        <time>2011-06-19T08:12:20Z</time>
      </trkpt>
      <trkpt lat="45.90952" lon="1.33504">
        <ele>326.02416992188</ele>
        <time>2011-06-19T08:12:27Z</time>
      </trkpt>
      <trkpt lat="45.90985" lon="1.33501">
        <ele>326.02416992188</ele>
        <time>2011-06-19T08:12:34Z</time>
      </trkpt>
      <trkpt lat="45.91019" lon="1.33499">
        <ele>327.94677734375</ele>
        <time>2011-06-19T08:12:42Z</time>
      </trkpt>
      <trkpt lat="45.91048" lon="1.33497">
        <ele>330.35021972656</ele>
        <time>2011-06-19T08:12:49Z</time>
      </trkpt>
      <trkpt lat="45.91071" lon="1.33486">
        <ele>330.35021972656</ele>
        <time>2011-06-19T08:12:55Z</time>
      </trkpt>
      <trkpt lat="45.91101" lon="1.33473">
        <ele>330.35021972656</ele>
        <time>2011-06-19T08:13:03Z</time>
      </trkpt>
      <trkpt lat="45.91135" lon="1.33477">
        <ele>331.3115234375</ele>
        <time>2011-06-19T08:13:12Z</time>
      </trkpt>
      <trkpt lat="45.91164" lon="1.33479">
        <ele>331.79211425781</ele>
        <time>2011-06-19T08:13:20Z</time>
      </trkpt>
      <trkpt lat="45.91195" lon="1.33477">
        <ele>333.71472167969</ele>
        <time>2011-06-19T08:13:28Z</time>
      </trkpt>
      <trkpt lat="45.9123" lon="1.33472">
        <ele>333.71472167969</ele>
        <time>2011-06-19T08:13:36Z</time>
      </trkpt>
      <trkpt lat="45.91262" lon="1.33455">
        <ele>334.67614746094</ele>
        <time>2011-06-19T08:13:44Z</time>
      </trkpt>
      <trkpt lat="45.91273" lon="1.33466">
        <ele>335.15673828125</ele>
        <time>2011-06-19T08:13:48Z</time>
      </trkpt>
      <trkpt lat="45.91293" lon="1.33526">
        <ele>333.71472167969</ele>
        <time>2011-06-19T08:13:58Z</time>
      </trkpt>
      <trkpt lat="45.91318" lon="1.33578">
        <ele>335.15673828125</ele>
        <time>2011-06-19T08:14:08Z</time>
      </trkpt>
      <trkpt lat="45.91342" lon="1.33633">
        <ele>336.1181640625</ele>
        <time>2011-06-19T08:14:18Z</time>
      </trkpt>
      <trkpt lat="45.91363" lon="1.33678">
        <ele>336.59887695312</ele>
        <time>2011-06-19T08:14:27Z</time>
      </trkpt>
      <trkpt lat="45.91387" lon="1.33729">
        <ele>337.56005859375</ele>
        <time>2011-06-19T08:14:37Z</time>
      </trkpt>
      <trkpt lat="45.91413" lon="1.33781">
        <ele>338.521484375</ele>
        <time>2011-06-19T08:14:47Z</time>
      </trkpt>
      <trkpt lat="45.91442" lon="1.33831">
        <ele>339.00207519531</ele>
        <time>2011-06-19T08:14:57Z</time>
      </trkpt>
      <trkpt lat="45.91468" lon="1.33871">
        <ele>339.96337890625</ele>
        <time>2011-06-19T08:15:06Z</time>
      </trkpt>
      <trkpt lat="45.91498" lon="1.33914">
        <ele>341.4052734375</ele>
        <time>2011-06-19T08:15:16Z</time>
      </trkpt>
      <trkpt lat="45.9152" lon="1.33942">
        <ele>344.28942871094</ele>
        <time>2011-06-19T08:15:23Z</time>
      </trkpt>
      <trkpt lat="45.91555" lon="1.33981">
        <ele>347.17321777344</ele>
        <time>2011-06-19T08:15:34Z</time>
      </trkpt>
      <trkpt lat="45.91579" lon="1.3401">
        <ele>348.615234375</ele>
        <time>2011-06-19T08:15:42Z</time>
      </trkpt>
      <trkpt lat="45.91606" lon="1.34042">
        <ele>349.57653808594</ele>
        <time>2011-06-19T08:15:51Z</time>
      </trkpt>
      <trkpt lat="45.91618" lon="1.34057">
        <ele>348.615234375</ele>
        <time>2011-06-19T08:15:57Z</time>
      </trkpt>
      <trkpt lat="45.91621" lon="1.3406">
        <ele>348.13464355469</ele>
        <time>2011-06-19T08:15:59Z</time>
      </trkpt>
      <trkpt lat="45.91623" lon="1.34062">
        <ele>348.13464355469</ele>
        <time>2011-06-19T08:16:02Z</time>
      </trkpt>
      <trkpt lat="45.91623" lon="1.34062">
        <ele>348.615234375</ele>
        <time>2011-06-19T08:16:10Z</time>
      </trkpt>
      <trkpt lat="45.91624" lon="1.34064">
        <ele>349.09582519531</ele>
        <time>2011-06-19T08:16:11Z</time>
      </trkpt>
      <trkpt lat="45.91639" lon="1.34075">
        <ele>349.57653808594</ele>
        <time>2011-06-19T08:16:16Z</time>
      </trkpt>
      <trkpt lat="45.9166" lon="1.34099">
        <ele>349.57653808594</ele>
        <time>2011-06-19T08:16:22Z</time>
      </trkpt>
      <trkpt lat="45.91676" lon="1.34113">
        <ele>349.57653808594</ele>
        <time>2011-06-19T08:16:26Z</time>
      </trkpt>
      <trkpt lat="45.91688" lon="1.34125">
        <ele>349.57653808594</ele>
        <time>2011-06-19T08:16:29Z</time>
      </trkpt>
      <trkpt lat="45.91737" lon="1.34158">
        <ele>349.57653808594</ele>
        <time>2011-06-19T08:16:40Z</time>
      </trkpt>
      <trkpt lat="45.91773" lon="1.34182">
        <ele>349.09582519531</ele>
        <time>2011-06-19T08:16:48Z</time>
      </trkpt>
      <trkpt lat="45.91805" lon="1.34203">
        <ele>349.09582519531</ele>
        <time>2011-06-19T08:16:55Z</time>
      </trkpt>
      <trkpt lat="45.91842" lon="1.34222">
        <ele>349.09582519531</ele>
        <time>2011-06-19T08:17:03Z</time>
      </trkpt>
      <trkpt lat="45.91875" lon="1.34236">
        <ele>349.09582519531</ele>
        <time>2011-06-19T08:17:11Z</time>
      </trkpt>
      <trkpt lat="45.91909" lon="1.34251">
        <ele>349.09582519531</ele>
        <time>2011-06-19T08:17:19Z</time>
      </trkpt>
      <trkpt lat="45.91946" lon="1.34267">
        <ele>349.09582519531</ele>
        <time>2011-06-19T08:17:28Z</time>
      </trkpt>
      <trkpt lat="45.91958" lon="1.3427">
        <ele>349.09582519531</ele>
        <time>2011-06-19T08:17:33Z</time>
      </trkpt>
      <trkpt lat="45.91965" lon="1.3427">
        <ele>349.57653808594</ele>
        <time>2011-06-19T08:17:39Z</time>
      </trkpt>
      <trkpt lat="45.91965" lon="1.34269">
        <ele>350.05725097656</ele>
        <time>2011-06-19T08:17:41Z</time>
      </trkpt>
      <trkpt lat="45.91966" lon="1.3427">
        <ele>349.09582519531</ele>
        <time>2011-06-19T08:19:48Z</time>
      </trkpt>
      <trkpt lat="45.91965" lon="1.34273">
        <ele>349.57653808594</ele>
        <time>2011-06-19T08:19:51Z</time>
      </trkpt>
      <trkpt lat="45.91966" lon="1.34273">
        <ele>349.57653808594</ele>
        <time>2011-06-19T08:19:54Z</time>
      </trkpt>
      <trkpt lat="45.91974" lon="1.34275">
        <ele>350.05725097656</ele>
        <time>2011-06-19T08:19:58Z</time>
      </trkpt>
      <trkpt lat="45.91992" lon="1.3428">
        <ele>351.49914550781</ele>
        <time>2011-06-19T08:20:04Z</time>
      </trkpt>
      <trkpt lat="45.92016" lon="1.3428">
        <ele>352.46057128906</ele>
        <time>2011-06-19T08:20:10Z</time>
      </trkpt>
      <trkpt lat="45.92055" lon="1.34278">
        <ele>353.421875</ele>
        <time>2011-06-19T08:20:19Z</time>
      </trkpt>
      <trkpt lat="45.92078" lon="1.34277">
        <ele>353.421875</ele>
        <time>2011-06-19T08:20:25Z</time>
      </trkpt>
      <trkpt lat="45.92091" lon="1.34283">
        <ele>354.38317871094</ele>
        <time>2011-06-19T08:20:29Z</time>
      </trkpt>
      <trkpt lat="45.92107" lon="1.34298">
        <ele>355.8251953125</ele>
        <time>2011-06-19T08:20:35Z</time>
      </trkpt>
      <trkpt lat="45.92123" lon="1.34318">
        <ele>354.86376953125</ele>
        <time>2011-06-19T08:20:40Z</time>
      </trkpt>
      <trkpt lat="45.92142" lon="1.3435">
        <ele>354.38317871094</ele>
        <time>2011-06-19T08:20:46Z</time>
      </trkpt>
      <trkpt lat="45.92157" lon="1.34376">
        <ele>353.90258789062</ele>
        <time>2011-06-19T08:20:50Z</time>
      </trkpt>
      <trkpt lat="45.92178" lon="1.34397">
        <ele>352.94116210938</ele>
        <time>2011-06-19T08:20:54Z</time>
      </trkpt>
      <trkpt lat="45.92201" lon="1.34406">
        <ele>351.49914550781</ele>
        <time>2011-06-19T08:21:00Z</time>
      </trkpt>
      <trkpt lat="45.92226" lon="1.34417">
        <ele>350.53784179688</ele>
        <time>2011-06-19T08:21:06Z</time>
      </trkpt>
      <trkpt lat="45.92262" lon="1.34438">
        <ele>349.57653808594</ele>
        <time>2011-06-19T08:21:13Z</time>
      </trkpt>
      <trkpt lat="45.92273" lon="1.34447">
        <ele>350.05725097656</ele>
        <time>2011-06-19T08:21:15Z</time>
      </trkpt>
      <trkpt lat="45.92291" lon="1.34473">
        <ele>351.01843261719</ele>
        <time>2011-06-19T08:21:20Z</time>
      </trkpt>
      <trkpt lat="45.92308" lon="1.34514">
        <ele>351.01843261719</ele>
        <time>2011-06-19T08:21:26Z</time>
      </trkpt>
      <trkpt lat="45.9231" lon="1.34521">
        <ele>350.53784179688</ele>
        <time>2011-06-19T08:21:27Z</time>
      </trkpt>
      <trkpt lat="45.92327" lon="1.34547">
        <ele>344.77001953125</ele>
        <time>2011-06-19T08:21:31Z</time>
      </trkpt>
      <trkpt lat="45.92353" lon="1.3458">
        <ele>340.44409179688</ele>
        <time>2011-06-19T08:21:38Z</time>
      </trkpt>
      <trkpt lat="45.92369" lon="1.34602">
        <ele>346.21203613281</ele>
        <time>2011-06-19T08:21:44Z</time>
      </trkpt>
      <trkpt lat="45.92384" lon="1.34618">
        <ele>347.65393066406</ele>
        <time>2011-06-19T08:21:49Z</time>
      </trkpt>
      <trkpt lat="45.92401" lon="1.34631">
        <ele>351.97985839844</ele>
        <time>2011-06-19T08:21:54Z</time>
      </trkpt>
      <trkpt lat="45.92431" lon="1.34648">
        <ele>355.8251953125</ele>
        <time>2011-06-19T08:22:01Z</time>
      </trkpt>
      <trkpt lat="45.92447" lon="1.34652">
        <ele>353.421875</ele>
        <time>2011-06-19T08:22:05Z</time>
      </trkpt>
      <trkpt lat="45.9245" lon="1.34636">
        <ele>353.421875</ele>
        <time>2011-06-19T08:22:09Z</time>
      </trkpt>
      <trkpt lat="45.92458" lon="1.34607">
        <ele>350.53784179688</ele>
        <time>2011-06-19T08:22:16Z</time>
      </trkpt>
      <trkpt lat="45.92461" lon="1.34589">
        <ele>345.73132324219</ele>
        <time>2011-06-19T08:22:21Z</time>
      </trkpt>
      <trkpt lat="45.92465" lon="1.34569">
        <ele>344.77001953125</ele>
        <time>2011-06-19T08:22:26Z</time>
      </trkpt>
      <trkpt lat="45.92469" lon="1.34544">
        <ele>346.69262695312</ele>
        <time>2011-06-19T08:22:33Z</time>
      </trkpt>
      <trkpt lat="45.92472" lon="1.34532">
        <ele>349.57653808594</ele>
        <time>2011-06-19T08:22:37Z</time>
      </trkpt>
      <trkpt lat="45.92464" lon="1.3452">
        <ele>352.94116210938</ele>
        <time>2011-06-19T08:22:41Z</time>
      </trkpt>
      <trkpt lat="45.92448" lon="1.34504">
        <ele>356.78637695312</ele>
        <time>2011-06-19T08:22:47Z</time>
      </trkpt>
      <trkpt lat="45.92449" lon="1.34489">
        <ele>357.74780273438</ele>
        <time>2011-06-19T08:22:51Z</time>
      </trkpt>
      <trkpt lat="45.92459" lon="1.34481">
        <ele>356.30578613281</ele>
        <time>2011-06-19T08:22:55Z</time>
      </trkpt>
      <trkpt lat="45.92473" lon="1.34489">
        <ele>355.8251953125</ele>
        <time>2011-06-19T08:22:59Z</time>
      </trkpt>
      <trkpt lat="45.92494" lon="1.34497">
        <ele>354.86376953125</ele>
        <time>2011-06-19T08:23:05Z</time>
      </trkpt>
      <trkpt lat="45.92519" lon="1.34482">
        <ele>355.34448242188</ele>
        <time>2011-06-19T08:23:12Z</time>
      </trkpt>
      <trkpt lat="45.9254" lon="1.34459">
        <ele>356.78637695312</ele>
        <time>2011-06-19T08:23:20Z</time>
      </trkpt>
      <trkpt lat="45.92548" lon="1.34435">
        <ele>358.22839355469</ele>
        <time>2011-06-19T08:23:27Z</time>
      </trkpt>
      <trkpt lat="45.92558" lon="1.34409">
        <ele>359.67041015625</ele>
        <time>2011-06-19T08:23:35Z</time>
      </trkpt>
      <trkpt lat="45.92567" lon="1.34383">
        <ele>360.63171386719</ele>
        <time>2011-06-19T08:23:44Z</time>
      </trkpt>
      <trkpt lat="45.92569" lon="1.34365">
        <ele>361.59313964844</ele>
        <time>2011-06-19T08:23:50Z</time>
      </trkpt>
      <trkpt lat="45.92558" lon="1.3435">
        <ele>362.07373046875</ele>
        <time>2011-06-19T08:23:55Z</time>
      </trkpt>
      <trkpt lat="45.92554" lon="1.34335">
        <ele>361.59313964844</ele>
        <time>2011-06-19T08:23:59Z</time>
      </trkpt>
      <trkpt lat="45.92558" lon="1.34326">
        <ele>361.59313964844</ele>
        <time>2011-06-19T08:24:01Z</time>
      </trkpt>
      <trkpt lat="45.92579" lon="1.34281">
        <ele>360.63171386719</ele>
        <time>2011-06-19T08:24:10Z</time>
      </trkpt>
      <trkpt lat="45.92582" lon="1.34274">
        <ele>360.15112304688</ele>
        <time>2011-06-19T08:24:11Z</time>
      </trkpt>
      <trkpt lat="45.92589" lon="1.34256">
        <ele>359.67041015625</ele>
        <time>2011-06-19T08:24:14Z</time>
      </trkpt>
      <trkpt lat="45.92607" lon="1.34229">
        <ele>358.708984375</ele>
        <time>2011-06-19T08:24:19Z</time>
      </trkpt>
      <trkpt lat="45.92613" lon="1.34224">
        <ele>358.708984375</ele>
        <time>2011-06-19T08:24:20Z</time>
      </trkpt>
      <trkpt lat="45.92619" lon="1.34197">
        <ele>358.22839355469</ele>
        <time>2011-06-19T08:24:24Z</time>
      </trkpt>
      <trkpt lat="45.92617" lon="1.34189">
        <ele>358.22839355469</ele>
        <time>2011-06-19T08:24:25Z</time>
      </trkpt>
      <trkpt lat="45.92608" lon="1.34141">
        <ele>357.26708984375</ele>
        <time>2011-06-19T08:24:31Z</time>
      </trkpt>
      <trkpt lat="45.92602" lon="1.34077">
        <ele>355.8251953125</ele>
        <time>2011-06-19T08:24:38Z</time>
      </trkpt>
      <trkpt lat="45.92594" lon="1.34014">
        <ele>355.34448242188</ele>
        <time>2011-06-19T08:24:45Z</time>
      </trkpt>
      <trkpt lat="45.92591" lon="1.33994">
        <ele>354.38317871094</ele>
        <time>2011-06-19T08:24:49Z</time>
      </trkpt>
      <trkpt lat="45.92594" lon="1.33975">
        <ele>353.421875</ele>
        <time>2011-06-19T08:24:53Z</time>
      </trkpt>
      <trkpt lat="45.92596" lon="1.33971">
        <ele>352.94116210938</ele>
        <time>2011-06-19T08:24:54Z</time>
      </trkpt>
      <trkpt lat="45.92588" lon="1.33955">
        <ele>352.94116210938</ele>
        <time>2011-06-19T08:24:58Z</time>
      </trkpt>
      <trkpt lat="45.92584" lon="1.33954">
        <ele>352.94116210938</ele>
        <time>2011-06-19T08:24:59Z</time>
      </trkpt>
      <trkpt lat="45.92566" lon="1.33939">
        <ele>353.421875</ele>
        <time>2011-06-19T08:25:04Z</time>
      </trkpt>
      <trkpt lat="45.92565" lon="1.33924">
        <ele>352.94116210938</ele>
        <time>2011-06-19T08:25:06Z</time>
      </trkpt>
      <trkpt lat="45.92562" lon="1.3386">
        <ele>352.46057128906</ele>
        <time>2011-06-19T08:25:14Z</time>
      </trkpt>
      <trkpt lat="45.92559" lon="1.33825">
        <ele>353.421875</ele>
        <time>2011-06-19T08:25:19Z</time>
      </trkpt>
      <trkpt lat="45.92554" lon="1.33794">
        <ele>354.38317871094</ele>
        <time>2011-06-19T08:25:23Z</time>
      </trkpt>
      <trkpt lat="45.92543" lon="1.33737">
        <ele>356.30578613281</ele>
        <time>2011-06-19T08:25:30Z</time>
      </trkpt>
      <trkpt lat="45.92542" lon="1.33698">
        <ele>360.63171386719</ele>
        <time>2011-06-19T08:25:35Z</time>
      </trkpt>
      <trkpt lat="45.9254" lon="1.33691">
        <ele>361.11242675781</ele>
        <time>2011-06-19T08:25:36Z</time>
      </trkpt>
      <trkpt lat="45.92539" lon="1.33675">
        <ele>359.67041015625</ele>
        <time>2011-06-19T08:25:38Z</time>
      </trkpt>
      <trkpt lat="45.92537" lon="1.33607">
        <ele>353.90258789062</ele>
        <time>2011-06-19T08:25:46Z</time>
      </trkpt>
      <trkpt lat="45.92527" lon="1.33564">
        <ele>351.49914550781</ele>
        <time>2011-06-19T08:25:51Z</time>
      </trkpt>
      <trkpt lat="45.92527" lon="1.33556">
        <ele>350.53784179688</ele>
        <time>2011-06-19T08:25:52Z</time>
      </trkpt>
      <trkpt lat="45.9253" lon="1.33522">
        <ele>350.53784179688</ele>
        <time>2011-06-19T08:25:56Z</time>
      </trkpt>
      <trkpt lat="45.92526" lon="1.33485">
        <ele>351.97985839844</ele>
        <time>2011-06-19T08:25:59Z</time>
      </trkpt>
      <trkpt lat="45.92537" lon="1.33443">
        <ele>346.69262695312</ele>
        <time>2011-06-19T08:26:03Z</time>
      </trkpt>
      <trkpt lat="45.92538" lon="1.33434">
        <ele>346.21203613281</ele>
        <time>2011-06-19T08:26:04Z</time>
      </trkpt>
      <trkpt lat="45.92545" lon="1.33408">
        <ele>340.92468261719</ele>
        <time>2011-06-19T08:26:08Z</time>
      </trkpt>
      <trkpt lat="45.92555" lon="1.33359">
        <ele>334.67614746094</ele>
        <time>2011-06-19T08:26:14Z</time>
      </trkpt>
      <trkpt lat="45.92565" lon="1.33311">
        <ele>326.98559570312</ele>
        <time>2011-06-19T08:26:21Z</time>
      </trkpt>
      <trkpt lat="45.92584" lon="1.33279">
        <ele>322.65966796875</ele>
        <time>2011-06-19T08:26:25Z</time>
      </trkpt>
      <trkpt lat="45.92601" lon="1.33248">
        <ele>317.85302734375</ele>
        <time>2011-06-19T08:26:29Z</time>
      </trkpt>
      <trkpt lat="45.92613" lon="1.33225">
        <ele>315.44982910156</ele>
        <time>2011-06-19T08:26:33Z</time>
      </trkpt>
      <trkpt lat="45.92639" lon="1.33176">
        <ele>317.37243652344</ele>
        <time>2011-06-19T08:26:41Z</time>
      </trkpt>
      <trkpt lat="45.92646" lon="1.33164">
        <ele>317.85302734375</ele>
        <time>2011-06-19T08:26:43Z</time>
      </trkpt>
      <trkpt lat="45.92663" lon="1.3311">
        <ele>318.33361816406</ele>
        <time>2011-06-19T08:26:50Z</time>
      </trkpt>
      <trkpt lat="45.92666" lon="1.33095">
        <ele>318.81433105469</ele>
        <time>2011-06-19T08:26:52Z</time>
      </trkpt>
      <trkpt lat="45.92671" lon="1.33068">
        <ele>319.77563476562</ele>
        <time>2011-06-19T08:26:57Z</time>
      </trkpt>
      <trkpt lat="45.92676" lon="1.3305">
        <ele>321.69836425781</ele>
        <time>2011-06-19T08:27:03Z</time>
      </trkpt>
      <trkpt lat="45.92679" lon="1.33033">
        <ele>322.65966796875</ele>
        <time>2011-06-19T08:27:09Z</time>
      </trkpt>
      <trkpt lat="45.92679" lon="1.33015">
        <ele>325.54357910156</ele>
        <time>2011-06-19T08:27:16Z</time>
      </trkpt>
      <trkpt lat="45.92677" lon="1.32998">
        <ele>328.42761230469</ele>
        <time>2011-06-19T08:27:23Z</time>
      </trkpt>
      <trkpt lat="45.92673" lon="1.32973">
        <ele>329.38891601562</ele>
        <time>2011-06-19T08:27:30Z</time>
      </trkpt>
      <trkpt lat="45.9267" lon="1.3296">
        <ele>331.3115234375</ele>
        <time>2011-06-19T08:27:34Z</time>
      </trkpt>
      <trkpt lat="45.92658" lon="1.32956">
        <ele>334.19543457031</ele>
        <time>2011-06-19T08:27:40Z</time>
      </trkpt>
      <trkpt lat="45.92649" lon="1.32957">
        <ele>335.63732910156</ele>
        <time>2011-06-19T08:27:47Z</time>
      </trkpt>
      <trkpt lat="45.92636" lon="1.32957">
        <ele>337.07946777344</ele>
        <time>2011-06-19T08:27:55Z</time>
      </trkpt>
      <trkpt lat="45.92623" lon="1.32956">
        <ele>338.521484375</ele>
        <time>2011-06-19T08:28:04Z</time>
      </trkpt>
      <trkpt lat="45.92607" lon="1.32956">
        <ele>341.4052734375</ele>
        <time>2011-06-19T08:28:15Z</time>
      </trkpt>
      <trkpt lat="45.92595" lon="1.32961">
        <ele>343.32788085938</ele>
        <time>2011-06-19T08:28:24Z</time>
      </trkpt>
      <trkpt lat="45.92583" lon="1.32966">
        <ele>344.28942871094</ele>
        <time>2011-06-19T08:28:31Z</time>
      </trkpt>
      <trkpt lat="45.92569" lon="1.32972">
        <ele>344.77001953125</ele>
        <time>2011-06-19T08:28:37Z</time>
      </trkpt>
      <trkpt lat="45.92545" lon="1.3298">
        <ele>343.80859375</ele>
        <time>2011-06-19T08:28:43Z</time>
      </trkpt>
      <trkpt lat="45.92516" lon="1.3299">
        <ele>341.88598632812</ele>
        <time>2011-06-19T08:28:48Z</time>
      </trkpt>
      <trkpt lat="45.92471" lon="1.33004">
        <ele>339.48266601562</ele>
        <time>2011-06-19T08:28:54Z</time>
      </trkpt>
      <trkpt lat="45.92442" lon="1.33014">
        <ele>339.48266601562</ele>
        <time>2011-06-19T08:28:58Z</time>
      </trkpt>
      <trkpt lat="45.92411" lon="1.33007">
        <ele>338.04077148438</ele>
        <time>2011-06-19T08:29:02Z</time>
      </trkpt>
      <trkpt lat="45.92386" lon="1.32995">
        <ele>338.04077148438</ele>
        <time>2011-06-19T08:29:05Z</time>
      </trkpt>
      <trkpt lat="45.92366" lon="1.32997">
        <ele>339.00207519531</ele>
        <time>2011-06-19T08:29:08Z</time>
      </trkpt>
      <trkpt lat="45.92329" lon="1.32989">
        <ele>335.15673828125</ele>
        <time>2011-06-19T08:29:13Z</time>
      </trkpt>
      <trkpt lat="45.92313" lon="1.32995">
        <ele>338.04077148438</ele>
        <time>2011-06-19T08:29:16Z</time>
      </trkpt>
      <trkpt lat="45.92277" lon="1.3303">
        <ele>339.00207519531</ele>
        <time>2011-06-19T08:29:23Z</time>
      </trkpt>
      <trkpt lat="45.92267" lon="1.3304">
        <ele>337.56005859375</ele>
        <time>2011-06-19T08:29:25Z</time>
      </trkpt>
      <trkpt lat="45.92258" lon="1.33052">
        <ele>338.04077148438</ele>
        <time>2011-06-19T08:29:27Z</time>
      </trkpt>
      <trkpt lat="45.92242" lon="1.33087">
        <ele>338.04077148438</ele>
        <time>2011-06-19T08:29:33Z</time>
      </trkpt>
      <trkpt lat="45.92237" lon="1.33093">
        <ele>337.56005859375</ele>
        <time>2011-06-19T08:29:35Z</time>
      </trkpt>
      <trkpt lat="45.92221" lon="1.33081">
        <ele>337.56005859375</ele>
        <time>2011-06-19T08:29:40Z</time>
      </trkpt>
      <trkpt lat="45.92219" lon="1.33076">
        <ele>337.56005859375</ele>
        <time>2011-06-19T08:29:41Z</time>
      </trkpt>
      <trkpt lat="45.9221" lon="1.33043">
        <ele>339.96337890625</ele>
        <time>2011-06-19T08:29:49Z</time>
      </trkpt>
      <trkpt lat="45.92201" lon="1.33022">
        <ele>337.07946777344</ele>
        <time>2011-06-19T08:29:53Z</time>
      </trkpt>
      <trkpt lat="45.92187" lon="1.32996">
        <ele>333.71472167969</ele>
        <time>2011-06-19T08:29:57Z</time>
      </trkpt>
      <trkpt lat="45.92159" lon="1.32954">
        <ele>330.35021972656</ele>
        <time>2011-06-19T08:30:05Z</time>
      </trkpt>
      <trkpt lat="45.92151" lon="1.32945">
        <ele>329.86950683594</ele>
        <time>2011-06-19T08:30:09Z</time>
      </trkpt>
      <trkpt lat="45.92143" lon="1.32938">
        <ele>329.86950683594</ele>
        <time>2011-06-19T08:30:16Z</time>
      </trkpt>
      <trkpt lat="45.92136" lon="1.32934">
        <ele>333.23413085938</ele>
        <time>2011-06-19T08:30:22Z</time>
      </trkpt>
      <trkpt lat="45.92137" lon="1.32935">
        <ele>333.71472167969</ele>
        <time>2011-06-19T08:30:23Z</time>
      </trkpt>
      <trkpt lat="45.92136" lon="1.32935">
        <ele>334.19543457031</ele>
        <time>2011-06-19T08:30:26Z</time>
      </trkpt>
      <trkpt lat="45.92136" lon="1.32936">
        <ele>334.67614746094</ele>
        <time>2011-06-19T08:30:28Z</time>
      </trkpt>
      <trkpt lat="45.92136" lon="1.32936">
        <ele>334.67614746094</ele>
        <time>2011-06-19T08:30:33Z</time>
      </trkpt>
      <trkpt lat="45.92135" lon="1.32935">
        <ele>334.67614746094</ele>
        <time>2011-06-19T08:30:35Z</time>
      </trkpt>
      <trkpt lat="45.92133" lon="1.32932">
        <ele>335.15673828125</ele>
        <time>2011-06-19T08:30:46Z</time>
      </trkpt>
      <trkpt lat="45.92135" lon="1.32932">
        <ele>333.23413085938</ele>
        <time>2011-06-19T08:30:47Z</time>
      </trkpt>
      <trkpt lat="45.92136" lon="1.32931">
        <ele>330.35021972656</ele>
        <time>2011-06-19T08:30:52Z</time>
      </trkpt>
      <trkpt lat="45.92136" lon="1.3293">
        <ele>329.86950683594</ele>
        <time>2011-06-19T08:30:53Z</time>
      </trkpt>
      <trkpt lat="45.92134" lon="1.32929">
        <ele>330.83093261719</ele>
        <time>2011-06-19T08:30:57Z</time>
      </trkpt>
      <trkpt lat="45.92131" lon="1.32928">
        <ele>333.23413085938</ele>
        <time>2011-06-19T08:31:10Z</time>
      </trkpt>
      <trkpt lat="45.92131" lon="1.32927">
        <ele>335.15673828125</ele>
        <time>2011-06-19T08:31:14Z</time>
      </trkpt>
      <trkpt lat="45.9213" lon="1.32926">
        <ele>336.1181640625</ele>
        <time>2011-06-19T08:31:17Z</time>
      </trkpt>
      <trkpt lat="45.92122" lon="1.32917">
        <ele>338.521484375</ele>
        <time>2011-06-19T08:31:23Z</time>
      </trkpt>
      <trkpt lat="45.92111" lon="1.32905">
        <ele>339.96337890625</ele>
        <time>2011-06-19T08:31:30Z</time>
      </trkpt>
      <trkpt lat="45.92102" lon="1.32895">
        <ele>338.521484375</ele>
        <time>2011-06-19T08:31:36Z</time>
      </trkpt>
      <trkpt lat="45.92085" lon="1.32879">
        <ele>339.00207519531</ele>
        <time>2011-06-19T08:31:43Z</time>
      </trkpt>
      <trkpt lat="45.92069" lon="1.32873">
        <ele>340.92468261719</ele>
        <time>2011-06-19T08:31:47Z</time>
      </trkpt>
      <trkpt lat="45.92057" lon="1.32864">
        <ele>345.25061035156</ele>
        <time>2011-06-19T08:31:51Z</time>
      </trkpt>
      <trkpt lat="45.92037" lon="1.32846">
        <ele>346.69262695312</ele>
        <time>2011-06-19T08:31:55Z</time>
      </trkpt>
      <trkpt lat="45.92032" lon="1.32841">
        <ele>347.65393066406</ele>
        <time>2011-06-19T08:31:56Z</time>
      </trkpt>
      <trkpt lat="45.92003" lon="1.32811">
        <ele>349.09582519531</ele>
        <time>2011-06-19T08:32:02Z</time>
      </trkpt>
      <trkpt lat="45.91996" lon="1.32798">
        <ele>350.05725097656</ele>
        <time>2011-06-19T08:32:04Z</time>
      </trkpt>
      <trkpt lat="45.91988" lon="1.32784">
        <ele>346.21203613281</ele>
        <time>2011-06-19T08:32:06Z</time>
      </trkpt>
      <trkpt lat="45.91978" lon="1.32763">
        <ele>347.65393066406</ele>
        <time>2011-06-19T08:32:09Z</time>
      </trkpt>
      <trkpt lat="45.91972" lon="1.32745">
        <ele>341.88598632812</ele>
        <time>2011-06-19T08:32:11Z</time>
      </trkpt>
      <trkpt lat="45.91975" lon="1.32706">
        <ele>330.35021972656</ele>
        <time>2011-06-19T08:32:16Z</time>
      </trkpt>
      <trkpt lat="45.91982" lon="1.32681">
        <ele>321.2177734375</ele>
        <time>2011-06-19T08:32:21Z</time>
      </trkpt>
      <trkpt lat="45.91987" lon="1.32665">
        <ele>316.89172363281</ele>
        <time>2011-06-19T08:32:24Z</time>
      </trkpt>
      <trkpt lat="45.91998" lon="1.32658">
        <ele>314.0078125</ele>
        <time>2011-06-19T08:32:29Z</time>
      </trkpt>
      <trkpt lat="45.92012" lon="1.32655">
        <ele>311.12377929688</ele>
        <time>2011-06-19T08:32:35Z</time>
      </trkpt>
      <trkpt lat="45.92025" lon="1.32645">
        <ele>308.23986816406</ele>
        <time>2011-06-19T08:32:41Z</time>
      </trkpt>
      <trkpt lat="45.92043" lon="1.32631">
        <ele>306.31726074219</ele>
        <time>2011-06-19T08:32:48Z</time>
      </trkpt>
      <trkpt lat="45.92066" lon="1.32619">
        <ele>308.23986816406</ele>
        <time>2011-06-19T08:32:55Z</time>
      </trkpt>
      <trkpt lat="45.92086" lon="1.32616">
        <ele>312.08520507812</ele>
        <time>2011-06-19T08:33:00Z</time>
      </trkpt>
      <trkpt lat="45.92105" lon="1.32609">
        <ele>315.93041992188</ele>
        <time>2011-06-19T08:33:06Z</time>
      </trkpt>
      <trkpt lat="45.9212" lon="1.32603">
        <ele>318.81433105469</ele>
        <time>2011-06-19T08:33:13Z</time>
      </trkpt>
      <trkpt lat="45.92137" lon="1.32604">
        <ele>320.25634765625</ele>
        <time>2011-06-19T08:33:21Z</time>
      </trkpt>
      <trkpt lat="45.92152" lon="1.32609">
        <ele>322.65966796875</ele>
        <time>2011-06-19T08:33:29Z</time>
      </trkpt>
      <trkpt lat="45.92163" lon="1.32607">
        <ele>324.1015625</ele>
        <time>2011-06-19T08:33:35Z</time>
      </trkpt>
      <trkpt lat="45.92173" lon="1.32603">
        <ele>325.54357910156</ele>
        <time>2011-06-19T08:33:42Z</time>
      </trkpt>
      <trkpt lat="45.92186" lon="1.326">
        <ele>325.54357910156</ele>
        <time>2011-06-19T08:33:49Z</time>
      </trkpt>
      <trkpt lat="45.92201" lon="1.32597">
        <ele>327.94677734375</ele>
        <time>2011-06-19T08:33:57Z</time>
      </trkpt>
      <trkpt lat="45.92213" lon="1.32598">
        <ele>330.35021972656</ele>
        <time>2011-06-19T08:34:04Z</time>
      </trkpt>
      <trkpt lat="45.92223" lon="1.32605">
        <ele>329.86950683594</ele>
        <time>2011-06-19T08:34:10Z</time>
      </trkpt>
      <trkpt lat="45.92235" lon="1.3262">
        <ele>331.3115234375</ele>
        <time>2011-06-19T08:34:18Z</time>
      </trkpt>
      <trkpt lat="45.92242" lon="1.32631">
        <ele>332.75354003906</ele>
        <time>2011-06-19T08:34:24Z</time>
      </trkpt>
      <trkpt lat="45.92252" lon="1.32644">
        <ele>333.71472167969</ele>
        <time>2011-06-19T08:34:31Z</time>
      </trkpt>
      <trkpt lat="45.92258" lon="1.32646">
        <ele>333.71472167969</ele>
        <time>2011-06-19T08:34:34Z</time>
      </trkpt>
      <trkpt lat="45.92267" lon="1.32631">
        <ele>332.27282714844</ele>
        <time>2011-06-19T08:34:40Z</time>
      </trkpt>
      <trkpt lat="45.9227" lon="1.32608">
        <ele>330.35021972656</ele>
        <time>2011-06-19T08:34:44Z</time>
      </trkpt>
      <trkpt lat="45.9227" lon="1.32603">
        <ele>330.35021972656</ele>
        <time>2011-06-19T08:34:45Z</time>
      </trkpt>
      <trkpt lat="45.92279" lon="1.32561">
        <ele>328.90832519531</ele>
        <time>2011-06-19T08:34:54Z</time>
      </trkpt>
      <trkpt lat="45.92289" lon="1.32528">
        <ele>329.38891601562</ele>
        <time>2011-06-19T08:35:01Z</time>
      </trkpt>
      <trkpt lat="45.92298" lon="1.32516">
        <ele>329.86950683594</ele>
        <time>2011-06-19T08:35:07Z</time>
      </trkpt>
      <trkpt lat="45.9231" lon="1.32507">
        <ele>329.86950683594</ele>
        <time>2011-06-19T08:35:15Z</time>
      </trkpt>
      <trkpt lat="45.92321" lon="1.32508">
        <ele>331.3115234375</ele>
        <time>2011-06-19T08:35:20Z</time>
      </trkpt>
      <trkpt lat="45.92345" lon="1.32504">
        <ele>330.83093261719</ele>
        <time>2011-06-19T08:35:27Z</time>
      </trkpt>
      <trkpt lat="45.92349" lon="1.32483">
        <ele>331.79211425781</ele>
        <time>2011-06-19T08:35:32Z</time>
      </trkpt>
      <trkpt lat="45.9234" lon="1.3245">
        <ele>334.67614746094</ele>
        <time>2011-06-19T08:35:41Z</time>
      </trkpt>
      <trkpt lat="45.92333" lon="1.32419">
        <ele>336.59887695312</ele>
        <time>2011-06-19T08:35:49Z</time>
      </trkpt>
      <trkpt lat="45.9233" lon="1.32384">
        <ele>336.1181640625</ele>
        <time>2011-06-19T08:35:56Z</time>
      </trkpt>
      <trkpt lat="45.92332" lon="1.32362">
        <ele>336.1181640625</ele>
        <time>2011-06-19T08:36:01Z</time>
      </trkpt>
      <trkpt lat="45.9234" lon="1.32339">
        <ele>336.1181640625</ele>
        <time>2011-06-19T08:36:08Z</time>
      </trkpt>
      <trkpt lat="45.92354" lon="1.32314">
        <ele>336.59887695312</ele>
        <time>2011-06-19T08:36:15Z</time>
      </trkpt>
      <trkpt lat="45.92376" lon="1.32276">
        <ele>337.56005859375</ele>
        <time>2011-06-19T08:36:25Z</time>
      </trkpt>
      <trkpt lat="45.92395" lon="1.32246">
        <ele>338.521484375</ele>
        <time>2011-06-19T08:36:34Z</time>
      </trkpt>
      <trkpt lat="45.92412" lon="1.32232">
        <ele>337.56005859375</ele>
        <time>2011-06-19T08:36:40Z</time>
      </trkpt>
      <trkpt lat="45.92426" lon="1.32219">
        <ele>338.04077148438</ele>
        <time>2011-06-19T08:36:46Z</time>
      </trkpt>
      <trkpt lat="45.92423" lon="1.32204">
        <ele>339.96337890625</ele>
        <time>2011-06-19T08:36:52Z</time>
      </trkpt>
      <trkpt lat="45.92416" lon="1.32198">
        <ele>340.92468261719</ele>
        <time>2011-06-19T08:36:55Z</time>
      </trkpt>
      <trkpt lat="45.92397" lon="1.32184">
        <ele>341.88598632812</ele>
        <time>2011-06-19T08:37:02Z</time>
      </trkpt>
      <trkpt lat="45.92377" lon="1.32169">
        <ele>342.84729003906</ele>
        <time>2011-06-19T08:37:09Z</time>
      </trkpt>
      <trkpt lat="45.9236" lon="1.32151">
        <ele>343.80859375</ele>
        <time>2011-06-19T08:37:16Z</time>
      </trkpt>
      <trkpt lat="45.92345" lon="1.32129">
        <ele>346.69262695312</ele>
        <time>2011-06-19T08:37:24Z</time>
      </trkpt>
      <trkpt lat="45.92346" lon="1.32114">
        <ele>348.13464355469</ele>
        <time>2011-06-19T08:37:29Z</time>
      </trkpt>
      <trkpt lat="45.9235" lon="1.32101">
        <ele>350.53784179688</ele>
        <time>2011-06-19T08:37:35Z</time>
      </trkpt>
      <trkpt lat="45.92352" lon="1.32082">
        <ele>350.53784179688</ele>
        <time>2011-06-19T08:37:41Z</time>
      </trkpt>
      <trkpt lat="45.92355" lon="1.32065">
        <ele>350.53784179688</ele>
        <time>2011-06-19T08:37:47Z</time>
      </trkpt>
      <trkpt lat="45.92353" lon="1.32045">
        <ele>350.05725097656</ele>
        <time>2011-06-19T08:37:53Z</time>
      </trkpt>
      <trkpt lat="45.92353" lon="1.32016">
        <ele>350.53784179688</ele>
        <time>2011-06-19T08:38:00Z</time>
      </trkpt>
      <trkpt lat="45.92348" lon="1.3198">
        <ele>352.94116210938</ele>
        <time>2011-06-19T08:38:08Z</time>
      </trkpt>
      <trkpt lat="45.92344" lon="1.31941">
        <ele>353.90258789062</ele>
        <time>2011-06-19T08:38:16Z</time>
      </trkpt>
      <trkpt lat="45.92346" lon="1.31901">
        <ele>356.30578613281</ele>
        <time>2011-06-19T08:38:24Z</time>
      </trkpt>
      <trkpt lat="45.92352" lon="1.31863">
        <ele>357.26708984375</ele>
        <time>2011-06-19T08:38:31Z</time>
      </trkpt>
      <trkpt lat="45.92353" lon="1.31853">
        <ele>356.30578613281</ele>
        <time>2011-06-19T08:38:33Z</time>
      </trkpt>
      <trkpt lat="45.92344" lon="1.31838">
        <ele>357.26708984375</ele>
        <time>2011-06-19T08:38:37Z</time>
      </trkpt>
      <trkpt lat="45.92328" lon="1.3181">
        <ele>358.22839355469</ele>
        <time>2011-06-19T08:38:44Z</time>
      </trkpt>
      <trkpt lat="45.92312" lon="1.31779">
        <ele>359.67041015625</ele>
        <time>2011-06-19T08:38:52Z</time>
      </trkpt>
      <trkpt lat="45.92305" lon="1.3176">
        <ele>360.63171386719</ele>
        <time>2011-06-19T08:38:57Z</time>
      </trkpt>
      <trkpt lat="45.92299" lon="1.3173">
        <ele>361.59313964844</ele>
        <time>2011-06-19T08:39:04Z</time>
      </trkpt>
      <trkpt lat="45.92295" lon="1.31702">
        <ele>362.55432128906</ele>
        <time>2011-06-19T08:39:11Z</time>
      </trkpt>
      <trkpt lat="45.92294" lon="1.31677">
        <ele>363.03503417969</ele>
        <time>2011-06-19T08:39:16Z</time>
      </trkpt>
      <trkpt lat="45.92297" lon="1.3165">
        <ele>364.47692871094</ele>
        <time>2011-06-19T08:39:23Z</time>
      </trkpt>
      <trkpt lat="45.92298" lon="1.31624">
        <ele>367.36096191406</ele>
        <time>2011-06-19T08:39:29Z</time>
      </trkpt>
      <trkpt lat="45.92297" lon="1.31614">
        <ele>365.43835449219</ele>
        <time>2011-06-19T08:39:32Z</time>
      </trkpt>
      <trkpt lat="45.92287" lon="1.31603">
        <ele>363.51574707031</ele>
        <time>2011-06-19T08:39:37Z</time>
      </trkpt>
      <trkpt lat="45.92285" lon="1.31602">
        <ele>362.55432128906</ele>
        <time>2011-06-19T08:39:38Z</time>
      </trkpt>
      <trkpt lat="45.92265" lon="1.316">
        <ele>360.63171386719</ele>
        <time>2011-06-19T08:39:45Z</time>
      </trkpt>
      <trkpt lat="45.92244" lon="1.31599">
        <ele>360.15112304688</ele>
        <time>2011-06-19T08:39:51Z</time>
      </trkpt>
      <trkpt lat="45.9224" lon="1.31598">
        <ele>360.15112304688</ele>
        <time>2011-06-19T08:39:52Z</time>
      </trkpt>
      <trkpt lat="45.92234" lon="1.31583">
        <ele>359.67041015625</ele>
        <time>2011-06-19T08:39:56Z</time>
      </trkpt>
      <trkpt lat="45.92234" lon="1.31579">
        <ele>360.15112304688</ele>
        <time>2011-06-19T08:39:57Z</time>
      </trkpt>
      <trkpt lat="45.92229" lon="1.31541">
        <ele>364.95764160156</ele>
        <time>2011-06-19T08:40:05Z</time>
      </trkpt>
      <trkpt lat="45.92225" lon="1.31502">
        <ele>365.9189453125</ele>
        <time>2011-06-19T08:40:12Z</time>
      </trkpt>
      <trkpt lat="45.9222" lon="1.3145">
        <ele>363.99633789062</ele>
        <time>2011-06-19T08:40:20Z</time>
      </trkpt>
      <trkpt lat="45.92216" lon="1.31431">
        <ele>363.99633789062</ele>
        <time>2011-06-19T08:40:23Z</time>
      </trkpt>
      <trkpt lat="45.92214" lon="1.31413">
        <ele>363.99633789062</ele>
        <time>2011-06-19T08:40:26Z</time>
      </trkpt>
      <trkpt lat="45.92199" lon="1.31358">
        <ele>363.03503417969</ele>
        <time>2011-06-19T08:40:36Z</time>
      </trkpt>
      <trkpt lat="45.92182" lon="1.31323">
        <ele>363.51574707031</ele>
        <time>2011-06-19T08:40:44Z</time>
      </trkpt>
      <trkpt lat="45.92172" lon="1.31305">
        <ele>364.47692871094</ele>
        <time>2011-06-19T08:40:50Z</time>
      </trkpt>
      <trkpt lat="45.92156" lon="1.31286">
        <ele>365.9189453125</ele>
        <time>2011-06-19T08:40:58Z</time>
      </trkpt>
      <trkpt lat="45.92137" lon="1.31266">
        <ele>365.43835449219</ele>
        <time>2011-06-19T08:41:05Z</time>
      </trkpt>
      <trkpt lat="45.9211" lon="1.31233">
        <ele>364.95764160156</ele>
        <time>2011-06-19T08:41:13Z</time>
      </trkpt>
      <trkpt lat="45.92081" lon="1.31216">
        <ele>364.95764160156</ele>
        <time>2011-06-19T08:41:20Z</time>
      </trkpt>
      <trkpt lat="45.92055" lon="1.3121">
        <ele>365.43835449219</ele>
        <time>2011-06-19T08:41:26Z</time>
      </trkpt>
      <trkpt lat="45.9203" lon="1.31218">
        <ele>366.39953613281</ele>
        <time>2011-06-19T08:41:32Z</time>
      </trkpt>
      <trkpt lat="45.92003" lon="1.31227">
        <ele>367.84155273438</ele>
        <time>2011-06-19T08:41:39Z</time>
      </trkpt>
      <trkpt lat="45.91976" lon="1.31238">
        <ele>369.76428222656</ele>
        <time>2011-06-19T08:41:47Z</time>
      </trkpt>
      <trkpt lat="45.91961" lon="1.31245">
        <ele>371.20629882812</ele>
        <time>2011-06-19T08:41:54Z</time>
      </trkpt>
      <trkpt lat="45.91944" lon="1.31255">
        <ele>373.12890625</ele>
        <time>2011-06-19T08:42:02Z</time>
      </trkpt>
      <trkpt lat="45.91928" lon="1.31267">
        <ele>373.60949707031</ele>
        <time>2011-06-19T08:42:08Z</time>
      </trkpt>
      <trkpt lat="45.91903" lon="1.31285">
        <ele>372.16748046875</ele>
        <time>2011-06-19T08:42:14Z</time>
      </trkpt>
      <trkpt lat="45.91869" lon="1.31307">
        <ele>370.7255859375</ele>
        <time>2011-06-19T08:42:21Z</time>
      </trkpt>
      <trkpt lat="45.91837" lon="1.31329">
        <ele>367.84155273438</ele>
        <time>2011-06-19T08:42:27Z</time>
      </trkpt>
      <trkpt lat="45.91792" lon="1.31364">
        <ele>365.43835449219</ele>
        <time>2011-06-19T08:42:35Z</time>
      </trkpt>
      <trkpt lat="45.9175" lon="1.31393">
        <ele>362.07373046875</ele>
        <time>2011-06-19T08:42:42Z</time>
      </trkpt>
      <trkpt lat="45.917" lon="1.3143">
        <ele>358.708984375</ele>
        <time>2011-06-19T08:42:51Z</time>
      </trkpt>
      <trkpt lat="45.91658" lon="1.31457">
        <ele>358.22839355469</ele>
        <time>2011-06-19T08:42:58Z</time>
      </trkpt>
      <trkpt lat="45.91618" lon="1.31486">
        <ele>357.74780273438</ele>
        <time>2011-06-19T08:43:05Z</time>
      </trkpt>
      <trkpt lat="45.9157" lon="1.31517">
        <ele>357.74780273438</ele>
        <time>2011-06-19T08:43:13Z</time>
      </trkpt>
      <trkpt lat="45.91529" lon="1.31537">
        <ele>358.22839355469</ele>
        <time>2011-06-19T08:43:19Z</time>
      </trkpt>
      <trkpt lat="45.91469" lon="1.31555">
        <ele>357.26708984375</ele>
        <time>2011-06-19T08:43:28Z</time>
      </trkpt>
      <trkpt lat="45.9143" lon="1.31567">
        <ele>357.26708984375</ele>
        <time>2011-06-19T08:43:35Z</time>
      </trkpt>
      <trkpt lat="45.91405" lon="1.31576">
        <ele>356.78637695312</ele>
        <time>2011-06-19T08:43:41Z</time>
      </trkpt>
      <trkpt lat="45.91396" lon="1.31578">
        <ele>356.78637695312</ele>
        <time>2011-06-19T08:43:45Z</time>
      </trkpt>
      <trkpt lat="45.91374" lon="1.3158">
        <ele>357.74780273438</ele>
        <time>2011-06-19T08:43:50Z</time>
      </trkpt>
      <trkpt lat="45.91338" lon="1.31587">
        <ele>356.78637695312</ele>
        <time>2011-06-19T08:43:56Z</time>
      </trkpt>
      <trkpt lat="45.91313" lon="1.3159">
        <ele>357.26708984375</ele>
        <time>2011-06-19T08:44:00Z</time>
      </trkpt>
      <trkpt lat="45.91274" lon="1.31593">
        <ele>358.22839355469</ele>
        <time>2011-06-19T08:44:06Z</time>
      </trkpt>
      <trkpt lat="45.91228" lon="1.31594">
        <ele>358.22839355469</ele>
        <time>2011-06-19T08:44:13Z</time>
      </trkpt>
      <trkpt lat="45.91204" lon="1.3159">
        <ele>358.22839355469</ele>
        <time>2011-06-19T08:44:17Z</time>
      </trkpt>
      <trkpt lat="45.91178" lon="1.31589">
        <ele>359.18969726562</ele>
        <time>2011-06-19T08:44:21Z</time>
      </trkpt>
      <trkpt lat="45.91134" lon="1.31585">
        <ele>360.63171386719</ele>
        <time>2011-06-19T08:44:28Z</time>
      </trkpt>
      <trkpt lat="45.91091" lon="1.31579">
        <ele>356.78637695312</ele>
        <time>2011-06-19T08:44:35Z</time>
      </trkpt>
      <trkpt lat="45.91055" lon="1.31577">
        <ele>354.38317871094</ele>
        <time>2011-06-19T08:44:41Z</time>
      </trkpt>
      <trkpt lat="45.91014" lon="1.31587">
        <ele>354.86376953125</ele>
        <time>2011-06-19T08:44:47Z</time>
      </trkpt>
      <trkpt lat="45.90956" lon="1.31606">
        <ele>354.86376953125</ele>
        <time>2011-06-19T08:44:55Z</time>
      </trkpt>
      <trkpt lat="45.90916" lon="1.31616">
        <ele>354.86376953125</ele>
        <time>2011-06-19T08:45:01Z</time>
      </trkpt>
      <trkpt lat="45.90874" lon="1.31638">
        <ele>355.34448242188</ele>
        <time>2011-06-19T08:45:07Z</time>
      </trkpt>
      <trkpt lat="45.90834" lon="1.3166">
        <ele>353.90258789062</ele>
        <time>2011-06-19T08:45:13Z</time>
      </trkpt>
      <trkpt lat="45.90788" lon="1.31683">
        <ele>353.90258789062</ele>
        <time>2011-06-19T08:45:20Z</time>
      </trkpt>
      <trkpt lat="45.90767" lon="1.31693">
        <ele>354.86376953125</ele>
        <time>2011-06-19T08:45:23Z</time>
      </trkpt>
      <trkpt lat="45.90732" lon="1.31715">
        <ele>355.34448242188</ele>
        <time>2011-06-19T08:45:28Z</time>
      </trkpt>
      <trkpt lat="45.90701" lon="1.31728">
        <ele>352.94116210938</ele>
        <time>2011-06-19T08:45:33Z</time>
      </trkpt>
      <trkpt lat="45.90658" lon="1.31739">
        <ele>351.01843261719</ele>
        <time>2011-06-19T08:45:40Z</time>
      </trkpt>
      <trkpt lat="45.90619" lon="1.31753">
        <ele>352.46057128906</ele>
        <time>2011-06-19T08:45:46Z</time>
      </trkpt>
      <trkpt lat="45.90573" lon="1.31765">
        <ele>348.13464355469</ele>
        <time>2011-06-19T08:45:53Z</time>
      </trkpt>
      <trkpt lat="45.9056" lon="1.31768">
        <ele>347.65393066406</ele>
        <time>2011-06-19T08:45:55Z</time>
      </trkpt>
      <trkpt lat="45.9051" lon="1.3176">
        <ele>344.77001953125</ele>
        <time>2011-06-19T08:46:02Z</time>
      </trkpt>
      <trkpt lat="45.90457" lon="1.31759">
        <ele>342.36669921875</ele>
        <time>2011-06-19T08:46:09Z</time>
      </trkpt>
      <trkpt lat="45.90411" lon="1.31763">
        <ele>340.92468261719</ele>
        <time>2011-06-19T08:46:15Z</time>
      </trkpt>
      <trkpt lat="45.90374" lon="1.31758">
        <ele>339.48266601562</ele>
        <time>2011-06-19T08:46:20Z</time>
      </trkpt>
      <trkpt lat="45.90332" lon="1.31736">
        <ele>336.1181640625</ele>
        <time>2011-06-19T08:46:26Z</time>
      </trkpt>
      <trkpt lat="45.90285" lon="1.31713">
        <ele>334.67614746094</ele>
        <time>2011-06-19T08:46:33Z</time>
      </trkpt>
      <trkpt lat="45.90226" lon="1.31693">
        <ele>334.67614746094</ele>
        <time>2011-06-19T08:46:42Z</time>
      </trkpt>
      <trkpt lat="45.90173" lon="1.31673">
        <ele>335.15673828125</ele>
        <time>2011-06-19T08:46:50Z</time>
      </trkpt>
      <trkpt lat="45.90162" lon="1.31669">
        <ele>335.15673828125</ele>
        <time>2011-06-19T08:46:53Z</time>
      </trkpt>
      <trkpt lat="45.90155" lon="1.31665">
        <ele>334.19543457031</ele>
        <time>2011-06-19T08:46:58Z</time>
      </trkpt>
      <trkpt lat="45.90155" lon="1.31665">
        <ele>333.71472167969</ele>
        <time>2011-06-19T08:47:00Z</time>
      </trkpt>
      <trkpt lat="45.90156" lon="1.31664">
        <ele>332.27282714844</ele>
        <time>2011-06-19T08:48:08Z</time>
      </trkpt>
      <trkpt lat="45.90149" lon="1.31661">
        <ele>332.27282714844</ele>
        <time>2011-06-19T08:48:11Z</time>
      </trkpt>
      <trkpt lat="45.90143" lon="1.31656">
        <ele>332.27282714844</ele>
        <time>2011-06-19T08:48:13Z</time>
      </trkpt>
      <trkpt lat="45.90116" lon="1.31643">
        <ele>332.27282714844</ele>
        <time>2011-06-19T08:48:19Z</time>
      </trkpt>
      <trkpt lat="45.90086" lon="1.31627">
        <ele>332.75354003906</ele>
        <time>2011-06-19T08:48:25Z</time>
      </trkpt>
      <trkpt lat="45.90045" lon="1.31606">
        <ele>334.19543457031</ele>
        <time>2011-06-19T08:48:33Z</time>
      </trkpt>
      <trkpt lat="45.90018" lon="1.31611">
        <ele>335.15673828125</ele>
        <time>2011-06-19T08:48:38Z</time>
      </trkpt>
      <trkpt lat="45.90013" lon="1.31615">
        <ele>335.63732910156</ele>
        <time>2011-06-19T08:48:39Z</time>
      </trkpt>
      <trkpt lat="45.89975" lon="1.31653">
        <ele>337.07946777344</ele>
        <time>2011-06-19T08:48:48Z</time>
      </trkpt>
      <trkpt lat="45.89959" lon="1.31656">
        <ele>336.1181640625</ele>
        <time>2011-06-19T08:48:52Z</time>
      </trkpt>
      <trkpt lat="45.89956" lon="1.31652">
        <ele>335.63732910156</ele>
        <time>2011-06-19T08:48:53Z</time>
      </trkpt>
      <trkpt lat="45.89935" lon="1.31607">
        <ele>335.63732910156</ele>
        <time>2011-06-19T08:49:02Z</time>
      </trkpt>
      <trkpt lat="45.89908" lon="1.31568">
        <ele>337.07946777344</ele>
        <time>2011-06-19T08:49:11Z</time>
      </trkpt>
      <trkpt lat="45.89884" lon="1.31541">
        <ele>338.04077148438</ele>
        <time>2011-06-19T08:49:19Z</time>
      </trkpt>
      <trkpt lat="45.89855" lon="1.31518">
        <ele>338.04077148438</ele>
        <time>2011-06-19T08:49:27Z</time>
      </trkpt>
      <trkpt lat="45.89845" lon="1.31505">
        <ele>337.07946777344</ele>
        <time>2011-06-19T08:49:31Z</time>
      </trkpt>
      <trkpt lat="45.89852" lon="1.31483">
        <ele>335.63732910156</ele>
        <time>2011-06-19T08:49:36Z</time>
      </trkpt>
      <trkpt lat="45.89855" lon="1.31461">
        <ele>334.67614746094</ele>
        <time>2011-06-19T08:49:41Z</time>
      </trkpt>
      <trkpt lat="45.89841" lon="1.31453">
        <ele>334.67614746094</ele>
        <time>2011-06-19T08:49:46Z</time>
      </trkpt>
      <trkpt lat="45.89832" lon="1.31453">
        <ele>334.67614746094</ele>
        <time>2011-06-19T08:49:52Z</time>
      </trkpt>
    </trkseg>
  </trk>
</gpx>